<?xml version="1.0" encoding="UTF-8" standalone="no" ?>
<gpx xmlns="http://www.topografix.com/GPX/1/1" xmlns:xsi="http://www.w3.org/2001/XMLSchema-instance" xsi:schemaLocation="http://www.topografix.com/GPX/1/1 http://www.topografix.com/GPX/1/1/gpx.xsd" version="1.1" creator="VisuGPX - https://www.visugpx.com">
  <metadata>
    <name>Moulins de Veroncle joucas</name>
    <desc><![CDATA[joucas veroncle 13km]]></desc>
  </metadata>
  <trk>
    <name><![CDATA[Moulins de Veroncle_28 mai 2014 09:22:18]]></name>
    <trkseg>
      <trkpt lat="43.92544" lon="5.25418">
        <ele>200</ele>
        <time>2014-05-28T07:22:18Z</time>
      </trkpt>
      <trkpt lat="43.92537" lon="5.2541">
        <ele>212</ele>
        <time>2014-05-28T07:22:58Z</time>
      </trkpt>
      <trkpt lat="43.92531" lon="5.25401">
        <ele>213</ele>
        <time>2014-05-28T07:24:35Z</time>
      </trkpt>
      <trkpt lat="43.92539" lon="5.25405">
        <ele>217</ele>
        <time>2014-05-28T07:28:07Z</time>
      </trkpt>
      <trkpt lat="43.92546" lon="5.25413">
        <ele>217</ele>
        <time>2014-05-28T07:28:17Z</time>
      </trkpt>
      <trkpt lat="43.92553" lon="5.2542">
        <ele>218</ele>
        <time>2014-05-28T07:28:29Z</time>
      </trkpt>
      <trkpt lat="43.92561" lon="5.25423">
        <ele>222</ele>
        <time>2014-05-28T07:29:22Z</time>
      </trkpt>
      <trkpt lat="43.92567" lon="5.25414">
        <ele>222</ele>
        <time>2014-05-28T07:29:31Z</time>
      </trkpt>
      <trkpt lat="43.92573" lon="5.25407">
        <ele>223</ele>
        <time>2014-05-28T07:29:40Z</time>
      </trkpt>
      <trkpt lat="43.9258" lon="5.25398">
        <ele>226</ele>
        <time>2014-05-28T07:30:02Z</time>
      </trkpt>
      <trkpt lat="43.92584" lon="5.25388">
        <ele>228</ele>
        <time>2014-05-28T07:30:11Z</time>
      </trkpt>
      <trkpt lat="43.92586" lon="5.25376">
        <ele>227</ele>
        <time>2014-05-28T07:30:19Z</time>
      </trkpt>
      <trkpt lat="43.92586" lon="5.25365">
        <ele>227</ele>
        <time>2014-05-28T07:30:26Z</time>
      </trkpt>
      <trkpt lat="43.92585" lon="5.25353">
        <ele>231</ele>
        <time>2014-05-28T07:30:34Z</time>
      </trkpt>
      <trkpt lat="43.92584" lon="5.25342">
        <ele>230</ele>
        <time>2014-05-28T07:30:42Z</time>
      </trkpt>
      <trkpt lat="43.92582" lon="5.2533">
        <ele>234</ele>
        <time>2014-05-28T07:30:52Z</time>
      </trkpt>
      <trkpt lat="43.92581" lon="5.25318">
        <ele>234</ele>
        <time>2014-05-28T07:31:00Z</time>
      </trkpt>
      <trkpt lat="43.92578" lon="5.25306">
        <ele>233</ele>
        <time>2014-05-28T07:31:08Z</time>
      </trkpt>
      <trkpt lat="43.92576" lon="5.25295">
        <ele>234</ele>
        <time>2014-05-28T07:31:16Z</time>
      </trkpt>
      <trkpt lat="43.92575" lon="5.25283">
        <ele>236</ele>
        <time>2014-05-28T07:31:24Z</time>
      </trkpt>
      <trkpt lat="43.92576" lon="5.25272">
        <ele>238</ele>
        <time>2014-05-28T07:31:31Z</time>
      </trkpt>
      <trkpt lat="43.92574" lon="5.25261">
        <ele>239</ele>
        <time>2014-05-28T07:31:38Z</time>
      </trkpt>
      <trkpt lat="43.92572" lon="5.25249">
        <ele>245</ele>
        <time>2014-05-28T07:31:49Z</time>
      </trkpt>
      <trkpt lat="43.92571" lon="5.25237">
        <ele>247</ele>
        <time>2014-05-28T07:31:59Z</time>
      </trkpt>
      <trkpt lat="43.92569" lon="5.25226">
        <ele>248</ele>
        <time>2014-05-28T07:32:06Z</time>
      </trkpt>
      <trkpt lat="43.92563" lon="5.25218">
        <ele>249</ele>
        <time>2014-05-28T07:32:12Z</time>
      </trkpt>
      <trkpt lat="43.92566" lon="5.25207">
        <ele>246</ele>
        <time>2014-05-28T07:32:25Z</time>
      </trkpt>
      <trkpt lat="43.92572" lon="5.25198">
        <ele>250</ele>
        <time>2014-05-28T07:32:43Z</time>
      </trkpt>
      <trkpt lat="43.92576" lon="5.25188">
        <ele>250</ele>
        <time>2014-05-28T07:32:54Z</time>
      </trkpt>
      <trkpt lat="43.92579" lon="5.25177">
        <ele>254</ele>
        <time>2014-05-28T07:33:07Z</time>
      </trkpt>
      <trkpt lat="43.92581" lon="5.25165">
        <ele>259</ele>
        <time>2014-05-28T07:33:25Z</time>
      </trkpt>
      <trkpt lat="43.92586" lon="5.25154">
        <ele>257</ele>
        <time>2014-05-28T07:33:57Z</time>
      </trkpt>
      <trkpt lat="43.92592" lon="5.25164">
        <ele>257</ele>
        <time>2014-05-28T07:35:05Z</time>
      </trkpt>
      <trkpt lat="43.926" lon="5.25161">
        <ele>257</ele>
        <time>2014-05-28T07:35:52Z</time>
      </trkpt>
      <trkpt lat="43.92606" lon="5.25152">
        <ele>261</ele>
        <time>2014-05-28T07:36:05Z</time>
      </trkpt>
      <trkpt lat="43.92612" lon="5.25143">
        <ele>262</ele>
        <time>2014-05-28T07:36:14Z</time>
      </trkpt>
      <trkpt lat="43.92618" lon="5.25136">
        <ele>266</ele>
        <time>2014-05-28T07:36:24Z</time>
      </trkpt>
      <trkpt lat="43.92626" lon="5.2513">
        <ele>266</ele>
        <time>2014-05-28T07:36:33Z</time>
      </trkpt>
      <trkpt lat="43.92632" lon="5.25122">
        <ele>264</ele>
        <time>2014-05-28T07:36:41Z</time>
      </trkpt>
      <trkpt lat="43.92639" lon="5.25114">
        <ele>266</ele>
        <time>2014-05-28T07:36:49Z</time>
      </trkpt>
      <trkpt lat="43.92647" lon="5.25109">
        <ele>269</ele>
        <time>2014-05-28T07:37:12Z</time>
      </trkpt>
      <trkpt lat="43.92654" lon="5.25101">
        <ele>270</ele>
        <time>2014-05-28T07:37:40Z</time>
      </trkpt>
      <trkpt lat="43.92661" lon="5.25095">
        <ele>271</ele>
        <time>2014-05-28T07:37:53Z</time>
      </trkpt>
      <trkpt lat="43.92669" lon="5.25089">
        <ele>272</ele>
        <time>2014-05-28T07:38:03Z</time>
      </trkpt>
      <trkpt lat="43.92667" lon="5.25077">
        <ele>269</ele>
        <time>2014-05-28T07:38:21Z</time>
      </trkpt>
      <trkpt lat="43.92667" lon="5.25065">
        <ele>272</ele>
        <time>2014-05-28T07:38:30Z</time>
      </trkpt>
      <trkpt lat="43.92666" lon="5.25053">
        <ele>271</ele>
        <time>2014-05-28T07:38:39Z</time>
      </trkpt>
      <trkpt lat="43.92663" lon="5.25041">
        <ele>273</ele>
        <time>2014-05-28T07:38:49Z</time>
      </trkpt>
      <trkpt lat="43.92663" lon="5.2503">
        <ele>273</ele>
        <time>2014-05-28T07:38:58Z</time>
      </trkpt>
      <trkpt lat="43.92663" lon="5.25017">
        <ele>273</ele>
        <time>2014-05-28T07:39:09Z</time>
      </trkpt>
      <trkpt lat="43.92663" lon="5.25006">
        <ele>274</ele>
        <time>2014-05-28T07:39:20Z</time>
      </trkpt>
      <trkpt lat="43.92664" lon="5.24994">
        <ele>274</ele>
        <time>2014-05-28T07:39:29Z</time>
      </trkpt>
      <trkpt lat="43.92665" lon="5.24982">
        <ele>275</ele>
        <time>2014-05-28T07:39:38Z</time>
      </trkpt>
      <trkpt lat="43.92667" lon="5.2497">
        <ele>274</ele>
        <time>2014-05-28T07:39:46Z</time>
      </trkpt>
      <trkpt lat="43.92666" lon="5.24958">
        <ele>274</ele>
        <time>2014-05-28T07:39:55Z</time>
      </trkpt>
      <trkpt lat="43.92666" lon="5.24946">
        <ele>274</ele>
        <time>2014-05-28T07:40:05Z</time>
      </trkpt>
      <trkpt lat="43.92663" lon="5.24934">
        <ele>276</ele>
        <time>2014-05-28T07:40:14Z</time>
      </trkpt>
      <trkpt lat="43.92659" lon="5.24924">
        <ele>277</ele>
        <time>2014-05-28T07:40:22Z</time>
      </trkpt>
      <trkpt lat="43.92654" lon="5.24914">
        <ele>280</ele>
        <time>2014-05-28T07:40:30Z</time>
      </trkpt>
      <trkpt lat="43.92652" lon="5.24903">
        <ele>279</ele>
        <time>2014-05-28T07:40:40Z</time>
      </trkpt>
      <trkpt lat="43.92649" lon="5.24892">
        <ele>279</ele>
        <time>2014-05-28T07:40:47Z</time>
      </trkpt>
      <trkpt lat="43.92647" lon="5.24881">
        <ele>277</ele>
        <time>2014-05-28T07:40:54Z</time>
      </trkpt>
      <trkpt lat="43.92644" lon="5.24871">
        <ele>275</ele>
        <time>2014-05-28T07:41:02Z</time>
      </trkpt>
      <trkpt lat="43.92641" lon="5.24861">
        <ele>273</ele>
        <time>2014-05-28T07:41:09Z</time>
      </trkpt>
      <trkpt lat="43.92637" lon="5.24851">
        <ele>274</ele>
        <time>2014-05-28T07:41:16Z</time>
      </trkpt>
      <trkpt lat="43.92633" lon="5.2484">
        <ele>277</ele>
        <time>2014-05-28T07:41:23Z</time>
      </trkpt>
      <trkpt lat="43.9263" lon="5.24829">
        <ele>279</ele>
        <time>2014-05-28T07:41:31Z</time>
      </trkpt>
      <trkpt lat="43.92628" lon="5.24817">
        <ele>277</ele>
        <time>2014-05-28T07:41:39Z</time>
      </trkpt>
      <trkpt lat="43.92625" lon="5.24806">
        <ele>276</ele>
        <time>2014-05-28T07:41:46Z</time>
      </trkpt>
      <trkpt lat="43.92624" lon="5.24794">
        <ele>277</ele>
        <time>2014-05-28T07:41:54Z</time>
      </trkpt>
      <trkpt lat="43.9262" lon="5.24783">
        <ele>278</ele>
        <time>2014-05-28T07:42:01Z</time>
      </trkpt>
      <trkpt lat="43.92621" lon="5.24772">
        <ele>277</ele>
        <time>2014-05-28T07:42:08Z</time>
      </trkpt>
      <trkpt lat="43.92624" lon="5.24762">
        <ele>276</ele>
        <time>2014-05-28T07:42:15Z</time>
      </trkpt>
      <trkpt lat="43.92624" lon="5.2475">
        <ele>276</ele>
        <time>2014-05-28T07:42:24Z</time>
      </trkpt>
      <trkpt lat="43.92625" lon="5.24738">
        <ele>280</ele>
        <time>2014-05-28T07:42:33Z</time>
      </trkpt>
      <trkpt lat="43.92625" lon="5.24726">
        <ele>280</ele>
        <time>2014-05-28T07:42:42Z</time>
      </trkpt>
      <trkpt lat="43.92626" lon="5.24714">
        <ele>280</ele>
        <time>2014-05-28T07:42:50Z</time>
      </trkpt>
      <trkpt lat="43.92627" lon="5.24702">
        <ele>278</ele>
        <time>2014-05-28T07:42:58Z</time>
      </trkpt>
      <trkpt lat="43.92627" lon="5.24691">
        <ele>278</ele>
        <time>2014-05-28T07:43:05Z</time>
      </trkpt>
      <trkpt lat="43.92628" lon="5.24679">
        <ele>279</ele>
        <time>2014-05-28T07:43:13Z</time>
      </trkpt>
      <trkpt lat="43.92631" lon="5.24667">
        <ele>278</ele>
        <time>2014-05-28T07:43:21Z</time>
      </trkpt>
      <trkpt lat="43.92632" lon="5.24656">
        <ele>280</ele>
        <time>2014-05-28T07:43:29Z</time>
      </trkpt>
      <trkpt lat="43.92631" lon="5.24644">
        <ele>280</ele>
        <time>2014-05-28T07:43:38Z</time>
      </trkpt>
      <trkpt lat="43.92629" lon="5.24633">
        <ele>282</ele>
        <time>2014-05-28T07:43:46Z</time>
      </trkpt>
      <trkpt lat="43.92629" lon="5.24621">
        <ele>284</ele>
        <time>2014-05-28T07:43:56Z</time>
      </trkpt>
      <trkpt lat="43.92628" lon="5.2461">
        <ele>286</ele>
        <time>2014-05-28T07:44:04Z</time>
      </trkpt>
      <trkpt lat="43.92625" lon="5.246">
        <ele>288</ele>
        <time>2014-05-28T07:44:12Z</time>
      </trkpt>
      <trkpt lat="43.92625" lon="5.24587">
        <ele>290</ele>
        <time>2014-05-28T07:44:20Z</time>
      </trkpt>
      <trkpt lat="43.92623" lon="5.24576">
        <ele>286</ele>
        <time>2014-05-28T07:44:29Z</time>
      </trkpt>
      <trkpt lat="43.92616" lon="5.24569">
        <ele>286</ele>
        <time>2014-05-28T07:44:40Z</time>
      </trkpt>
      <trkpt lat="43.9261" lon="5.2456">
        <ele>286</ele>
        <time>2014-05-28T07:44:49Z</time>
      </trkpt>
      <trkpt lat="43.92607" lon="5.2455">
        <ele>285</ele>
        <time>2014-05-28T07:44:58Z</time>
      </trkpt>
      <trkpt lat="43.92601" lon="5.24541">
        <ele>283</ele>
        <time>2014-05-28T07:45:07Z</time>
      </trkpt>
      <trkpt lat="43.92596" lon="5.24532">
        <ele>286</ele>
        <time>2014-05-28T07:45:15Z</time>
      </trkpt>
      <trkpt lat="43.92591" lon="5.24523">
        <ele>286</ele>
        <time>2014-05-28T07:45:24Z</time>
      </trkpt>
      <trkpt lat="43.92586" lon="5.24512">
        <ele>289</ele>
        <time>2014-05-28T07:45:33Z</time>
      </trkpt>
      <trkpt lat="43.92584" lon="5.24501">
        <ele>284</ele>
        <time>2014-05-28T07:45:47Z</time>
      </trkpt>
      <trkpt lat="43.9258" lon="5.24491">
        <ele>287</ele>
        <time>2014-05-28T07:45:55Z</time>
      </trkpt>
      <trkpt lat="43.92577" lon="5.24481">
        <ele>285</ele>
        <time>2014-05-28T07:46:03Z</time>
      </trkpt>
      <trkpt lat="43.92574" lon="5.24469">
        <ele>284</ele>
        <time>2014-05-28T07:46:12Z</time>
      </trkpt>
      <trkpt lat="43.92571" lon="5.24458">
        <ele>286</ele>
        <time>2014-05-28T07:46:21Z</time>
      </trkpt>
      <trkpt lat="43.92565" lon="5.24449">
        <ele>288</ele>
        <time>2014-05-28T07:46:34Z</time>
      </trkpt>
      <trkpt lat="43.92562" lon="5.24438">
        <ele>286</ele>
        <time>2014-05-28T07:46:41Z</time>
      </trkpt>
      <trkpt lat="43.92558" lon="5.24427">
        <ele>286</ele>
        <time>2014-05-28T07:46:48Z</time>
      </trkpt>
      <trkpt lat="43.92555" lon="5.24416">
        <ele>287</ele>
        <time>2014-05-28T07:46:57Z</time>
      </trkpt>
      <trkpt lat="43.92551" lon="5.24405">
        <ele>289</ele>
        <time>2014-05-28T07:47:09Z</time>
      </trkpt>
      <trkpt lat="43.92551" lon="5.24393">
        <ele>289</ele>
        <time>2014-05-28T07:50:33Z</time>
      </trkpt>
      <trkpt lat="43.92545" lon="5.24384">
        <ele>286</ele>
        <time>2014-05-28T07:50:46Z</time>
      </trkpt>
      <trkpt lat="43.92542" lon="5.24374">
        <ele>286</ele>
        <time>2014-05-28T07:50:57Z</time>
      </trkpt>
      <trkpt lat="43.92539" lon="5.24362">
        <ele>287</ele>
        <time>2014-05-28T07:51:06Z</time>
      </trkpt>
      <trkpt lat="43.92536" lon="5.24351">
        <ele>288</ele>
        <time>2014-05-28T07:51:15Z</time>
      </trkpt>
      <trkpt lat="43.92534" lon="5.2434">
        <ele>287</ele>
        <time>2014-05-28T07:51:27Z</time>
      </trkpt>
      <trkpt lat="43.92529" lon="5.24331">
        <ele>285</ele>
        <time>2014-05-28T07:51:37Z</time>
      </trkpt>
      <trkpt lat="43.92525" lon="5.24321">
        <ele>285</ele>
        <time>2014-05-28T07:51:46Z</time>
      </trkpt>
      <trkpt lat="43.92523" lon="5.2431">
        <ele>284</ele>
        <time>2014-05-28T07:51:59Z</time>
      </trkpt>
      <trkpt lat="43.92518" lon="5.24299">
        <ele>284</ele>
        <time>2014-05-28T07:52:09Z</time>
      </trkpt>
      <trkpt lat="43.92515" lon="5.24289">
        <ele>287</ele>
        <time>2014-05-28T07:52:24Z</time>
      </trkpt>
      <trkpt lat="43.92514" lon="5.24276">
        <ele>290</ele>
        <time>2014-05-28T07:52:32Z</time>
      </trkpt>
      <trkpt lat="43.92514" lon="5.24264">
        <ele>285</ele>
        <time>2014-05-28T07:52:41Z</time>
      </trkpt>
      <trkpt lat="43.92516" lon="5.24253">
        <ele>284</ele>
        <time>2014-05-28T07:52:50Z</time>
      </trkpt>
      <trkpt lat="43.92517" lon="5.24241">
        <ele>285</ele>
        <time>2014-05-28T07:53:00Z</time>
      </trkpt>
      <trkpt lat="43.92515" lon="5.24229">
        <ele>286</ele>
        <time>2014-05-28T07:53:09Z</time>
      </trkpt>
      <trkpt lat="43.92518" lon="5.24217">
        <ele>281</ele>
        <time>2014-05-28T07:53:19Z</time>
      </trkpt>
      <trkpt lat="43.92518" lon="5.24205">
        <ele>283</ele>
        <time>2014-05-28T07:53:30Z</time>
      </trkpt>
      <trkpt lat="43.92516" lon="5.24194">
        <ele>284</ele>
        <time>2014-05-28T07:53:37Z</time>
      </trkpt>
      <trkpt lat="43.92512" lon="5.24183">
        <ele>288</ele>
        <time>2014-05-28T07:53:51Z</time>
      </trkpt>
      <trkpt lat="43.92503" lon="5.24181">
        <ele>291</ele>
        <time>2014-05-28T07:54:00Z</time>
      </trkpt>
      <trkpt lat="43.92499" lon="5.2417">
        <ele>291</ele>
        <time>2014-05-28T07:54:08Z</time>
      </trkpt>
      <trkpt lat="43.92497" lon="5.24159">
        <ele>291</ele>
        <time>2014-05-28T07:54:20Z</time>
      </trkpt>
      <trkpt lat="43.92493" lon="5.24149">
        <ele>291</ele>
        <time>2014-05-28T07:54:29Z</time>
      </trkpt>
      <trkpt lat="43.92489" lon="5.24137">
        <ele>291</ele>
        <time>2014-05-28T07:54:45Z</time>
      </trkpt>
      <trkpt lat="43.9249" lon="5.24125">
        <ele>290</ele>
        <time>2014-05-28T07:54:59Z</time>
      </trkpt>
      <trkpt lat="43.92487" lon="5.24113">
        <ele>293</ele>
        <time>2014-05-28T07:55:17Z</time>
      </trkpt>
      <trkpt lat="43.92485" lon="5.24102">
        <ele>294</ele>
        <time>2014-05-28T07:55:29Z</time>
      </trkpt>
      <trkpt lat="43.92482" lon="5.24091">
        <ele>290</ele>
        <time>2014-05-28T07:55:40Z</time>
      </trkpt>
      <trkpt lat="43.92484" lon="5.24079">
        <ele>288</ele>
        <time>2014-05-28T07:55:53Z</time>
      </trkpt>
      <trkpt lat="43.92481" lon="5.24068">
        <ele>288</ele>
        <time>2014-05-28T07:56:01Z</time>
      </trkpt>
      <trkpt lat="43.92478" lon="5.24056">
        <ele>292</ele>
        <time>2014-05-28T07:56:10Z</time>
      </trkpt>
      <trkpt lat="43.92475" lon="5.24044">
        <ele>296</ele>
        <time>2014-05-28T07:56:22Z</time>
      </trkpt>
      <trkpt lat="43.92474" lon="5.24032">
        <ele>297</ele>
        <time>2014-05-28T07:56:34Z</time>
      </trkpt>
      <trkpt lat="43.92473" lon="5.24021">
        <ele>297</ele>
        <time>2014-05-28T07:56:52Z</time>
      </trkpt>
      <trkpt lat="43.92477" lon="5.2401">
        <ele>297</ele>
        <time>2014-05-28T07:57:01Z</time>
      </trkpt>
      <trkpt lat="43.92478" lon="5.23999">
        <ele>298</ele>
        <time>2014-05-28T07:57:11Z</time>
      </trkpt>
      <trkpt lat="43.92477" lon="5.23988">
        <ele>297</ele>
        <time>2014-05-28T07:57:21Z</time>
      </trkpt>
      <trkpt lat="43.92476" lon="5.23975">
        <ele>297</ele>
        <time>2014-05-28T07:57:31Z</time>
      </trkpt>
      <trkpt lat="43.92474" lon="5.23964">
        <ele>297</ele>
        <time>2014-05-28T07:57:45Z</time>
      </trkpt>
      <trkpt lat="43.92474" lon="5.23952">
        <ele>298</ele>
        <time>2014-05-28T07:57:54Z</time>
      </trkpt>
      <trkpt lat="43.92472" lon="5.2394">
        <ele>298</ele>
        <time>2014-05-28T07:58:12Z</time>
      </trkpt>
      <trkpt lat="43.92473" lon="5.23928">
        <ele>293</ele>
        <time>2014-05-28T07:58:24Z</time>
      </trkpt>
      <trkpt lat="43.92473" lon="5.23916">
        <ele>293</ele>
        <time>2014-05-28T07:58:36Z</time>
      </trkpt>
      <trkpt lat="43.92478" lon="5.23905">
        <ele>293</ele>
        <time>2014-05-28T07:58:47Z</time>
      </trkpt>
      <trkpt lat="43.92478" lon="5.23894">
        <ele>293</ele>
        <time>2014-05-28T07:58:57Z</time>
      </trkpt>
      <trkpt lat="43.92478" lon="5.23882">
        <ele>296</ele>
        <time>2014-05-28T07:59:07Z</time>
      </trkpt>
      <trkpt lat="43.92483" lon="5.23872">
        <ele>298</ele>
        <time>2014-05-28T07:59:20Z</time>
      </trkpt>
      <trkpt lat="43.92485" lon="5.23861">
        <ele>300</ele>
        <time>2014-05-28T07:59:39Z</time>
      </trkpt>
      <trkpt lat="43.92485" lon="5.23848">
        <ele>305</ele>
        <time>2014-05-28T08:00:05Z</time>
      </trkpt>
      <trkpt lat="43.92485" lon="5.23837">
        <ele>303</ele>
        <time>2014-05-28T08:00:16Z</time>
      </trkpt>
      <trkpt lat="43.92484" lon="5.23825">
        <ele>305</ele>
        <time>2014-05-28T08:00:33Z</time>
      </trkpt>
      <trkpt lat="43.92485" lon="5.23813">
        <ele>306</ele>
        <time>2014-05-28T08:00:41Z</time>
      </trkpt>
      <trkpt lat="43.92484" lon="5.23801">
        <ele>306</ele>
        <time>2014-05-28T08:00:50Z</time>
      </trkpt>
      <trkpt lat="43.92478" lon="5.23793">
        <ele>307</ele>
        <time>2014-05-28T08:01:02Z</time>
      </trkpt>
      <trkpt lat="43.92477" lon="5.23782">
        <ele>300</ele>
        <time>2014-05-28T08:01:10Z</time>
      </trkpt>
      <trkpt lat="43.92479" lon="5.2377">
        <ele>299</ele>
        <time>2014-05-28T08:01:19Z</time>
      </trkpt>
      <trkpt lat="43.92482" lon="5.2376">
        <ele>300</ele>
        <time>2014-05-28T08:01:27Z</time>
      </trkpt>
      <trkpt lat="43.92486" lon="5.2375">
        <ele>303</ele>
        <time>2014-05-28T08:01:37Z</time>
      </trkpt>
      <trkpt lat="43.9249" lon="5.23739">
        <ele>304</ele>
        <time>2014-05-28T08:02:01Z</time>
      </trkpt>
      <trkpt lat="43.92492" lon="5.23727">
        <ele>308</ele>
        <time>2014-05-28T08:02:37Z</time>
      </trkpt>
      <trkpt lat="43.92483" lon="5.23724">
        <ele>309</ele>
        <time>2014-05-28T08:02:53Z</time>
      </trkpt>
      <trkpt lat="43.92474" lon="5.23725">
        <ele>308</ele>
        <time>2014-05-28T08:03:23Z</time>
      </trkpt>
      <trkpt lat="43.92465" lon="5.23725">
        <ele>308</ele>
        <time>2014-05-28T08:03:56Z</time>
      </trkpt>
      <trkpt lat="43.92458" lon="5.23719">
        <ele>307</ele>
        <time>2014-05-28T08:04:11Z</time>
      </trkpt>
      <trkpt lat="43.9245" lon="5.23724">
        <ele>299</ele>
        <time>2014-05-28T08:04:50Z</time>
      </trkpt>
      <trkpt lat="43.92444" lon="5.23733">
        <ele>299</ele>
        <time>2014-05-28T08:05:20Z</time>
      </trkpt>
      <trkpt lat="43.92435" lon="5.23733">
        <ele>294</ele>
        <time>2014-05-28T08:05:42Z</time>
      </trkpt>
      <trkpt lat="43.92427" lon="5.23729">
        <ele>291</ele>
        <time>2014-05-28T08:06:12Z</time>
      </trkpt>
      <trkpt lat="43.9242" lon="5.23722">
        <ele>289</ele>
        <time>2014-05-28T08:06:30Z</time>
      </trkpt>
      <trkpt lat="43.92413" lon="5.23714">
        <ele>285</ele>
        <time>2014-05-28T08:06:43Z</time>
      </trkpt>
      <trkpt lat="43.9241" lon="5.23703">
        <ele>283</ele>
        <time>2014-05-28T08:06:58Z</time>
      </trkpt>
      <trkpt lat="43.92411" lon="5.23691">
        <ele>283</ele>
        <time>2014-05-28T08:07:09Z</time>
      </trkpt>
      <trkpt lat="43.92407" lon="5.23681">
        <ele>285</ele>
        <time>2014-05-28T08:07:21Z</time>
      </trkpt>
      <trkpt lat="43.92403" lon="5.2367">
        <ele>283</ele>
        <time>2014-05-28T08:07:40Z</time>
      </trkpt>
      <trkpt lat="43.92401" lon="5.23659">
        <ele>281</ele>
        <time>2014-05-28T08:07:52Z</time>
      </trkpt>
      <trkpt lat="43.92396" lon="5.23649">
        <ele>281</ele>
        <time>2014-05-28T08:08:07Z</time>
      </trkpt>
      <trkpt lat="43.9239" lon="5.23641">
        <ele>281</ele>
        <time>2014-05-28T08:08:15Z</time>
      </trkpt>
      <trkpt lat="43.92382" lon="5.23636">
        <ele>281</ele>
        <time>2014-05-28T08:08:23Z</time>
      </trkpt>
      <trkpt lat="43.92374" lon="5.23634">
        <ele>283</ele>
        <time>2014-05-28T08:08:38Z</time>
      </trkpt>
      <trkpt lat="43.92366" lon="5.23629">
        <ele>283</ele>
        <time>2014-05-28T08:08:50Z</time>
      </trkpt>
      <trkpt lat="43.92358" lon="5.23625">
        <ele>277</ele>
        <time>2014-05-28T08:08:59Z</time>
      </trkpt>
      <trkpt lat="43.92351" lon="5.23618">
        <ele>273</ele>
        <time>2014-05-28T08:09:11Z</time>
      </trkpt>
      <trkpt lat="43.92344" lon="5.2361">
        <ele>271</ele>
        <time>2014-05-28T08:09:18Z</time>
      </trkpt>
      <trkpt lat="43.92336" lon="5.23605">
        <ele>267</ele>
        <time>2014-05-28T08:09:27Z</time>
      </trkpt>
      <trkpt lat="43.92329" lon="5.23599">
        <ele>267</ele>
        <time>2014-05-28T08:09:42Z</time>
      </trkpt>
      <trkpt lat="43.92322" lon="5.23593">
        <ele>267</ele>
        <time>2014-05-28T08:09:52Z</time>
      </trkpt>
      <trkpt lat="43.92314" lon="5.23587">
        <ele>269</ele>
        <time>2014-05-28T08:10:04Z</time>
      </trkpt>
      <trkpt lat="43.92309" lon="5.23578">
        <ele>264</ele>
        <time>2014-05-28T08:10:14Z</time>
      </trkpt>
      <trkpt lat="43.92302" lon="5.23571">
        <ele>265</ele>
        <time>2014-05-28T08:10:23Z</time>
      </trkpt>
      <trkpt lat="43.92294" lon="5.23565">
        <ele>264</ele>
        <time>2014-05-28T08:10:35Z</time>
      </trkpt>
      <trkpt lat="43.92286" lon="5.23563">
        <ele>265</ele>
        <time>2014-05-28T08:10:46Z</time>
      </trkpt>
      <trkpt lat="43.92278" lon="5.2356">
        <ele>263</ele>
        <time>2014-05-28T08:10:55Z</time>
      </trkpt>
      <trkpt lat="43.9227" lon="5.23558">
        <ele>263</ele>
        <time>2014-05-28T08:11:04Z</time>
      </trkpt>
      <trkpt lat="43.92262" lon="5.23556">
        <ele>265</ele>
        <time>2014-05-28T08:11:13Z</time>
      </trkpt>
      <trkpt lat="43.92254" lon="5.23551">
        <ele>263</ele>
        <time>2014-05-28T08:11:20Z</time>
      </trkpt>
      <trkpt lat="43.92248" lon="5.23543">
        <ele>262</ele>
        <time>2014-05-28T08:11:31Z</time>
      </trkpt>
      <trkpt lat="43.9224" lon="5.23536">
        <ele>259</ele>
        <time>2014-05-28T08:11:41Z</time>
      </trkpt>
      <trkpt lat="43.92233" lon="5.23531">
        <ele>254</ele>
        <time>2014-05-28T08:12:07Z</time>
      </trkpt>
      <trkpt lat="43.92224" lon="5.23527">
        <ele>257</ele>
        <time>2014-05-28T08:12:19Z</time>
      </trkpt>
      <trkpt lat="43.92216" lon="5.23523">
        <ele>255</ele>
        <time>2014-05-28T08:12:27Z</time>
      </trkpt>
      <trkpt lat="43.92209" lon="5.23518">
        <ele>249</ele>
        <time>2014-05-28T08:12:36Z</time>
      </trkpt>
      <trkpt lat="43.92202" lon="5.23512">
        <ele>246</ele>
        <time>2014-05-28T08:12:48Z</time>
      </trkpt>
      <trkpt lat="43.92194" lon="5.23507">
        <ele>244</ele>
        <time>2014-05-28T08:13:03Z</time>
      </trkpt>
      <trkpt lat="43.92186" lon="5.23502">
        <ele>243</ele>
        <time>2014-05-28T08:13:12Z</time>
      </trkpt>
      <trkpt lat="43.92178" lon="5.23497">
        <ele>245</ele>
        <time>2014-05-28T08:13:26Z</time>
      </trkpt>
      <trkpt lat="43.92171" lon="5.23493">
        <ele>246</ele>
        <time>2014-05-28T08:13:35Z</time>
      </trkpt>
      <trkpt lat="43.92163" lon="5.23488">
        <ele>248</ele>
        <time>2014-05-28T08:13:45Z</time>
      </trkpt>
      <trkpt lat="43.92156" lon="5.23481">
        <ele>247</ele>
        <time>2014-05-28T08:13:59Z</time>
      </trkpt>
      <trkpt lat="43.92149" lon="5.23476">
        <ele>249</ele>
        <time>2014-05-28T08:14:10Z</time>
      </trkpt>
      <trkpt lat="43.92142" lon="5.2347">
        <ele>246</ele>
        <time>2014-05-28T08:14:19Z</time>
      </trkpt>
      <trkpt lat="43.92135" lon="5.23462">
        <ele>248</ele>
        <time>2014-05-28T08:14:34Z</time>
      </trkpt>
      <trkpt lat="43.92126" lon="5.23461">
        <ele>251</ele>
        <time>2014-05-28T08:14:45Z</time>
      </trkpt>
      <trkpt lat="43.92119" lon="5.23456">
        <ele>247</ele>
        <time>2014-05-28T08:14:56Z</time>
      </trkpt>
      <trkpt lat="43.92112" lon="5.23449">
        <ele>248</ele>
        <time>2014-05-28T08:15:03Z</time>
      </trkpt>
      <trkpt lat="43.92104" lon="5.23444">
        <ele>246</ele>
        <time>2014-05-28T08:15:13Z</time>
      </trkpt>
      <trkpt lat="43.92098" lon="5.23439">
        <ele>246</ele>
        <time>2014-05-28T08:15:20Z</time>
      </trkpt>
      <trkpt lat="43.92091" lon="5.23432">
        <ele>249</ele>
        <time>2014-05-28T08:15:33Z</time>
      </trkpt>
      <trkpt lat="43.92085" lon="5.23423">
        <ele>249</ele>
        <time>2014-05-28T08:15:40Z</time>
      </trkpt>
      <trkpt lat="43.92081" lon="5.23413">
        <ele>248</ele>
        <time>2014-05-28T08:15:51Z</time>
      </trkpt>
      <trkpt lat="43.92073" lon="5.23413">
        <ele>250</ele>
        <time>2014-05-28T08:16:01Z</time>
      </trkpt>
      <trkpt lat="43.92068" lon="5.23402">
        <ele>251</ele>
        <time>2014-05-28T08:16:13Z</time>
      </trkpt>
      <trkpt lat="43.92061" lon="5.23395">
        <ele>249</ele>
        <time>2014-05-28T08:17:54Z</time>
      </trkpt>
      <trkpt lat="43.92053" lon="5.23398">
        <ele>250</ele>
        <time>2014-05-28T08:18:02Z</time>
      </trkpt>
      <trkpt lat="43.92044" lon="5.23396">
        <ele>248</ele>
        <time>2014-05-28T08:18:12Z</time>
      </trkpt>
      <trkpt lat="43.92038" lon="5.2339">
        <ele>246</ele>
        <time>2014-05-28T08:18:21Z</time>
      </trkpt>
      <trkpt lat="43.9203" lon="5.23385">
        <ele>246</ele>
        <time>2014-05-28T08:18:30Z</time>
      </trkpt>
      <trkpt lat="43.92023" lon="5.23379">
        <ele>244</ele>
        <time>2014-05-28T08:18:38Z</time>
      </trkpt>
      <trkpt lat="43.92016" lon="5.23373">
        <ele>243</ele>
        <time>2014-05-28T08:18:48Z</time>
      </trkpt>
      <trkpt lat="43.92011" lon="5.23363">
        <ele>242</ele>
        <time>2014-05-28T08:19:00Z</time>
      </trkpt>
      <trkpt lat="43.92007" lon="5.23352">
        <ele>241</ele>
        <time>2014-05-28T08:19:11Z</time>
      </trkpt>
      <trkpt lat="43.92001" lon="5.23344">
        <ele>237</ele>
        <time>2014-05-28T08:19:21Z</time>
      </trkpt>
      <trkpt lat="43.91993" lon="5.23344">
        <ele>237</ele>
        <time>2014-05-28T08:19:32Z</time>
      </trkpt>
      <trkpt lat="43.91984" lon="5.23341">
        <ele>240</ele>
        <time>2014-05-28T08:19:41Z</time>
      </trkpt>
      <trkpt lat="43.91975" lon="5.2334">
        <ele>242</ele>
        <time>2014-05-28T08:20:06Z</time>
      </trkpt>
      <trkpt lat="43.91969" lon="5.23332">
        <ele>242</ele>
        <time>2014-05-28T08:20:15Z</time>
      </trkpt>
      <trkpt lat="43.91961" lon="5.23326">
        <ele>239</ele>
        <time>2014-05-28T08:20:33Z</time>
      </trkpt>
      <trkpt lat="43.91954" lon="5.2332">
        <ele>239</ele>
        <time>2014-05-28T08:20:44Z</time>
      </trkpt>
      <trkpt lat="43.91946" lon="5.23317">
        <ele>240</ele>
        <time>2014-05-28T08:20:53Z</time>
      </trkpt>
      <trkpt lat="43.91939" lon="5.23311">
        <ele>238</ele>
        <time>2014-05-28T08:21:04Z</time>
      </trkpt>
      <trkpt lat="43.91932" lon="5.23305">
        <ele>233</ele>
        <time>2014-05-28T08:21:12Z</time>
      </trkpt>
      <trkpt lat="43.91924" lon="5.23299">
        <ele>233</ele>
        <time>2014-05-28T08:21:20Z</time>
      </trkpt>
      <trkpt lat="43.91916" lon="5.23296">
        <ele>232</ele>
        <time>2014-05-28T08:21:30Z</time>
      </trkpt>
      <trkpt lat="43.91909" lon="5.23288">
        <ele>231</ele>
        <time>2014-05-28T08:21:39Z</time>
      </trkpt>
      <trkpt lat="43.91901" lon="5.23283">
        <ele>230</ele>
        <time>2014-05-28T08:21:49Z</time>
      </trkpt>
      <trkpt lat="43.91894" lon="5.23277">
        <ele>230</ele>
        <time>2014-05-28T08:21:58Z</time>
      </trkpt>
      <trkpt lat="43.91887" lon="5.23272">
        <ele>229</ele>
        <time>2014-05-28T08:22:06Z</time>
      </trkpt>
      <trkpt lat="43.9188" lon="5.23266">
        <ele>229</ele>
        <time>2014-05-28T08:22:14Z</time>
      </trkpt>
      <trkpt lat="43.91872" lon="5.23267">
        <ele>231</ele>
        <time>2014-05-28T08:22:20Z</time>
      </trkpt>
      <trkpt lat="43.91867" lon="5.23257">
        <ele>234</ele>
        <time>2014-05-28T08:22:26Z</time>
      </trkpt>
      <trkpt lat="43.9186" lon="5.2325">
        <ele>230</ele>
        <time>2014-05-28T08:22:34Z</time>
      </trkpt>
      <trkpt lat="43.91853" lon="5.23244">
        <ele>230</ele>
        <time>2014-05-28T08:22:43Z</time>
      </trkpt>
      <trkpt lat="43.91846" lon="5.23238">
        <ele>228</ele>
        <time>2014-05-28T08:22:51Z</time>
      </trkpt>
      <trkpt lat="43.91841" lon="5.23227">
        <ele>229</ele>
        <time>2014-05-28T08:22:58Z</time>
      </trkpt>
      <trkpt lat="43.91836" lon="5.23219">
        <ele>228</ele>
        <time>2014-05-28T08:23:06Z</time>
      </trkpt>
      <trkpt lat="43.9183" lon="5.23211">
        <ele>225</ele>
        <time>2014-05-28T08:23:12Z</time>
      </trkpt>
      <trkpt lat="43.91825" lon="5.23201">
        <ele>225</ele>
        <time>2014-05-28T08:23:20Z</time>
      </trkpt>
      <trkpt lat="43.91821" lon="5.23197">
        <ele>224</ele>
        <time>2014-05-28T08:23:28Z</time>
      </trkpt>
      <trkpt lat="43.91812" lon="5.23189">
        <ele>222</ele>
        <time>2014-05-28T08:23:33Z</time>
      </trkpt>
      <trkpt lat="43.91804" lon="5.23187">
        <ele>221</ele>
        <time>2014-05-28T08:23:40Z</time>
      </trkpt>
      <trkpt lat="43.91796" lon="5.23182">
        <ele>220</ele>
        <time>2014-05-28T08:23:49Z</time>
      </trkpt>
      <trkpt lat="43.9179" lon="5.23175">
        <ele>221</ele>
        <time>2014-05-28T08:23:56Z</time>
      </trkpt>
      <trkpt lat="43.91782" lon="5.23168">
        <ele>219</ele>
        <time>2014-05-28T08:24:05Z</time>
      </trkpt>
      <trkpt lat="43.91778" lon="5.23159">
        <ele>220</ele>
        <time>2014-05-28T08:24:13Z</time>
      </trkpt>
      <trkpt lat="43.91774" lon="5.23148">
        <ele>220</ele>
        <time>2014-05-28T08:24:21Z</time>
      </trkpt>
      <trkpt lat="43.91769" lon="5.23139">
        <ele>219</ele>
        <time>2014-05-28T08:24:29Z</time>
      </trkpt>
      <trkpt lat="43.91762" lon="5.23132">
        <ele>222</ele>
        <time>2014-05-28T08:24:38Z</time>
      </trkpt>
      <trkpt lat="43.91754" lon="5.23126">
        <ele>222</ele>
        <time>2014-05-28T08:24:47Z</time>
      </trkpt>
      <trkpt lat="43.91746" lon="5.23119">
        <ele>220</ele>
        <time>2014-05-28T08:24:55Z</time>
      </trkpt>
      <trkpt lat="43.91739" lon="5.23114">
        <ele>221</ele>
        <time>2014-05-28T08:25:03Z</time>
      </trkpt>
      <trkpt lat="43.91732" lon="5.23106">
        <ele>218</ele>
        <time>2014-05-28T08:25:12Z</time>
      </trkpt>
      <trkpt lat="43.91724" lon="5.231">
        <ele>219</ele>
        <time>2014-05-28T08:25:22Z</time>
      </trkpt>
      <trkpt lat="43.91718" lon="5.23094">
        <ele>217</ele>
        <time>2014-05-28T08:25:33Z</time>
      </trkpt>
      <trkpt lat="43.91712" lon="5.23085">
        <ele>214</ele>
        <time>2014-05-28T08:25:42Z</time>
      </trkpt>
      <trkpt lat="43.91705" lon="5.23077">
        <ele>212</ele>
        <time>2014-05-28T08:25:51Z</time>
      </trkpt>
      <trkpt lat="43.91701" lon="5.23066">
        <ele>212</ele>
        <time>2014-05-28T08:25:59Z</time>
      </trkpt>
      <trkpt lat="43.91698" lon="5.23055">
        <ele>215</ele>
        <time>2014-05-28T08:26:05Z</time>
      </trkpt>
      <trkpt lat="43.91693" lon="5.23046">
        <ele>214</ele>
        <time>2014-05-28T08:26:13Z</time>
      </trkpt>
      <trkpt lat="43.91689" lon="5.23036">
        <ele>213</ele>
        <time>2014-05-28T08:26:20Z</time>
      </trkpt>
      <trkpt lat="43.91684" lon="5.23027">
        <ele>215</ele>
        <time>2014-05-28T08:26:34Z</time>
      </trkpt>
      <trkpt lat="43.91678" lon="5.23017">
        <ele>213</ele>
        <time>2014-05-28T08:26:45Z</time>
      </trkpt>
      <trkpt lat="43.91676" lon="5.23006">
        <ele>214</ele>
        <time>2014-05-28T08:26:53Z</time>
      </trkpt>
      <trkpt lat="43.91674" lon="5.22995">
        <ele>217</ele>
        <time>2014-05-28T08:27:00Z</time>
      </trkpt>
      <trkpt lat="43.91673" lon="5.22983">
        <ele>218</ele>
        <time>2014-05-28T08:27:07Z</time>
      </trkpt>
      <trkpt lat="43.91669" lon="5.22973">
        <ele>218</ele>
        <time>2014-05-28T08:27:15Z</time>
      </trkpt>
      <trkpt lat="43.91666" lon="5.22962">
        <ele>217</ele>
        <time>2014-05-28T08:27:23Z</time>
      </trkpt>
      <trkpt lat="43.91664" lon="5.2295">
        <ele>216</ele>
        <time>2014-05-28T08:27:31Z</time>
      </trkpt>
      <trkpt lat="43.91661" lon="5.2294">
        <ele>218</ele>
        <time>2014-05-28T08:27:38Z</time>
      </trkpt>
      <trkpt lat="43.9166" lon="5.22928">
        <ele>214</ele>
        <time>2014-05-28T08:27:44Z</time>
      </trkpt>
      <trkpt lat="43.91658" lon="5.22916">
        <ele>216</ele>
        <time>2014-05-28T08:27:52Z</time>
      </trkpt>
      <trkpt lat="43.91653" lon="5.22906">
        <ele>214</ele>
        <time>2014-05-28T08:28:02Z</time>
      </trkpt>
      <trkpt lat="43.91645" lon="5.229">
        <ele>212</ele>
        <time>2014-05-28T08:28:17Z</time>
      </trkpt>
      <trkpt lat="43.91637" lon="5.22899">
        <ele>211</ele>
        <time>2014-05-28T08:28:38Z</time>
      </trkpt>
      <trkpt lat="43.91629" lon="5.22898">
        <ele>207</ele>
        <time>2014-05-28T08:28:51Z</time>
      </trkpt>
      <trkpt lat="43.91621" lon="5.22896">
        <ele>206</ele>
        <time>2014-05-28T08:28:57Z</time>
      </trkpt>
      <trkpt lat="43.91613" lon="5.2289">
        <ele>206</ele>
        <time>2014-05-28T08:29:05Z</time>
      </trkpt>
      <trkpt lat="43.91606" lon="5.22884">
        <ele>208</ele>
        <time>2014-05-28T08:29:13Z</time>
      </trkpt>
      <trkpt lat="43.91598" lon="5.22878">
        <ele>207</ele>
        <time>2014-05-28T08:29:21Z</time>
      </trkpt>
      <trkpt lat="43.9159" lon="5.22874">
        <ele>208</ele>
        <time>2014-05-28T08:29:34Z</time>
      </trkpt>
      <trkpt lat="43.91586" lon="5.22863">
        <ele>204</ele>
        <time>2014-05-28T08:29:47Z</time>
      </trkpt>
      <trkpt lat="43.91581" lon="5.22854">
        <ele>202</ele>
        <time>2014-05-28T08:30:00Z</time>
      </trkpt>
      <trkpt lat="43.91585" lon="5.22843">
        <ele>205</ele>
        <time>2014-05-28T08:30:22Z</time>
      </trkpt>
      <trkpt lat="43.91591" lon="5.22834">
        <ele>205</ele>
        <time>2014-05-28T08:31:48Z</time>
      </trkpt>
      <trkpt lat="43.91596" lon="5.22824">
        <ele>204</ele>
        <time>2014-05-28T08:32:06Z</time>
      </trkpt>
      <trkpt lat="43.91603" lon="5.22819">
        <ele>207</ele>
        <time>2014-05-28T08:32:14Z</time>
      </trkpt>
      <trkpt lat="43.91612" lon="5.22817">
        <ele>208</ele>
        <time>2014-05-28T08:32:38Z</time>
      </trkpt>
      <trkpt lat="43.9162" lon="5.2282">
        <ele>212</ele>
        <time>2014-05-28T08:39:39Z</time>
      </trkpt>
      <trkpt lat="43.91629" lon="5.22817">
        <ele>210</ele>
        <time>2014-05-28T08:40:07Z</time>
      </trkpt>
      <trkpt lat="43.91638" lon="5.22818">
        <ele>210</ele>
        <time>2014-05-28T08:40:25Z</time>
      </trkpt>
      <trkpt lat="43.91646" lon="5.22815">
        <ele>208</ele>
        <time>2014-05-28T08:40:33Z</time>
      </trkpt>
      <trkpt lat="43.91653" lon="5.22813">
        <ele>209</ele>
        <time>2014-05-28T08:40:41Z</time>
      </trkpt>
      <trkpt lat="43.91661" lon="5.22809">
        <ele>211</ele>
        <time>2014-05-28T08:40:48Z</time>
      </trkpt>
      <trkpt lat="43.91669" lon="5.22804">
        <ele>210</ele>
        <time>2014-05-28T08:40:58Z</time>
      </trkpt>
      <trkpt lat="43.91678" lon="5.22802">
        <ele>209</ele>
        <time>2014-05-28T08:42:05Z</time>
      </trkpt>
      <trkpt lat="43.91687" lon="5.22801">
        <ele>211</ele>
        <time>2014-05-28T08:42:23Z</time>
      </trkpt>
      <trkpt lat="43.91695" lon="5.22802">
        <ele>212</ele>
        <time>2014-05-28T08:42:43Z</time>
      </trkpt>
      <trkpt lat="43.91702" lon="5.22797">
        <ele>209</ele>
        <time>2014-05-28T08:42:50Z</time>
      </trkpt>
      <trkpt lat="43.9171" lon="5.22794">
        <ele>214</ele>
        <time>2014-05-28T08:43:09Z</time>
      </trkpt>
      <trkpt lat="43.91717" lon="5.22802">
        <ele>215</ele>
        <time>2014-05-28T08:44:24Z</time>
      </trkpt>
      <trkpt lat="43.91708" lon="5.22805">
        <ele>217</ele>
        <time>2014-05-28T08:45:22Z</time>
      </trkpt>
      <trkpt lat="43.91701" lon="5.2281">
        <ele>215</ele>
        <time>2014-05-28T08:45:40Z</time>
      </trkpt>
      <trkpt lat="43.91692" lon="5.22812">
        <ele>218</ele>
        <time>2014-05-28T08:45:50Z</time>
      </trkpt>
      <trkpt lat="43.91683" lon="5.22815">
        <ele>217</ele>
        <time>2014-05-28T08:45:57Z</time>
      </trkpt>
      <trkpt lat="43.91676" lon="5.22818">
        <ele>215</ele>
        <time>2014-05-28T08:46:06Z</time>
      </trkpt>
      <trkpt lat="43.91668" lon="5.22821">
        <ele>215</ele>
        <time>2014-05-28T08:46:11Z</time>
      </trkpt>
      <trkpt lat="43.9166" lon="5.22823">
        <ele>215</ele>
        <time>2014-05-28T08:46:19Z</time>
      </trkpt>
      <trkpt lat="43.91651" lon="5.22821">
        <ele>213</ele>
        <time>2014-05-28T08:46:36Z</time>
      </trkpt>
      <trkpt lat="43.9166" lon="5.2282">
        <ele>211</ele>
        <time>2014-05-28T08:47:37Z</time>
      </trkpt>
      <trkpt lat="43.91668" lon="5.22817">
        <ele>209</ele>
        <time>2014-05-28T08:47:53Z</time>
      </trkpt>
      <trkpt lat="43.91676" lon="5.22815">
        <ele>208</ele>
        <time>2014-05-28T08:48:09Z</time>
      </trkpt>
      <trkpt lat="43.91685" lon="5.22813">
        <ele>205</ele>
        <time>2014-05-28T08:48:16Z</time>
      </trkpt>
      <trkpt lat="43.91693" lon="5.2281">
        <ele>207</ele>
        <time>2014-05-28T08:48:27Z</time>
      </trkpt>
      <trkpt lat="43.91702" lon="5.22808">
        <ele>213</ele>
        <time>2014-05-28T08:48:47Z</time>
      </trkpt>
      <trkpt lat="43.9171" lon="5.22805">
        <ele>213</ele>
        <time>2014-05-28T08:48:54Z</time>
      </trkpt>
      <trkpt lat="43.91718" lon="5.22801">
        <ele>210</ele>
        <time>2014-05-28T08:49:01Z</time>
      </trkpt>
      <trkpt lat="43.91727" lon="5.22798">
        <ele>212</ele>
        <time>2014-05-28T08:49:18Z</time>
      </trkpt>
      <trkpt lat="43.91735" lon="5.22795">
        <ele>216</ele>
        <time>2014-05-28T08:49:36Z</time>
      </trkpt>
      <trkpt lat="43.91744" lon="5.22794">
        <ele>218</ele>
        <time>2014-05-28T08:49:59Z</time>
      </trkpt>
      <trkpt lat="43.91752" lon="5.2279">
        <ele>219</ele>
        <time>2014-05-28T08:50:09Z</time>
      </trkpt>
      <trkpt lat="43.9176" lon="5.22787">
        <ele>216</ele>
        <time>2014-05-28T08:50:16Z</time>
      </trkpt>
      <trkpt lat="43.91769" lon="5.22787">
        <ele>217</ele>
        <time>2014-05-28T08:50:36Z</time>
      </trkpt>
      <trkpt lat="43.91778" lon="5.22785">
        <ele>221</ele>
        <time>2014-05-28T08:50:55Z</time>
      </trkpt>
      <trkpt lat="43.91786" lon="5.22787">
        <ele>221</ele>
        <time>2014-05-28T08:51:10Z</time>
      </trkpt>
      <trkpt lat="43.91795" lon="5.22785">
        <ele>223</ele>
        <time>2014-05-28T08:51:16Z</time>
      </trkpt>
      <trkpt lat="43.91803" lon="5.22782">
        <ele>223</ele>
        <time>2014-05-28T08:51:22Z</time>
      </trkpt>
      <trkpt lat="43.91812" lon="5.22782">
        <ele>226</ele>
        <time>2014-05-28T08:51:32Z</time>
      </trkpt>
      <trkpt lat="43.9182" lon="5.2278">
        <ele>232</ele>
        <time>2014-05-28T08:51:39Z</time>
      </trkpt>
      <trkpt lat="43.91829" lon="5.22777">
        <ele>226</ele>
        <time>2014-05-28T08:52:04Z</time>
      </trkpt>
      <trkpt lat="43.91837" lon="5.22774">
        <ele>226</ele>
        <time>2014-05-28T08:52:09Z</time>
      </trkpt>
      <trkpt lat="43.91844" lon="5.22768">
        <ele>228</ele>
        <time>2014-05-28T08:52:13Z</time>
      </trkpt>
      <trkpt lat="43.91852" lon="5.22765">
        <ele>229</ele>
        <time>2014-05-28T08:52:19Z</time>
      </trkpt>
      <trkpt lat="43.91861" lon="5.22762">
        <ele>228</ele>
        <time>2014-05-28T08:52:37Z</time>
      </trkpt>
      <trkpt lat="43.91869" lon="5.22761">
        <ele>230</ele>
        <time>2014-05-28T08:53:40Z</time>
      </trkpt>
      <trkpt lat="43.91877" lon="5.2276">
        <ele>231</ele>
        <time>2014-05-28T08:53:45Z</time>
      </trkpt>
      <trkpt lat="43.91885" lon="5.22757">
        <ele>230</ele>
        <time>2014-05-28T08:53:53Z</time>
      </trkpt>
      <trkpt lat="43.91893" lon="5.22756">
        <ele>228</ele>
        <time>2014-05-28T08:54:15Z</time>
      </trkpt>
      <trkpt lat="43.91902" lon="5.22755">
        <ele>230</ele>
        <time>2014-05-28T08:55:11Z</time>
      </trkpt>
      <trkpt lat="43.91911" lon="5.22752">
        <ele>229</ele>
        <time>2014-05-28T08:56:31Z</time>
      </trkpt>
      <trkpt lat="43.91919" lon="5.22751">
        <ele>235</ele>
        <time>2014-05-28T09:00:28Z</time>
      </trkpt>
      <trkpt lat="43.91928" lon="5.2275">
        <ele>234</ele>
        <time>2014-05-28T09:00:38Z</time>
      </trkpt>
      <trkpt lat="43.91936" lon="5.22746">
        <ele>234</ele>
        <time>2014-05-28T09:00:47Z</time>
      </trkpt>
      <trkpt lat="43.91942" lon="5.22739">
        <ele>236</ele>
        <time>2014-05-28T09:00:56Z</time>
      </trkpt>
      <trkpt lat="43.91949" lon="5.22743">
        <ele>238</ele>
        <time>2014-05-28T09:01:44Z</time>
      </trkpt>
      <trkpt lat="43.91955" lon="5.22734">
        <ele>241</ele>
        <time>2014-05-28T09:02:09Z</time>
      </trkpt>
      <trkpt lat="43.9196" lon="5.22725">
        <ele>241</ele>
        <time>2014-05-28T09:02:19Z</time>
      </trkpt>
      <trkpt lat="43.91967" lon="5.22718">
        <ele>246</ele>
        <time>2014-05-28T09:03:26Z</time>
      </trkpt>
      <trkpt lat="43.91974" lon="5.22712">
        <ele>253</ele>
        <time>2014-05-28T09:03:45Z</time>
      </trkpt>
      <trkpt lat="43.91982" lon="5.22707">
        <ele>254</ele>
        <time>2014-05-28T09:03:56Z</time>
      </trkpt>
      <trkpt lat="43.9199" lon="5.227">
        <ele>253</ele>
        <time>2014-05-28T09:04:04Z</time>
      </trkpt>
      <trkpt lat="43.91998" lon="5.22698">
        <ele>256</ele>
        <time>2014-05-28T09:04:35Z</time>
      </trkpt>
      <trkpt lat="43.92007" lon="5.22695">
        <ele>259</ele>
        <time>2014-05-28T09:04:52Z</time>
      </trkpt>
      <trkpt lat="43.92016" lon="5.22693">
        <ele>260</ele>
        <time>2014-05-28T09:05:43Z</time>
      </trkpt>
      <trkpt lat="43.92024" lon="5.22692">
        <ele>258</ele>
        <time>2014-05-28T09:06:04Z</time>
      </trkpt>
      <trkpt lat="43.92032" lon="5.2269">
        <ele>245</ele>
        <time>2014-05-28T09:06:37Z</time>
      </trkpt>
      <trkpt lat="43.92041" lon="5.22691">
        <ele>239</ele>
        <time>2014-05-28T09:06:43Z</time>
      </trkpt>
      <trkpt lat="43.92048" lon="5.22683">
        <ele>241</ele>
        <time>2014-05-28T09:07:03Z</time>
      </trkpt>
      <trkpt lat="43.92052" lon="5.22672">
        <ele>248</ele>
        <time>2014-05-28T09:07:28Z</time>
      </trkpt>
      <trkpt lat="43.92056" lon="5.22661">
        <ele>251</ele>
        <time>2014-05-28T09:08:58Z</time>
      </trkpt>
      <trkpt lat="43.92062" lon="5.22669">
        <ele>256</ele>
        <time>2014-05-28T09:09:11Z</time>
      </trkpt>
      <trkpt lat="43.92071" lon="5.2267">
        <ele>249</ele>
        <time>2014-05-28T09:10:30Z</time>
      </trkpt>
      <trkpt lat="43.92078" lon="5.22664">
        <ele>250</ele>
        <time>2014-05-28T09:13:46Z</time>
      </trkpt>
      <trkpt lat="43.92084" lon="5.22655">
        <ele>252</ele>
        <time>2014-05-28T09:14:15Z</time>
      </trkpt>
      <trkpt lat="43.9209" lon="5.22647">
        <ele>252</ele>
        <time>2014-05-28T09:14:22Z</time>
      </trkpt>
      <trkpt lat="43.92094" lon="5.22636">
        <ele>253</ele>
        <time>2014-05-28T09:14:27Z</time>
      </trkpt>
      <trkpt lat="43.92097" lon="5.22625">
        <ele>254</ele>
        <time>2014-05-28T09:14:33Z</time>
      </trkpt>
      <trkpt lat="43.92105" lon="5.22621">
        <ele>256</ele>
        <time>2014-05-28T09:14:43Z</time>
      </trkpt>
      <trkpt lat="43.92109" lon="5.22612">
        <ele>258</ele>
        <time>2014-05-28T09:14:50Z</time>
      </trkpt>
      <trkpt lat="43.92115" lon="5.22603">
        <ele>259</ele>
        <time>2014-05-28T09:14:58Z</time>
      </trkpt>
      <trkpt lat="43.92124" lon="5.22607">
        <ele>258</ele>
        <time>2014-05-28T09:15:30Z</time>
      </trkpt>
      <trkpt lat="43.92131" lon="5.22599">
        <ele>252</ele>
        <time>2014-05-28T09:15:42Z</time>
      </trkpt>
      <trkpt lat="43.92139" lon="5.22595">
        <ele>253</ele>
        <time>2014-05-28T09:16:46Z</time>
      </trkpt>
      <trkpt lat="43.92151" lon="5.22592">
        <ele>251</ele>
        <time>2014-05-28T09:16:50Z</time>
      </trkpt>
      <trkpt lat="43.92162" lon="5.22588">
        <ele>252</ele>
        <time>2014-05-28T09:16:54Z</time>
      </trkpt>
      <trkpt lat="43.92169" lon="5.22584">
        <ele>251</ele>
        <time>2014-05-28T09:16:59Z</time>
      </trkpt>
      <trkpt lat="43.92178" lon="5.22586">
        <ele>249</ele>
        <time>2014-05-28T09:17:06Z</time>
      </trkpt>
      <trkpt lat="43.92184" lon="5.22577">
        <ele>244</ele>
        <time>2014-05-28T09:17:12Z</time>
      </trkpt>
      <trkpt lat="43.92189" lon="5.2257">
        <ele>241</ele>
        <time>2014-05-28T09:17:18Z</time>
      </trkpt>
      <trkpt lat="43.92196" lon="5.22563">
        <ele>239</ele>
        <time>2014-05-28T09:17:25Z</time>
      </trkpt>
      <trkpt lat="43.92204" lon="5.22559">
        <ele>238</ele>
        <time>2014-05-28T09:17:32Z</time>
      </trkpt>
      <trkpt lat="43.92212" lon="5.22553">
        <ele>242</ele>
        <time>2014-05-28T09:19:08Z</time>
      </trkpt>
      <trkpt lat="43.92219" lon="5.22546">
        <ele>245</ele>
        <time>2014-05-28T09:19:27Z</time>
      </trkpt>
      <trkpt lat="43.92228" lon="5.22546">
        <ele>246</ele>
        <time>2014-05-28T09:20:58Z</time>
      </trkpt>
      <trkpt lat="43.92233" lon="5.22539">
        <ele>253</ele>
        <time>2014-05-28T09:21:05Z</time>
      </trkpt>
      <trkpt lat="43.92239" lon="5.2253">
        <ele>254</ele>
        <time>2014-05-28T09:22:10Z</time>
      </trkpt>
      <trkpt lat="43.92247" lon="5.22528">
        <ele>256</ele>
        <time>2014-05-28T09:22:16Z</time>
      </trkpt>
      <trkpt lat="43.92255" lon="5.2253">
        <ele>262</ele>
        <time>2014-05-28T09:22:26Z</time>
      </trkpt>
      <trkpt lat="43.92263" lon="5.22535">
        <ele>268</ele>
        <time>2014-05-28T09:22:32Z</time>
      </trkpt>
      <trkpt lat="43.92271" lon="5.22537">
        <ele>268</ele>
        <time>2014-05-28T09:22:41Z</time>
      </trkpt>
      <trkpt lat="43.9228" lon="5.22537">
        <ele>266</ele>
        <time>2014-05-28T09:23:09Z</time>
      </trkpt>
      <trkpt lat="43.92289" lon="5.22535">
        <ele>264</ele>
        <time>2014-05-28T09:23:40Z</time>
      </trkpt>
      <trkpt lat="43.92293" lon="5.22545">
        <ele>261</ele>
        <time>2014-05-28T09:23:48Z</time>
      </trkpt>
      <trkpt lat="43.92298" lon="5.22556">
        <ele>266</ele>
        <time>2014-05-28T09:24:13Z</time>
      </trkpt>
      <trkpt lat="43.92306" lon="5.22554">
        <ele>266</ele>
        <time>2014-05-28T09:24:32Z</time>
      </trkpt>
      <trkpt lat="43.92314" lon="5.22553">
        <ele>264</ele>
        <time>2014-05-28T09:24:37Z</time>
      </trkpt>
      <trkpt lat="43.92322" lon="5.22548">
        <ele>264</ele>
        <time>2014-05-28T09:24:44Z</time>
      </trkpt>
      <trkpt lat="43.9233" lon="5.22547">
        <ele>257</ele>
        <time>2014-05-28T09:24:56Z</time>
      </trkpt>
      <trkpt lat="43.92339" lon="5.22548">
        <ele>255</ele>
        <time>2014-05-28T09:25:06Z</time>
      </trkpt>
      <trkpt lat="43.92346" lon="5.22543">
        <ele>254</ele>
        <time>2014-05-28T09:25:18Z</time>
      </trkpt>
      <trkpt lat="43.92352" lon="5.22534">
        <ele>255</ele>
        <time>2014-05-28T09:25:29Z</time>
      </trkpt>
      <trkpt lat="43.92359" lon="5.22529">
        <ele>255</ele>
        <time>2014-05-28T09:25:56Z</time>
      </trkpt>
      <trkpt lat="43.92366" lon="5.22522">
        <ele>261</ele>
        <time>2014-05-28T09:27:12Z</time>
      </trkpt>
      <trkpt lat="43.92369" lon="5.22511">
        <ele>266</ele>
        <time>2014-05-28T09:27:24Z</time>
      </trkpt>
      <trkpt lat="43.92372" lon="5.22501">
        <ele>268</ele>
        <time>2014-05-28T09:28:07Z</time>
      </trkpt>
      <trkpt lat="43.92375" lon="5.2249">
        <ele>269</ele>
        <time>2014-05-28T09:28:16Z</time>
      </trkpt>
      <trkpt lat="43.92379" lon="5.2248">
        <ele>275</ele>
        <time>2014-05-28T09:28:50Z</time>
      </trkpt>
      <trkpt lat="43.9238" lon="5.22468">
        <ele>276</ele>
        <time>2014-05-28T09:29:04Z</time>
      </trkpt>
      <trkpt lat="43.92384" lon="5.22457">
        <ele>278</ele>
        <time>2014-05-28T09:29:16Z</time>
      </trkpt>
      <trkpt lat="43.9238" lon="5.22446">
        <ele>275</ele>
        <time>2014-05-28T09:29:46Z</time>
      </trkpt>
      <trkpt lat="43.92378" lon="5.22434">
        <ele>270</ele>
        <time>2014-05-28T09:30:21Z</time>
      </trkpt>
      <trkpt lat="43.92374" lon="5.22423">
        <ele>266</ele>
        <time>2014-05-28T09:31:30Z</time>
      </trkpt>
      <trkpt lat="43.92377" lon="5.22411">
        <ele>260</ele>
        <time>2014-05-28T09:31:43Z</time>
      </trkpt>
      <trkpt lat="43.92386" lon="5.22409">
        <ele>274</ele>
        <time>2014-05-28T09:31:48Z</time>
      </trkpt>
      <trkpt lat="43.9238" lon="5.224">
        <ele>270</ele>
        <time>2014-05-28T09:35:31Z</time>
      </trkpt>
      <trkpt lat="43.92384" lon="5.2239">
        <ele>278</ele>
        <time>2014-05-28T09:35:44Z</time>
      </trkpt>
      <trkpt lat="43.92389" lon="5.22379">
        <ele>279</ele>
        <time>2014-05-28T09:35:53Z</time>
      </trkpt>
      <trkpt lat="43.92394" lon="5.2237">
        <ele>278</ele>
        <time>2014-05-28T09:36:20Z</time>
      </trkpt>
      <trkpt lat="43.92398" lon="5.22358">
        <ele>277</ele>
        <time>2014-05-28T09:37:05Z</time>
      </trkpt>
      <trkpt lat="43.92406" lon="5.22355">
        <ele>289</ele>
        <time>2014-05-28T09:37:34Z</time>
      </trkpt>
      <trkpt lat="43.92412" lon="5.22347">
        <ele>293</ele>
        <time>2014-05-28T09:37:59Z</time>
      </trkpt>
      <trkpt lat="43.92416" lon="5.22336">
        <ele>294</ele>
        <time>2014-05-28T09:38:29Z</time>
      </trkpt>
      <trkpt lat="43.92416" lon="5.22324">
        <ele>296</ele>
        <time>2014-05-28T09:39:07Z</time>
      </trkpt>
      <trkpt lat="43.92422" lon="5.22319">
        <ele>303</ele>
        <time>2014-05-28T09:40:33Z</time>
      </trkpt>
      <trkpt lat="43.9243" lon="5.22319">
        <ele>312</ele>
        <time>2014-05-28T09:40:39Z</time>
      </trkpt>
      <trkpt lat="43.92439" lon="5.22321">
        <ele>321</ele>
        <time>2014-05-28T09:41:20Z</time>
      </trkpt>
      <trkpt lat="43.9244" lon="5.2231">
        <ele>327</ele>
        <time>2014-05-28T09:41:30Z</time>
      </trkpt>
      <trkpt lat="43.92442" lon="5.22298">
        <ele>330</ele>
        <time>2014-05-28T09:41:37Z</time>
      </trkpt>
      <trkpt lat="43.92443" lon="5.22287">
        <ele>331</ele>
        <time>2014-05-28T09:41:46Z</time>
      </trkpt>
      <trkpt lat="43.92442" lon="5.22275">
        <ele>332</ele>
        <time>2014-05-28T09:41:56Z</time>
      </trkpt>
      <trkpt lat="43.92435" lon="5.22269">
        <ele>331</ele>
        <time>2014-05-28T09:42:28Z</time>
      </trkpt>
      <trkpt lat="43.92439" lon="5.22259">
        <ele>326</ele>
        <time>2014-05-28T09:42:40Z</time>
      </trkpt>
      <trkpt lat="43.92436" lon="5.22248">
        <ele>325</ele>
        <time>2014-05-28T09:43:03Z</time>
      </trkpt>
      <trkpt lat="43.92442" lon="5.2224">
        <ele>327</ele>
        <time>2014-05-28T09:43:29Z</time>
      </trkpt>
      <trkpt lat="43.92434" lon="5.22235">
        <ele>313</ele>
        <time>2014-05-28T09:44:01Z</time>
      </trkpt>
      <trkpt lat="43.92427" lon="5.22231">
        <ele>305</ele>
        <time>2014-05-28T09:44:09Z</time>
      </trkpt>
      <trkpt lat="43.92424" lon="5.2222">
        <ele>297</ele>
        <time>2014-05-28T09:44:31Z</time>
      </trkpt>
      <trkpt lat="43.9243" lon="5.2221">
        <ele>295</ele>
        <time>2014-05-28T09:46:10Z</time>
      </trkpt>
      <trkpt lat="43.92437" lon="5.22204">
        <ele>293</ele>
        <time>2014-05-28T09:46:40Z</time>
      </trkpt>
      <trkpt lat="43.92444" lon="5.22197">
        <ele>291</ele>
        <time>2014-05-28T09:46:48Z</time>
      </trkpt>
      <trkpt lat="43.92453" lon="5.22198">
        <ele>290</ele>
        <time>2014-05-28T09:47:05Z</time>
      </trkpt>
      <trkpt lat="43.9246" lon="5.22198">
        <ele>291</ele>
        <time>2014-05-28T09:47:48Z</time>
      </trkpt>
      <trkpt lat="43.92467" lon="5.22197">
        <ele>289</ele>
        <time>2014-05-28T09:47:55Z</time>
      </trkpt>
      <trkpt lat="43.92475" lon="5.22194">
        <ele>289</ele>
        <time>2014-05-28T09:48:02Z</time>
      </trkpt>
      <trkpt lat="43.92483" lon="5.22191">
        <ele>288</ele>
        <time>2014-05-28T09:48:14Z</time>
      </trkpt>
      <trkpt lat="43.92491" lon="5.22188">
        <ele>290</ele>
        <time>2014-05-28T09:48:31Z</time>
      </trkpt>
      <trkpt lat="43.92499" lon="5.22185">
        <ele>298</ele>
        <time>2014-05-28T09:48:58Z</time>
      </trkpt>
      <trkpt lat="43.92507" lon="5.22185">
        <ele>297</ele>
        <time>2014-05-28T09:49:05Z</time>
      </trkpt>
      <trkpt lat="43.92515" lon="5.22181">
        <ele>296</ele>
        <time>2014-05-28T09:49:11Z</time>
      </trkpt>
      <trkpt lat="43.92524" lon="5.22181">
        <ele>299</ele>
        <time>2014-05-28T09:49:58Z</time>
      </trkpt>
      <trkpt lat="43.92531" lon="5.22182">
        <ele>303</ele>
        <time>2014-05-28T09:50:25Z</time>
      </trkpt>
      <trkpt lat="43.92536" lon="5.22193">
        <ele>316</ele>
        <time>2014-05-28T09:53:41Z</time>
      </trkpt>
      <trkpt lat="43.92544" lon="5.22198">
        <ele>307</ele>
        <time>2014-05-28T09:55:01Z</time>
      </trkpt>
      <trkpt lat="43.92552" lon="5.22201">
        <ele>306</ele>
        <time>2014-05-28T09:55:07Z</time>
      </trkpt>
      <trkpt lat="43.92559" lon="5.22207">
        <ele>303</ele>
        <time>2014-05-28T09:55:11Z</time>
      </trkpt>
      <trkpt lat="43.92567" lon="5.2221">
        <ele>300</ele>
        <time>2014-05-28T09:55:20Z</time>
      </trkpt>
      <trkpt lat="43.92575" lon="5.2221">
        <ele>301</ele>
        <time>2014-05-28T09:55:32Z</time>
      </trkpt>
      <trkpt lat="43.92584" lon="5.22208">
        <ele>301</ele>
        <time>2014-05-28T09:55:43Z</time>
      </trkpt>
      <trkpt lat="43.92592" lon="5.22209">
        <ele>303</ele>
        <time>2014-05-28T09:56:07Z</time>
      </trkpt>
      <trkpt lat="43.926" lon="5.22214">
        <ele>304</ele>
        <time>2014-05-28T09:56:15Z</time>
      </trkpt>
      <trkpt lat="43.92609" lon="5.22212">
        <ele>304</ele>
        <time>2014-05-28T09:56:26Z</time>
      </trkpt>
      <trkpt lat="43.92617" lon="5.22212">
        <ele>305</ele>
        <time>2014-05-28T09:56:39Z</time>
      </trkpt>
      <trkpt lat="43.92626" lon="5.22208">
        <ele>313</ele>
        <time>2014-05-28T09:57:55Z</time>
      </trkpt>
      <trkpt lat="43.92634" lon="5.22205">
        <ele>317</ele>
        <time>2014-05-28T09:58:17Z</time>
      </trkpt>
      <trkpt lat="43.92641" lon="5.222">
        <ele>322</ele>
        <time>2014-05-28T09:59:20Z</time>
      </trkpt>
      <trkpt lat="43.92646" lon="5.22191">
        <ele>331</ele>
        <time>2014-05-28T09:59:35Z</time>
      </trkpt>
      <trkpt lat="43.92652" lon="5.22183">
        <ele>335</ele>
        <time>2014-05-28T09:59:44Z</time>
      </trkpt>
      <trkpt lat="43.92658" lon="5.22174">
        <ele>332</ele>
        <time>2014-05-28T09:59:54Z</time>
      </trkpt>
      <trkpt lat="43.92664" lon="5.22166">
        <ele>329</ele>
        <time>2014-05-28T10:00:11Z</time>
      </trkpt>
      <trkpt lat="43.92669" lon="5.22156">
        <ele>327</ele>
        <time>2014-05-28T10:00:23Z</time>
      </trkpt>
      <trkpt lat="43.92676" lon="5.2215">
        <ele>324</ele>
        <time>2014-05-28T10:00:36Z</time>
      </trkpt>
      <trkpt lat="43.92681" lon="5.2214">
        <ele>321</ele>
        <time>2014-05-28T10:00:50Z</time>
      </trkpt>
      <trkpt lat="43.92687" lon="5.22132">
        <ele>323</ele>
        <time>2014-05-28T10:01:36Z</time>
      </trkpt>
      <trkpt lat="43.92695" lon="5.22127">
        <ele>321</ele>
        <time>2014-05-28T10:02:06Z</time>
      </trkpt>
      <trkpt lat="43.92704" lon="5.22126">
        <ele>320</ele>
        <time>2014-05-28T10:02:30Z</time>
      </trkpt>
      <trkpt lat="43.92712" lon="5.22128">
        <ele>319</ele>
        <time>2014-05-28T10:02:53Z</time>
      </trkpt>
      <trkpt lat="43.92721" lon="5.22127">
        <ele>322</ele>
        <time>2014-05-28T10:03:32Z</time>
      </trkpt>
      <trkpt lat="43.9273" lon="5.22124">
        <ele>322</ele>
        <time>2014-05-28T10:13:48Z</time>
      </trkpt>
      <trkpt lat="43.92738" lon="5.22123">
        <ele>317</ele>
        <time>2014-05-28T10:16:29Z</time>
      </trkpt>
      <trkpt lat="43.9274" lon="5.22136">
        <ele>315</ele>
        <time>2014-05-28T10:18:17Z</time>
      </trkpt>
      <trkpt lat="43.92741" lon="5.22148">
        <ele>315</ele>
        <time>2014-05-28T10:19:58Z</time>
      </trkpt>
      <trkpt lat="43.92738" lon="5.22159">
        <ele>307</ele>
        <time>2014-05-28T10:21:03Z</time>
      </trkpt>
      <trkpt lat="43.92737" lon="5.22171">
        <ele>302</ele>
        <time>2014-05-28T10:21:18Z</time>
      </trkpt>
      <trkpt lat="43.92742" lon="5.2218">
        <ele>301</ele>
        <time>2014-05-28T10:22:02Z</time>
      </trkpt>
      <trkpt lat="43.92749" lon="5.22188">
        <ele>297</ele>
        <time>2014-05-28T10:22:16Z</time>
      </trkpt>
      <trkpt lat="43.92747" lon="5.222">
        <ele>294</ele>
        <time>2014-05-28T10:22:33Z</time>
      </trkpt>
      <trkpt lat="43.92749" lon="5.22211">
        <ele>294</ele>
        <time>2014-05-28T10:23:17Z</time>
      </trkpt>
      <trkpt lat="43.92756" lon="5.22218">
        <ele>295</ele>
        <time>2014-05-28T10:23:47Z</time>
      </trkpt>
      <trkpt lat="43.92765" lon="5.22221">
        <ele>297</ele>
        <time>2014-05-28T10:24:08Z</time>
      </trkpt>
      <trkpt lat="43.92773" lon="5.22225">
        <ele>297</ele>
        <time>2014-05-28T10:24:15Z</time>
      </trkpt>
      <trkpt lat="43.92782" lon="5.22228">
        <ele>299</ele>
        <time>2014-05-28T10:24:30Z</time>
      </trkpt>
      <trkpt lat="43.9279" lon="5.2223">
        <ele>290</ele>
        <time>2014-05-28T10:24:34Z</time>
      </trkpt>
      <trkpt lat="43.92799" lon="5.22235">
        <ele>288</ele>
        <time>2014-05-28T10:24:42Z</time>
      </trkpt>
      <trkpt lat="43.92807" lon="5.22237">
        <ele>291</ele>
        <time>2014-05-28T10:24:55Z</time>
      </trkpt>
      <trkpt lat="43.92815" lon="5.22241">
        <ele>296</ele>
        <time>2014-05-28T10:25:08Z</time>
      </trkpt>
      <trkpt lat="43.92822" lon="5.22248">
        <ele>304</ele>
        <time>2014-05-28T10:25:31Z</time>
      </trkpt>
      <trkpt lat="43.9283" lon="5.22254">
        <ele>312</ele>
        <time>2014-05-28T10:25:44Z</time>
      </trkpt>
      <trkpt lat="43.92839" lon="5.22256">
        <ele>320</ele>
        <time>2014-05-28T10:26:07Z</time>
      </trkpt>
      <trkpt lat="43.92847" lon="5.22254">
        <ele>317</ele>
        <time>2014-05-28T10:26:33Z</time>
      </trkpt>
      <trkpt lat="43.92852" lon="5.22245">
        <ele>312</ele>
        <time>2014-05-28T10:26:50Z</time>
      </trkpt>
      <trkpt lat="43.92857" lon="5.22236">
        <ele>312</ele>
        <time>2014-05-28T10:26:56Z</time>
      </trkpt>
      <trkpt lat="43.92859" lon="5.22225">
        <ele>305</ele>
        <time>2014-05-28T10:27:07Z</time>
      </trkpt>
      <trkpt lat="43.92863" lon="5.22215">
        <ele>305</ele>
        <time>2014-05-28T10:27:14Z</time>
      </trkpt>
      <trkpt lat="43.92868" lon="5.22205">
        <ele>311</ele>
        <time>2014-05-28T10:27:34Z</time>
      </trkpt>
      <trkpt lat="43.92874" lon="5.22197">
        <ele>312</ele>
        <time>2014-05-28T10:27:44Z</time>
      </trkpt>
      <trkpt lat="43.92879" lon="5.22189">
        <ele>316</ele>
        <time>2014-05-28T10:27:59Z</time>
      </trkpt>
      <trkpt lat="43.92887" lon="5.22186">
        <ele>314</ele>
        <time>2014-05-28T10:28:05Z</time>
      </trkpt>
      <trkpt lat="43.92894" lon="5.22181">
        <ele>311</ele>
        <time>2014-05-28T10:28:14Z</time>
      </trkpt>
      <trkpt lat="43.92899" lon="5.22171">
        <ele>317</ele>
        <time>2014-05-28T10:29:01Z</time>
      </trkpt>
      <trkpt lat="43.92907" lon="5.22169">
        <ele>321</ele>
        <time>2014-05-28T10:29:08Z</time>
      </trkpt>
      <trkpt lat="43.92915" lon="5.22171">
        <ele>319</ele>
        <time>2014-05-28T10:29:13Z</time>
      </trkpt>
      <trkpt lat="43.92923" lon="5.22176">
        <ele>319</ele>
        <time>2014-05-28T10:29:17Z</time>
      </trkpt>
      <trkpt lat="43.92936" lon="5.22182">
        <ele>318</ele>
        <time>2014-05-28T10:29:22Z</time>
      </trkpt>
      <trkpt lat="43.92943" lon="5.22189">
        <ele>311</ele>
        <time>2014-05-28T10:29:27Z</time>
      </trkpt>
      <trkpt lat="43.9295" lon="5.22194">
        <ele>311</ele>
        <time>2014-05-28T10:29:35Z</time>
      </trkpt>
      <trkpt lat="43.92958" lon="5.22197">
        <ele>311</ele>
        <time>2014-05-28T10:29:41Z</time>
      </trkpt>
      <trkpt lat="43.92965" lon="5.22202">
        <ele>310</ele>
        <time>2014-05-28T10:29:46Z</time>
      </trkpt>
      <trkpt lat="43.92972" lon="5.22209">
        <ele>310</ele>
        <time>2014-05-28T10:29:53Z</time>
      </trkpt>
      <trkpt lat="43.92979" lon="5.22217">
        <ele>311</ele>
        <time>2014-05-28T10:30:00Z</time>
      </trkpt>
      <trkpt lat="43.92985" lon="5.22224">
        <ele>310</ele>
        <time>2014-05-28T10:30:07Z</time>
      </trkpt>
      <trkpt lat="43.92991" lon="5.22232">
        <ele>309</ele>
        <time>2014-05-28T10:30:14Z</time>
      </trkpt>
      <trkpt lat="43.92997" lon="5.22241">
        <ele>311</ele>
        <time>2014-05-28T10:30:27Z</time>
      </trkpt>
      <trkpt lat="43.93004" lon="5.22243">
        <ele>315</ele>
        <time>2014-05-28T10:30:40Z</time>
      </trkpt>
      <trkpt lat="43.93013" lon="5.22244">
        <ele>315</ele>
        <time>2014-05-28T10:30:48Z</time>
      </trkpt>
      <trkpt lat="43.93022" lon="5.22244">
        <ele>319</ele>
        <time>2014-05-28T10:31:02Z</time>
      </trkpt>
      <trkpt lat="43.9303" lon="5.22243">
        <ele>323</ele>
        <time>2014-05-28T10:31:12Z</time>
      </trkpt>
      <trkpt lat="43.93039" lon="5.22244">
        <ele>326</ele>
        <time>2014-05-28T10:31:27Z</time>
      </trkpt>
      <trkpt lat="43.93047" lon="5.22246">
        <ele>327</ele>
        <time>2014-05-28T10:31:37Z</time>
      </trkpt>
      <trkpt lat="43.93056" lon="5.2225">
        <ele>335</ele>
        <time>2014-05-28T10:31:53Z</time>
      </trkpt>
      <trkpt lat="43.93064" lon="5.2225">
        <ele>330</ele>
        <time>2014-05-28T10:32:06Z</time>
      </trkpt>
      <trkpt lat="43.93072" lon="5.22247">
        <ele>331</ele>
        <time>2014-05-28T10:32:15Z</time>
      </trkpt>
      <trkpt lat="43.9308" lon="5.22242">
        <ele>330</ele>
        <time>2014-05-28T10:32:26Z</time>
      </trkpt>
      <trkpt lat="43.93088" lon="5.22241">
        <ele>329</ele>
        <time>2014-05-28T10:32:34Z</time>
      </trkpt>
      <trkpt lat="43.93097" lon="5.22241">
        <ele>330</ele>
        <time>2014-05-28T10:32:42Z</time>
      </trkpt>
      <trkpt lat="43.931" lon="5.22229">
        <ele>330</ele>
        <time>2014-05-28T10:32:59Z</time>
      </trkpt>
      <trkpt lat="43.93099" lon="5.22217">
        <ele>330</ele>
        <time>2014-05-28T10:33:17Z</time>
      </trkpt>
      <trkpt lat="43.93103" lon="5.22206">
        <ele>332</ele>
        <time>2014-05-28T10:34:35Z</time>
      </trkpt>
      <trkpt lat="43.9311" lon="5.22199">
        <ele>338</ele>
        <time>2014-05-28T10:34:47Z</time>
      </trkpt>
      <trkpt lat="43.93103" lon="5.22192">
        <ele>334</ele>
        <time>2014-05-28T11:19:05Z</time>
      </trkpt>
      <trkpt lat="43.93096" lon="5.22185">
        <ele>334</ele>
        <time>2014-05-28T11:19:15Z</time>
      </trkpt>
      <trkpt lat="43.93091" lon="5.22176">
        <ele>330</ele>
        <time>2014-05-28T11:19:22Z</time>
      </trkpt>
      <trkpt lat="43.93096" lon="5.22167">
        <ele>333</ele>
        <time>2014-05-28T11:19:40Z</time>
      </trkpt>
      <trkpt lat="43.93104" lon="5.22164">
        <ele>336</ele>
        <time>2014-05-28T11:19:45Z</time>
      </trkpt>
      <trkpt lat="43.93114" lon="5.22161">
        <ele>337</ele>
        <time>2014-05-28T11:19:50Z</time>
      </trkpt>
      <trkpt lat="43.93126" lon="5.22158">
        <ele>337</ele>
        <time>2014-05-28T11:19:54Z</time>
      </trkpt>
      <trkpt lat="43.9314" lon="5.22156">
        <ele>338</ele>
        <time>2014-05-28T11:19:58Z</time>
      </trkpt>
      <trkpt lat="43.9315" lon="5.22154">
        <ele>337</ele>
        <time>2014-05-28T11:20:02Z</time>
      </trkpt>
      <trkpt lat="43.93145" lon="5.22145">
        <ele>328</ele>
        <time>2014-05-28T11:20:08Z</time>
      </trkpt>
      <trkpt lat="43.93138" lon="5.22138">
        <ele>324</ele>
        <time>2014-05-28T11:20:13Z</time>
      </trkpt>
      <trkpt lat="43.9314" lon="5.22126">
        <ele>324</ele>
        <time>2014-05-28T11:20:23Z</time>
      </trkpt>
      <trkpt lat="43.93135" lon="5.22117">
        <ele>326</ele>
        <time>2014-05-28T11:20:32Z</time>
      </trkpt>
      <trkpt lat="43.9313" lon="5.2211">
        <ele>327</ele>
        <time>2014-05-28T11:20:41Z</time>
      </trkpt>
      <trkpt lat="43.93118" lon="5.22104">
        <ele>330</ele>
        <time>2014-05-28T11:20:46Z</time>
      </trkpt>
      <trkpt lat="43.93109" lon="5.22099">
        <ele>329</ele>
        <time>2014-05-28T11:20:51Z</time>
      </trkpt>
      <trkpt lat="43.93101" lon="5.22092">
        <ele>328</ele>
        <time>2014-05-28T11:20:58Z</time>
      </trkpt>
      <trkpt lat="43.93102" lon="5.2208">
        <ele>328</ele>
        <time>2014-05-28T11:21:12Z</time>
      </trkpt>
      <trkpt lat="43.93106" lon="5.2207">
        <ele>330</ele>
        <time>2014-05-28T11:21:38Z</time>
      </trkpt>
      <trkpt lat="43.93109" lon="5.22059">
        <ele>332</ele>
        <time>2014-05-28T11:21:47Z</time>
      </trkpt>
      <trkpt lat="43.93113" lon="5.22049">
        <ele>334</ele>
        <time>2014-05-28T11:21:54Z</time>
      </trkpt>
      <trkpt lat="43.9312" lon="5.22041">
        <ele>333</ele>
        <time>2014-05-28T11:22:02Z</time>
      </trkpt>
      <trkpt lat="43.93129" lon="5.2204">
        <ele>336</ele>
        <time>2014-05-28T11:22:13Z</time>
      </trkpt>
      <trkpt lat="43.93137" lon="5.22041">
        <ele>340</ele>
        <time>2014-05-28T11:22:26Z</time>
      </trkpt>
      <trkpt lat="43.93146" lon="5.22043">
        <ele>346</ele>
        <time>2014-05-28T11:22:37Z</time>
      </trkpt>
      <trkpt lat="43.93154" lon="5.22049">
        <ele>343</ele>
        <time>2014-05-28T11:22:48Z</time>
      </trkpt>
      <trkpt lat="43.93162" lon="5.22053">
        <ele>338</ele>
        <time>2014-05-28T11:23:00Z</time>
      </trkpt>
      <trkpt lat="43.93168" lon="5.22062">
        <ele>331</ele>
        <time>2014-05-28T11:23:23Z</time>
      </trkpt>
      <trkpt lat="43.93171" lon="5.22073">
        <ele>327</ele>
        <time>2014-05-28T11:23:38Z</time>
      </trkpt>
      <trkpt lat="43.93176" lon="5.22082">
        <ele>331</ele>
        <time>2014-05-28T11:23:51Z</time>
      </trkpt>
      <trkpt lat="43.93183" lon="5.22089">
        <ele>332</ele>
        <time>2014-05-28T11:24:08Z</time>
      </trkpt>
      <trkpt lat="43.93187" lon="5.221">
        <ele>331</ele>
        <time>2014-05-28T11:24:42Z</time>
      </trkpt>
      <trkpt lat="43.93191" lon="5.2211">
        <ele>327</ele>
        <time>2014-05-28T11:25:11Z</time>
      </trkpt>
      <trkpt lat="43.93198" lon="5.22117">
        <ele>330</ele>
        <time>2014-05-28T11:25:23Z</time>
      </trkpt>
      <trkpt lat="43.93205" lon="5.22124">
        <ele>332</ele>
        <time>2014-05-28T11:25:35Z</time>
      </trkpt>
      <trkpt lat="43.93214" lon="5.22123">
        <ele>334</ele>
        <time>2014-05-28T11:25:59Z</time>
      </trkpt>
      <trkpt lat="43.93218" lon="5.22113">
        <ele>332</ele>
        <time>2014-05-28T11:26:13Z</time>
      </trkpt>
      <trkpt lat="43.93226" lon="5.22109">
        <ele>333</ele>
        <time>2014-05-28T11:26:46Z</time>
      </trkpt>
      <trkpt lat="43.93234" lon="5.22104">
        <ele>333</ele>
        <time>2014-05-28T11:26:57Z</time>
      </trkpt>
      <trkpt lat="43.93243" lon="5.22103">
        <ele>336</ele>
        <time>2014-05-28T11:27:07Z</time>
      </trkpt>
      <trkpt lat="43.9325" lon="5.22098">
        <ele>337</ele>
        <time>2014-05-28T11:27:35Z</time>
      </trkpt>
      <trkpt lat="43.93257" lon="5.2209">
        <ele>338</ele>
        <time>2014-05-28T11:27:40Z</time>
      </trkpt>
      <trkpt lat="43.93264" lon="5.22085">
        <ele>340</ele>
        <time>2014-05-28T11:27:45Z</time>
      </trkpt>
      <trkpt lat="43.93272" lon="5.22088">
        <ele>344</ele>
        <time>2014-05-28T11:27:52Z</time>
      </trkpt>
      <trkpt lat="43.9328" lon="5.22086">
        <ele>346</ele>
        <time>2014-05-28T11:28:09Z</time>
      </trkpt>
      <trkpt lat="43.93289" lon="5.22088">
        <ele>345</ele>
        <time>2014-05-28T11:28:40Z</time>
      </trkpt>
      <trkpt lat="43.93297" lon="5.22091">
        <ele>346</ele>
        <time>2014-05-28T11:28:47Z</time>
      </trkpt>
      <trkpt lat="43.93304" lon="5.22096">
        <ele>340</ele>
        <time>2014-05-28T11:29:19Z</time>
      </trkpt>
      <trkpt lat="43.93311" lon="5.22103">
        <ele>337</ele>
        <time>2014-05-28T11:29:24Z</time>
      </trkpt>
      <trkpt lat="43.93318" lon="5.22109">
        <ele>335</ele>
        <time>2014-05-28T11:29:35Z</time>
      </trkpt>
      <trkpt lat="43.93325" lon="5.22118">
        <ele>340</ele>
        <time>2014-05-28T11:30:10Z</time>
      </trkpt>
      <trkpt lat="43.93333" lon="5.22121">
        <ele>341</ele>
        <time>2014-05-28T11:30:24Z</time>
      </trkpt>
      <trkpt lat="43.93338" lon="5.22131">
        <ele>343</ele>
        <time>2014-05-28T11:31:01Z</time>
      </trkpt>
      <trkpt lat="43.93347" lon="5.22131">
        <ele>356</ele>
        <time>2014-05-28T11:32:00Z</time>
      </trkpt>
      <trkpt lat="43.93355" lon="5.22128">
        <ele>362</ele>
        <time>2014-05-28T11:32:05Z</time>
      </trkpt>
      <trkpt lat="43.93363" lon="5.22125">
        <ele>363</ele>
        <time>2014-05-28T11:32:13Z</time>
      </trkpt>
      <trkpt lat="43.93372" lon="5.22126">
        <ele>368</ele>
        <time>2014-05-28T11:32:47Z</time>
      </trkpt>
      <trkpt lat="43.93379" lon="5.22134">
        <ele>371</ele>
        <time>2014-05-28T11:33:19Z</time>
      </trkpt>
      <trkpt lat="43.93387" lon="5.22139">
        <ele>371</ele>
        <time>2014-05-28T11:36:36Z</time>
      </trkpt>
      <trkpt lat="43.93395" lon="5.22138">
        <ele>370</ele>
        <time>2014-05-28T11:37:02Z</time>
      </trkpt>
      <trkpt lat="43.93403" lon="5.22137">
        <ele>370</ele>
        <time>2014-05-28T11:37:20Z</time>
      </trkpt>
      <trkpt lat="43.93412" lon="5.22134">
        <ele>370</ele>
        <time>2014-05-28T11:37:27Z</time>
      </trkpt>
      <trkpt lat="43.93419" lon="5.22131">
        <ele>367</ele>
        <time>2014-05-28T11:37:32Z</time>
      </trkpt>
      <trkpt lat="43.93427" lon="5.22128">
        <ele>367</ele>
        <time>2014-05-28T11:37:38Z</time>
      </trkpt>
      <trkpt lat="43.93435" lon="5.22122">
        <ele>370</ele>
        <time>2014-05-28T11:37:52Z</time>
      </trkpt>
      <trkpt lat="43.93443" lon="5.22117">
        <ele>366</ele>
        <time>2014-05-28T11:37:58Z</time>
      </trkpt>
      <trkpt lat="43.93449" lon="5.22108">
        <ele>365</ele>
        <time>2014-05-28T11:38:10Z</time>
      </trkpt>
      <trkpt lat="43.93457" lon="5.22106">
        <ele>367</ele>
        <time>2014-05-28T11:38:48Z</time>
      </trkpt>
      <trkpt lat="43.93466" lon="5.22106">
        <ele>367</ele>
        <time>2014-05-28T11:38:57Z</time>
      </trkpt>
      <trkpt lat="43.93474" lon="5.22107">
        <ele>372</ele>
        <time>2014-05-28T11:39:06Z</time>
      </trkpt>
      <trkpt lat="43.93483" lon="5.2211">
        <ele>374</ele>
        <time>2014-05-28T11:39:18Z</time>
      </trkpt>
      <trkpt lat="43.93491" lon="5.22114">
        <ele>376</ele>
        <time>2014-05-28T11:40:38Z</time>
      </trkpt>
      <trkpt lat="43.93499" lon="5.22114">
        <ele>378</ele>
        <time>2014-05-28T11:40:50Z</time>
      </trkpt>
      <trkpt lat="43.93508" lon="5.22112">
        <ele>379</ele>
        <time>2014-05-28T11:40:57Z</time>
      </trkpt>
      <trkpt lat="43.93517" lon="5.22111">
        <ele>379</ele>
        <time>2014-05-28T11:41:06Z</time>
      </trkpt>
      <trkpt lat="43.93523" lon="5.22104">
        <ele>384</ele>
        <time>2014-05-28T11:41:22Z</time>
      </trkpt>
      <trkpt lat="43.93531" lon="5.22101">
        <ele>385</ele>
        <time>2014-05-28T11:41:29Z</time>
      </trkpt>
      <trkpt lat="43.93539" lon="5.22097">
        <ele>381</ele>
        <time>2014-05-28T11:41:36Z</time>
      </trkpt>
      <trkpt lat="43.93547" lon="5.22094">
        <ele>379</ele>
        <time>2014-05-28T11:41:43Z</time>
      </trkpt>
      <trkpt lat="43.93556" lon="5.22094">
        <ele>377</ele>
        <time>2014-05-28T11:42:01Z</time>
      </trkpt>
      <trkpt lat="43.93565" lon="5.22094">
        <ele>380</ele>
        <time>2014-05-28T11:42:12Z</time>
      </trkpt>
      <trkpt lat="43.93573" lon="5.22091">
        <ele>379</ele>
        <time>2014-05-28T11:42:27Z</time>
      </trkpt>
      <trkpt lat="43.93581" lon="5.22087">
        <ele>378</ele>
        <time>2014-05-28T11:42:36Z</time>
      </trkpt>
      <trkpt lat="43.93589" lon="5.22083">
        <ele>376</ele>
        <time>2014-05-28T11:42:42Z</time>
      </trkpt>
      <trkpt lat="43.93596" lon="5.22084">
        <ele>372</ele>
        <time>2014-05-28T11:42:47Z</time>
      </trkpt>
      <trkpt lat="43.93604" lon="5.22085">
        <ele>372</ele>
        <time>2014-05-28T11:42:53Z</time>
      </trkpt>
      <trkpt lat="43.93612" lon="5.22085">
        <ele>375</ele>
        <time>2014-05-28T11:43:04Z</time>
      </trkpt>
      <trkpt lat="43.9362" lon="5.22086">
        <ele>376</ele>
        <time>2014-05-28T11:43:11Z</time>
      </trkpt>
      <trkpt lat="43.93629" lon="5.22089">
        <ele>379</ele>
        <time>2014-05-28T11:43:18Z</time>
      </trkpt>
      <trkpt lat="43.93637" lon="5.22094">
        <ele>383</ele>
        <time>2014-05-28T11:43:23Z</time>
      </trkpt>
      <trkpt lat="43.93645" lon="5.22096">
        <ele>384</ele>
        <time>2014-05-28T11:43:37Z</time>
      </trkpt>
      <trkpt lat="43.93654" lon="5.221">
        <ele>386</ele>
        <time>2014-05-28T11:43:48Z</time>
      </trkpt>
      <trkpt lat="43.93662" lon="5.22103">
        <ele>381</ele>
        <time>2014-05-28T11:43:58Z</time>
      </trkpt>
      <trkpt lat="43.93669" lon="5.2211">
        <ele>378</ele>
        <time>2014-05-28T11:44:04Z</time>
      </trkpt>
      <trkpt lat="43.93677" lon="5.22116">
        <ele>380</ele>
        <time>2014-05-28T11:44:12Z</time>
      </trkpt>
      <trkpt lat="43.93685" lon="5.22119">
        <ele>380</ele>
        <time>2014-05-28T11:44:21Z</time>
      </trkpt>
      <trkpt lat="43.93693" lon="5.22123">
        <ele>380</ele>
        <time>2014-05-28T11:44:45Z</time>
      </trkpt>
      <trkpt lat="43.93701" lon="5.22127">
        <ele>378</ele>
        <time>2014-05-28T11:44:57Z</time>
      </trkpt>
      <trkpt lat="43.93709" lon="5.2213">
        <ele>378</ele>
        <time>2014-05-28T11:45:04Z</time>
      </trkpt>
      <trkpt lat="43.93717" lon="5.22131">
        <ele>379</ele>
        <time>2014-05-28T11:45:24Z</time>
      </trkpt>
      <trkpt lat="43.93726" lon="5.22132">
        <ele>380</ele>
        <time>2014-05-28T11:45:32Z</time>
      </trkpt>
      <trkpt lat="43.93732" lon="5.2213">
        <ele>378</ele>
        <time>2014-05-28T11:45:53Z</time>
      </trkpt>
      <trkpt lat="43.9374" lon="5.22133">
        <ele>378</ele>
        <time>2014-05-28T11:45:58Z</time>
      </trkpt>
      <trkpt lat="43.93748" lon="5.22129">
        <ele>380</ele>
        <time>2014-05-28T11:46:13Z</time>
      </trkpt>
      <trkpt lat="43.93756" lon="5.22124">
        <ele>382</ele>
        <time>2014-05-28T11:46:22Z</time>
      </trkpt>
      <trkpt lat="43.93763" lon="5.22123">
        <ele>386</ele>
        <time>2014-05-28T11:46:28Z</time>
      </trkpt>
      <trkpt lat="43.93771" lon="5.2212">
        <ele>388</ele>
        <time>2014-05-28T11:46:33Z</time>
      </trkpt>
      <trkpt lat="43.9378" lon="5.22119">
        <ele>389</ele>
        <time>2014-05-28T11:46:42Z</time>
      </trkpt>
      <trkpt lat="43.93788" lon="5.22122">
        <ele>390</ele>
        <time>2014-05-28T11:47:06Z</time>
      </trkpt>
      <trkpt lat="43.93795" lon="5.22129">
        <ele>392</ele>
        <time>2014-05-28T11:47:22Z</time>
      </trkpt>
      <trkpt lat="43.93803" lon="5.22134">
        <ele>393</ele>
        <time>2014-05-28T11:47:31Z</time>
      </trkpt>
      <trkpt lat="43.93811" lon="5.22136">
        <ele>396</ele>
        <time>2014-05-28T11:47:37Z</time>
      </trkpt>
      <trkpt lat="43.93819" lon="5.22136">
        <ele>400</ele>
        <time>2014-05-28T11:47:43Z</time>
      </trkpt>
      <trkpt lat="43.93828" lon="5.22138">
        <ele>395</ele>
        <time>2014-05-28T11:48:39Z</time>
      </trkpt>
      <trkpt lat="43.93837" lon="5.22136">
        <ele>394</ele>
        <time>2014-05-28T11:49:07Z</time>
      </trkpt>
      <trkpt lat="43.93845" lon="5.22136">
        <ele>396</ele>
        <time>2014-05-28T11:50:15Z</time>
      </trkpt>
      <trkpt lat="43.93853" lon="5.22137">
        <ele>401</ele>
        <time>2014-05-28T11:50:40Z</time>
      </trkpt>
      <trkpt lat="43.9386" lon="5.22145">
        <ele>399</ele>
        <time>2014-05-28T11:50:48Z</time>
      </trkpt>
      <trkpt lat="43.93866" lon="5.22154">
        <ele>394</ele>
        <time>2014-05-28T11:51:24Z</time>
      </trkpt>
      <trkpt lat="43.93871" lon="5.22145">
        <ele>402</ele>
        <time>2014-05-28T11:53:05Z</time>
      </trkpt>
      <trkpt lat="43.93871" lon="5.22133">
        <ele>401</ele>
        <time>2014-05-28T11:53:30Z</time>
      </trkpt>
      <trkpt lat="43.93876" lon="5.22123">
        <ele>402</ele>
        <time>2014-05-28T11:54:30Z</time>
      </trkpt>
      <trkpt lat="43.93884" lon="5.22119">
        <ele>405</ele>
        <time>2014-05-28T11:55:09Z</time>
      </trkpt>
      <trkpt lat="43.93892" lon="5.22117">
        <ele>408</ele>
        <time>2014-05-28T11:55:31Z</time>
      </trkpt>
      <trkpt lat="43.93901" lon="5.22117">
        <ele>410</ele>
        <time>2014-05-28T11:55:46Z</time>
      </trkpt>
      <trkpt lat="43.9391" lon="5.22118">
        <ele>413</ele>
        <time>2014-05-28T11:58:06Z</time>
      </trkpt>
      <trkpt lat="43.93918" lon="5.22117">
        <ele>416</ele>
        <time>2014-05-28T11:58:17Z</time>
      </trkpt>
      <trkpt lat="43.93927" lon="5.22117">
        <ele>418</ele>
        <time>2014-05-28T11:58:29Z</time>
      </trkpt>
      <trkpt lat="43.93935" lon="5.22121">
        <ele>421</ele>
        <time>2014-05-28T11:58:39Z</time>
      </trkpt>
      <trkpt lat="43.93944" lon="5.22123">
        <ele>421</ele>
        <time>2014-05-28T11:58:47Z</time>
      </trkpt>
      <trkpt lat="43.93951" lon="5.22125">
        <ele>417</ele>
        <time>2014-05-28T11:58:54Z</time>
      </trkpt>
      <trkpt lat="43.9396" lon="5.22126">
        <ele>419</ele>
        <time>2014-05-28T11:59:03Z</time>
      </trkpt>
      <trkpt lat="43.93968" lon="5.22126">
        <ele>415</ele>
        <time>2014-05-28T11:59:12Z</time>
      </trkpt>
      <trkpt lat="43.93976" lon="5.22131">
        <ele>418</ele>
        <time>2014-05-28T11:59:20Z</time>
      </trkpt>
      <trkpt lat="43.93984" lon="5.22128">
        <ele>417</ele>
        <time>2014-05-28T11:59:29Z</time>
      </trkpt>
      <trkpt lat="43.93993" lon="5.22132">
        <ele>416</ele>
        <time>2014-05-28T11:59:42Z</time>
      </trkpt>
      <trkpt lat="43.94001" lon="5.22138">
        <ele>416</ele>
        <time>2014-05-28T11:59:52Z</time>
      </trkpt>
      <trkpt lat="43.94008" lon="5.22143">
        <ele>415</ele>
        <time>2014-05-28T12:00:05Z</time>
      </trkpt>
      <trkpt lat="43.94015" lon="5.22151">
        <ele>413</ele>
        <time>2014-05-28T12:00:16Z</time>
      </trkpt>
      <trkpt lat="43.94018" lon="5.22161">
        <ele>412</ele>
        <time>2014-05-28T12:00:25Z</time>
      </trkpt>
      <trkpt lat="43.9402" lon="5.22173">
        <ele>406</ele>
        <time>2014-05-28T12:00:42Z</time>
      </trkpt>
      <trkpt lat="43.94022" lon="5.22184">
        <ele>406</ele>
        <time>2014-05-28T12:00:52Z</time>
      </trkpt>
      <trkpt lat="43.94025" lon="5.22195">
        <ele>407</ele>
        <time>2014-05-28T12:01:02Z</time>
      </trkpt>
      <trkpt lat="43.94027" lon="5.22206">
        <ele>408</ele>
        <time>2014-05-28T12:01:10Z</time>
      </trkpt>
      <trkpt lat="43.94028" lon="5.22217">
        <ele>408</ele>
        <time>2014-05-28T12:01:18Z</time>
      </trkpt>
      <trkpt lat="43.9403" lon="5.22229">
        <ele>404</ele>
        <time>2014-05-28T12:01:32Z</time>
      </trkpt>
      <trkpt lat="43.94031" lon="5.22241">
        <ele>404</ele>
        <time>2014-05-28T12:01:46Z</time>
      </trkpt>
      <trkpt lat="43.94029" lon="5.22252">
        <ele>410</ele>
        <time>2014-05-28T12:01:57Z</time>
      </trkpt>
      <trkpt lat="43.9403" lon="5.22264">
        <ele>408</ele>
        <time>2014-05-28T12:02:04Z</time>
      </trkpt>
      <trkpt lat="43.9403" lon="5.22275">
        <ele>405</ele>
        <time>2014-05-28T12:02:10Z</time>
      </trkpt>
      <trkpt lat="43.94032" lon="5.22286">
        <ele>406</ele>
        <time>2014-05-28T12:02:17Z</time>
      </trkpt>
      <trkpt lat="43.94037" lon="5.22295">
        <ele>408</ele>
        <time>2014-05-28T12:02:24Z</time>
      </trkpt>
      <trkpt lat="43.94044" lon="5.22301">
        <ele>409</ele>
        <time>2014-05-28T12:02:32Z</time>
      </trkpt>
      <trkpt lat="43.9405" lon="5.22309">
        <ele>407</ele>
        <time>2014-05-28T12:02:44Z</time>
      </trkpt>
      <trkpt lat="43.94058" lon="5.22313">
        <ele>406</ele>
        <time>2014-05-28T12:02:51Z</time>
      </trkpt>
      <trkpt lat="43.94065" lon="5.22315">
        <ele>404</ele>
        <time>2014-05-28T12:02:59Z</time>
      </trkpt>
      <trkpt lat="43.94073" lon="5.22318">
        <ele>405</ele>
        <time>2014-05-28T12:03:06Z</time>
      </trkpt>
      <trkpt lat="43.94081" lon="5.22318">
        <ele>406</ele>
        <time>2014-05-28T12:03:14Z</time>
      </trkpt>
      <trkpt lat="43.9409" lon="5.22316">
        <ele>407</ele>
        <time>2014-05-28T12:03:26Z</time>
      </trkpt>
      <trkpt lat="43.94098" lon="5.22316">
        <ele>404</ele>
        <time>2014-05-28T12:03:34Z</time>
      </trkpt>
      <trkpt lat="43.94106" lon="5.22313">
        <ele>403</ele>
        <time>2014-05-28T12:03:47Z</time>
      </trkpt>
      <trkpt lat="43.94112" lon="5.22305">
        <ele>406</ele>
        <time>2014-05-28T12:03:55Z</time>
      </trkpt>
      <trkpt lat="43.94119" lon="5.223">
        <ele>407</ele>
        <time>2014-05-28T12:04:02Z</time>
      </trkpt>
      <trkpt lat="43.94127" lon="5.22294">
        <ele>406</ele>
        <time>2014-05-28T12:04:11Z</time>
      </trkpt>
      <trkpt lat="43.94134" lon="5.22287">
        <ele>407</ele>
        <time>2014-05-28T12:04:19Z</time>
      </trkpt>
      <trkpt lat="43.94141" lon="5.22281">
        <ele>405</ele>
        <time>2014-05-28T12:04:27Z</time>
      </trkpt>
      <trkpt lat="43.94149" lon="5.22276">
        <ele>409</ele>
        <time>2014-05-28T12:04:38Z</time>
      </trkpt>
      <trkpt lat="43.94156" lon="5.2227">
        <ele>411</ele>
        <time>2014-05-28T12:04:48Z</time>
      </trkpt>
      <trkpt lat="43.94163" lon="5.22262">
        <ele>413</ele>
        <time>2014-05-28T12:05:03Z</time>
      </trkpt>
      <trkpt lat="43.94169" lon="5.22253">
        <ele>412</ele>
        <time>2014-05-28T12:05:12Z</time>
      </trkpt>
      <trkpt lat="43.94177" lon="5.22248">
        <ele>415</ele>
        <time>2014-05-28T12:05:22Z</time>
      </trkpt>
      <trkpt lat="43.94185" lon="5.22246">
        <ele>413</ele>
        <time>2014-05-28T12:05:42Z</time>
      </trkpt>
      <trkpt lat="43.94192" lon="5.22239">
        <ele>414</ele>
        <time>2014-05-28T12:05:55Z</time>
      </trkpt>
      <trkpt lat="43.942" lon="5.2224">
        <ele>415</ele>
        <time>2014-05-28T12:06:09Z</time>
      </trkpt>
      <trkpt lat="43.94209" lon="5.22243">
        <ele>418</ele>
        <time>2014-05-28T12:06:21Z</time>
      </trkpt>
      <trkpt lat="43.94216" lon="5.22248">
        <ele>421</ele>
        <time>2014-05-28T12:06:28Z</time>
      </trkpt>
      <trkpt lat="43.94223" lon="5.22255">
        <ele>426</ele>
        <time>2014-05-28T12:06:34Z</time>
      </trkpt>
      <trkpt lat="43.94229" lon="5.22262">
        <ele>424</ele>
        <time>2014-05-28T12:06:41Z</time>
      </trkpt>
      <trkpt lat="43.94235" lon="5.2227">
        <ele>423</ele>
        <time>2014-05-28T12:06:48Z</time>
      </trkpt>
      <trkpt lat="43.94241" lon="5.22278">
        <ele>422</ele>
        <time>2014-05-28T12:06:56Z</time>
      </trkpt>
      <trkpt lat="43.94248" lon="5.22283">
        <ele>421</ele>
        <time>2014-05-28T12:07:03Z</time>
      </trkpt>
      <trkpt lat="43.94253" lon="5.22293">
        <ele>429</ele>
        <time>2014-05-28T12:07:13Z</time>
      </trkpt>
      <trkpt lat="43.94255" lon="5.22304">
        <ele>428</ele>
        <time>2014-05-28T12:07:24Z</time>
      </trkpt>
      <trkpt lat="43.9426" lon="5.22314">
        <ele>430</ele>
        <time>2014-05-28T12:07:34Z</time>
      </trkpt>
      <trkpt lat="43.94266" lon="5.22323">
        <ele>429</ele>
        <time>2014-05-28T12:07:43Z</time>
      </trkpt>
      <trkpt lat="43.94269" lon="5.22334">
        <ele>428</ele>
        <time>2014-05-28T12:07:54Z</time>
      </trkpt>
      <trkpt lat="43.94263" lon="5.22342">
        <ele>429</ele>
        <time>2014-05-28T12:08:14Z</time>
      </trkpt>
      <trkpt lat="43.9426" lon="5.22354">
        <ele>423</ele>
        <time>2014-05-28T12:08:37Z</time>
      </trkpt>
      <trkpt lat="43.94264" lon="5.22365">
        <ele>420</ele>
        <time>2014-05-28T12:08:51Z</time>
      </trkpt>
      <trkpt lat="43.94268" lon="5.22376">
        <ele>418</ele>
        <time>2014-05-28T12:09:01Z</time>
      </trkpt>
      <trkpt lat="43.94271" lon="5.22387">
        <ele>417</ele>
        <time>2014-05-28T12:09:12Z</time>
      </trkpt>
      <trkpt lat="43.94277" lon="5.22396">
        <ele>418</ele>
        <time>2014-05-28T12:09:26Z</time>
      </trkpt>
      <trkpt lat="43.94282" lon="5.22404">
        <ele>416</ele>
        <time>2014-05-28T12:09:32Z</time>
      </trkpt>
      <trkpt lat="43.94288" lon="5.22414">
        <ele>419</ele>
        <time>2014-05-28T12:09:41Z</time>
      </trkpt>
      <trkpt lat="43.94296" lon="5.22416">
        <ele>421</ele>
        <time>2014-05-28T12:10:03Z</time>
      </trkpt>
      <trkpt lat="43.94304" lon="5.22418">
        <ele>422</ele>
        <time>2014-05-28T12:10:15Z</time>
      </trkpt>
      <trkpt lat="43.94313" lon="5.22418">
        <ele>422</ele>
        <time>2014-05-28T12:10:29Z</time>
      </trkpt>
      <trkpt lat="43.94322" lon="5.22418">
        <ele>421</ele>
        <time>2014-05-28T12:10:39Z</time>
      </trkpt>
      <trkpt lat="43.9433" lon="5.22416">
        <ele>420</ele>
        <time>2014-05-28T12:10:46Z</time>
      </trkpt>
      <trkpt lat="43.94338" lon="5.22411">
        <ele>420</ele>
        <time>2014-05-28T12:10:55Z</time>
      </trkpt>
      <trkpt lat="43.94346" lon="5.22409">
        <ele>418</ele>
        <time>2014-05-28T12:11:03Z</time>
      </trkpt>
      <trkpt lat="43.94354" lon="5.22408">
        <ele>416</ele>
        <time>2014-05-28T12:11:12Z</time>
      </trkpt>
      <trkpt lat="43.94363" lon="5.22409">
        <ele>416</ele>
        <time>2014-05-28T12:11:21Z</time>
      </trkpt>
      <trkpt lat="43.94371" lon="5.22407">
        <ele>418</ele>
        <time>2014-05-28T12:11:28Z</time>
      </trkpt>
      <trkpt lat="43.9438" lon="5.22408">
        <ele>418</ele>
        <time>2014-05-28T12:11:37Z</time>
      </trkpt>
      <trkpt lat="43.94388" lon="5.22409">
        <ele>420</ele>
        <time>2014-05-28T12:11:45Z</time>
      </trkpt>
      <trkpt lat="43.94397" lon="5.22411">
        <ele>423</ele>
        <time>2014-05-28T12:11:55Z</time>
      </trkpt>
      <trkpt lat="43.94405" lon="5.22415">
        <ele>425</ele>
        <time>2014-05-28T12:12:06Z</time>
      </trkpt>
      <trkpt lat="43.94413" lon="5.22417">
        <ele>425</ele>
        <time>2014-05-28T12:12:13Z</time>
      </trkpt>
      <trkpt lat="43.9442" lon="5.22422">
        <ele>426</ele>
        <time>2014-05-28T12:12:19Z</time>
      </trkpt>
      <trkpt lat="43.94427" lon="5.22425">
        <ele>427</ele>
        <time>2014-05-28T12:12:25Z</time>
      </trkpt>
      <trkpt lat="43.94434" lon="5.22428">
        <ele>424</ele>
        <time>2014-05-28T12:12:31Z</time>
      </trkpt>
      <trkpt lat="43.94441" lon="5.22436">
        <ele>417</ele>
        <time>2014-05-28T12:12:43Z</time>
      </trkpt>
      <trkpt lat="43.94446" lon="5.22444">
        <ele>419</ele>
        <time>2014-05-28T12:12:51Z</time>
      </trkpt>
      <trkpt lat="43.94454" lon="5.2245">
        <ele>420</ele>
        <time>2014-05-28T12:12:58Z</time>
      </trkpt>
      <trkpt lat="43.94462" lon="5.22448">
        <ele>422</ele>
        <time>2014-05-28T12:13:07Z</time>
      </trkpt>
      <trkpt lat="43.9447" lon="5.22454">
        <ele>420</ele>
        <time>2014-05-28T12:13:15Z</time>
      </trkpt>
      <trkpt lat="43.94476" lon="5.22463">
        <ele>419</ele>
        <time>2014-05-28T12:13:25Z</time>
      </trkpt>
      <trkpt lat="43.94481" lon="5.22472">
        <ele>412</ele>
        <time>2014-05-28T12:13:53Z</time>
      </trkpt>
      <trkpt lat="43.9449" lon="5.22476">
        <ele>414</ele>
        <time>2014-05-28T12:14:14Z</time>
      </trkpt>
      <trkpt lat="43.94497" lon="5.22482">
        <ele>418</ele>
        <time>2014-05-28T12:16:04Z</time>
      </trkpt>
      <trkpt lat="43.94505" lon="5.22488">
        <ele>419</ele>
        <time>2014-05-28T12:17:31Z</time>
      </trkpt>
      <trkpt lat="43.94499" lon="5.22497">
        <ele>419</ele>
        <time>2014-05-28T12:18:20Z</time>
      </trkpt>
      <trkpt lat="43.94496" lon="5.22508">
        <ele>423</ele>
        <time>2014-05-28T12:18:45Z</time>
      </trkpt>
      <trkpt lat="43.94495" lon="5.2252">
        <ele>423</ele>
        <time>2014-05-28T12:18:55Z</time>
      </trkpt>
      <trkpt lat="43.94499" lon="5.22531">
        <ele>426</ele>
        <time>2014-05-28T12:19:09Z</time>
      </trkpt>
      <trkpt lat="43.94503" lon="5.22541">
        <ele>427</ele>
        <time>2014-05-28T12:19:18Z</time>
      </trkpt>
      <trkpt lat="43.94507" lon="5.22551">
        <ele>428</ele>
        <time>2014-05-28T12:19:27Z</time>
      </trkpt>
      <trkpt lat="43.94511" lon="5.22562">
        <ele>430</ele>
        <time>2014-05-28T12:19:39Z</time>
      </trkpt>
      <trkpt lat="43.94514" lon="5.22574">
        <ele>429</ele>
        <time>2014-05-28T12:19:49Z</time>
      </trkpt>
      <trkpt lat="43.9452" lon="5.22581">
        <ele>427</ele>
        <time>2014-05-28T12:19:58Z</time>
      </trkpt>
      <trkpt lat="43.94525" lon="5.22592">
        <ele>428</ele>
        <time>2014-05-28T12:20:08Z</time>
      </trkpt>
      <trkpt lat="43.94531" lon="5.226">
        <ele>431</ele>
        <time>2014-05-28T12:20:18Z</time>
      </trkpt>
      <trkpt lat="43.94535" lon="5.2261">
        <ele>432</ele>
        <time>2014-05-28T12:20:28Z</time>
      </trkpt>
      <trkpt lat="43.9454" lon="5.22619">
        <ele>434</ele>
        <time>2014-05-28T12:20:38Z</time>
      </trkpt>
      <trkpt lat="43.94545" lon="5.22629">
        <ele>436</ele>
        <time>2014-05-28T12:20:47Z</time>
      </trkpt>
      <trkpt lat="43.9455" lon="5.22637">
        <ele>436</ele>
        <time>2014-05-28T12:20:56Z</time>
      </trkpt>
      <trkpt lat="43.94553" lon="5.22648">
        <ele>436</ele>
        <time>2014-05-28T12:21:07Z</time>
      </trkpt>
      <trkpt lat="43.94558" lon="5.22658">
        <ele>434</ele>
        <time>2014-05-28T12:21:16Z</time>
      </trkpt>
      <trkpt lat="43.94562" lon="5.22668">
        <ele>435</ele>
        <time>2014-05-28T12:21:23Z</time>
      </trkpt>
      <trkpt lat="43.94567" lon="5.22679">
        <ele>434</ele>
        <time>2014-05-28T12:21:31Z</time>
      </trkpt>
      <trkpt lat="43.94572" lon="5.22689">
        <ele>434</ele>
        <time>2014-05-28T12:21:38Z</time>
      </trkpt>
      <trkpt lat="43.94578" lon="5.22698">
        <ele>435</ele>
        <time>2014-05-28T12:21:46Z</time>
      </trkpt>
      <trkpt lat="43.94583" lon="5.22707">
        <ele>437</ele>
        <time>2014-05-28T12:21:56Z</time>
      </trkpt>
      <trkpt lat="43.94588" lon="5.22717">
        <ele>437</ele>
        <time>2014-05-28T12:22:07Z</time>
      </trkpt>
      <trkpt lat="43.94589" lon="5.22729">
        <ele>437</ele>
        <time>2014-05-28T12:24:40Z</time>
      </trkpt>
      <trkpt lat="43.94594" lon="5.22737">
        <ele>434</ele>
        <time>2014-05-28T12:24:49Z</time>
      </trkpt>
      <trkpt lat="43.94602" lon="5.22742">
        <ele>436</ele>
        <time>2014-05-28T12:24:56Z</time>
      </trkpt>
      <trkpt lat="43.94609" lon="5.22747">
        <ele>436</ele>
        <time>2014-05-28T12:25:03Z</time>
      </trkpt>
      <trkpt lat="43.94618" lon="5.22751">
        <ele>439</ele>
        <time>2014-05-28T12:25:13Z</time>
      </trkpt>
      <trkpt lat="43.94624" lon="5.22759">
        <ele>438</ele>
        <time>2014-05-28T12:25:20Z</time>
      </trkpt>
      <trkpt lat="43.94631" lon="5.22766">
        <ele>437</ele>
        <time>2014-05-28T12:25:27Z</time>
      </trkpt>
      <trkpt lat="43.94638" lon="5.22773">
        <ele>438</ele>
        <time>2014-05-28T12:25:35Z</time>
      </trkpt>
      <trkpt lat="43.94645" lon="5.22778">
        <ele>440</ele>
        <time>2014-05-28T12:25:43Z</time>
      </trkpt>
      <trkpt lat="43.94652" lon="5.22786">
        <ele>438</ele>
        <time>2014-05-28T12:25:51Z</time>
      </trkpt>
      <trkpt lat="43.94654" lon="5.22797">
        <ele>434</ele>
        <time>2014-05-28T12:25:59Z</time>
      </trkpt>
      <trkpt lat="43.94658" lon="5.22807">
        <ele>433</ele>
        <time>2014-05-28T12:26:06Z</time>
      </trkpt>
      <trkpt lat="43.94663" lon="5.22816">
        <ele>435</ele>
        <time>2014-05-28T12:26:13Z</time>
      </trkpt>
      <trkpt lat="43.94669" lon="5.22825">
        <ele>435</ele>
        <time>2014-05-28T12:26:20Z</time>
      </trkpt>
      <trkpt lat="43.94675" lon="5.22833">
        <ele>436</ele>
        <time>2014-05-28T12:26:28Z</time>
      </trkpt>
      <trkpt lat="43.9468" lon="5.22843">
        <ele>434</ele>
        <time>2014-05-28T12:26:35Z</time>
      </trkpt>
      <trkpt lat="43.94686" lon="5.22852">
        <ele>435</ele>
        <time>2014-05-28T12:26:42Z</time>
      </trkpt>
      <trkpt lat="43.94694" lon="5.22857">
        <ele>437</ele>
        <time>2014-05-28T12:26:50Z</time>
      </trkpt>
      <trkpt lat="43.94697" lon="5.22867">
        <ele>437</ele>
        <time>2014-05-28T12:26:56Z</time>
      </trkpt>
      <trkpt lat="43.94701" lon="5.22877">
        <ele>436</ele>
        <time>2014-05-28T12:27:03Z</time>
      </trkpt>
      <trkpt lat="43.94704" lon="5.22887">
        <ele>435</ele>
        <time>2014-05-28T12:27:10Z</time>
      </trkpt>
      <trkpt lat="43.94708" lon="5.22899">
        <ele>434</ele>
        <time>2014-05-28T12:27:17Z</time>
      </trkpt>
      <trkpt lat="43.94712" lon="5.22908">
        <ele>436</ele>
        <time>2014-05-28T12:27:25Z</time>
      </trkpt>
      <trkpt lat="43.94715" lon="5.22919">
        <ele>437</ele>
        <time>2014-05-28T12:27:34Z</time>
      </trkpt>
      <trkpt lat="43.94718" lon="5.22929">
        <ele>436</ele>
        <time>2014-05-28T12:27:40Z</time>
      </trkpt>
      <trkpt lat="43.94722" lon="5.22939">
        <ele>435</ele>
        <time>2014-05-28T12:27:46Z</time>
      </trkpt>
      <trkpt lat="43.94726" lon="5.22949">
        <ele>435</ele>
        <time>2014-05-28T12:27:52Z</time>
      </trkpt>
      <trkpt lat="43.94729" lon="5.2296">
        <ele>434</ele>
        <time>2014-05-28T12:27:59Z</time>
      </trkpt>
      <trkpt lat="43.94733" lon="5.22969">
        <ele>434</ele>
        <time>2014-05-28T12:28:05Z</time>
      </trkpt>
      <trkpt lat="43.94737" lon="5.2298">
        <ele>435</ele>
        <time>2014-05-28T12:28:13Z</time>
      </trkpt>
      <trkpt lat="43.94745" lon="5.22986">
        <ele>434</ele>
        <time>2014-05-28T12:28:21Z</time>
      </trkpt>
      <trkpt lat="43.94752" lon="5.22992">
        <ele>436</ele>
        <time>2014-05-28T12:28:29Z</time>
      </trkpt>
      <trkpt lat="43.94759" lon="5.23">
        <ele>435</ele>
        <time>2014-05-28T12:28:36Z</time>
      </trkpt>
      <trkpt lat="43.94764" lon="5.23009">
        <ele>436</ele>
        <time>2014-05-28T12:28:43Z</time>
      </trkpt>
      <trkpt lat="43.94771" lon="5.23017">
        <ele>437</ele>
        <time>2014-05-28T12:28:50Z</time>
      </trkpt>
      <trkpt lat="43.94778" lon="5.23024">
        <ele>440</ele>
        <time>2014-05-28T12:28:58Z</time>
      </trkpt>
      <trkpt lat="43.94784" lon="5.23034">
        <ele>440</ele>
        <time>2014-05-28T12:29:07Z</time>
      </trkpt>
      <trkpt lat="43.9479" lon="5.23041">
        <ele>438</ele>
        <time>2014-05-28T12:29:14Z</time>
      </trkpt>
      <trkpt lat="43.94797" lon="5.23045">
        <ele>440</ele>
        <time>2014-05-28T12:29:21Z</time>
      </trkpt>
      <trkpt lat="43.94805" lon="5.23049">
        <ele>440</ele>
        <time>2014-05-28T12:29:28Z</time>
      </trkpt>
      <trkpt lat="43.94813" lon="5.23049">
        <ele>439</ele>
        <time>2014-05-28T12:29:35Z</time>
      </trkpt>
      <trkpt lat="43.94821" lon="5.2305">
        <ele>439</ele>
        <time>2014-05-28T12:29:42Z</time>
      </trkpt>
      <trkpt lat="43.94829" lon="5.23053">
        <ele>438</ele>
        <time>2014-05-28T12:29:49Z</time>
      </trkpt>
      <trkpt lat="43.94837" lon="5.23056">
        <ele>441</ele>
        <time>2014-05-28T12:29:57Z</time>
      </trkpt>
      <trkpt lat="43.94845" lon="5.23058">
        <ele>443</ele>
        <time>2014-05-28T12:30:06Z</time>
      </trkpt>
      <trkpt lat="43.94852" lon="5.23065">
        <ele>443</ele>
        <time>2014-05-28T12:30:14Z</time>
      </trkpt>
      <trkpt lat="43.94858" lon="5.23074">
        <ele>441</ele>
        <time>2014-05-28T12:30:22Z</time>
      </trkpt>
      <trkpt lat="43.94866" lon="5.2308">
        <ele>441</ele>
        <time>2014-05-28T12:30:30Z</time>
      </trkpt>
      <trkpt lat="43.94873" lon="5.23085">
        <ele>442</ele>
        <time>2014-05-28T12:30:39Z</time>
      </trkpt>
      <trkpt lat="43.9488" lon="5.23092">
        <ele>443</ele>
        <time>2014-05-28T12:30:48Z</time>
      </trkpt>
      <trkpt lat="43.94883" lon="5.23103">
        <ele>443</ele>
        <time>2014-05-28T12:30:55Z</time>
      </trkpt>
      <trkpt lat="43.94886" lon="5.23114">
        <ele>444</ele>
        <time>2014-05-28T12:31:03Z</time>
      </trkpt>
      <trkpt lat="43.9489" lon="5.23125">
        <ele>447</ele>
        <time>2014-05-28T12:31:13Z</time>
      </trkpt>
      <trkpt lat="43.94892" lon="5.23136">
        <ele>448</ele>
        <time>2014-05-28T12:31:21Z</time>
      </trkpt>
      <trkpt lat="43.94892" lon="5.23148">
        <ele>448</ele>
        <time>2014-05-28T12:31:30Z</time>
      </trkpt>
      <trkpt lat="43.94892" lon="5.2316">
        <ele>447</ele>
        <time>2014-05-28T12:31:38Z</time>
      </trkpt>
      <trkpt lat="43.94891" lon="5.23172">
        <ele>447</ele>
        <time>2014-05-28T12:31:45Z</time>
      </trkpt>
      <trkpt lat="43.9489" lon="5.23184">
        <ele>445</ele>
        <time>2014-05-28T12:31:53Z</time>
      </trkpt>
      <trkpt lat="43.9489" lon="5.23195">
        <ele>445</ele>
        <time>2014-05-28T12:32:00Z</time>
      </trkpt>
      <trkpt lat="43.9489" lon="5.23207">
        <ele>444</ele>
        <time>2014-05-28T12:32:07Z</time>
      </trkpt>
      <trkpt lat="43.94889" lon="5.23218">
        <ele>444</ele>
        <time>2014-05-28T12:32:15Z</time>
      </trkpt>
      <trkpt lat="43.94889" lon="5.2323">
        <ele>442</ele>
        <time>2014-05-28T12:32:22Z</time>
      </trkpt>
      <trkpt lat="43.94889" lon="5.23241">
        <ele>440</ele>
        <time>2014-05-28T12:32:28Z</time>
      </trkpt>
      <trkpt lat="43.94889" lon="5.23252">
        <ele>439</ele>
        <time>2014-05-28T12:32:35Z</time>
      </trkpt>
      <trkpt lat="43.9489" lon="5.23263">
        <ele>440</ele>
        <time>2014-05-28T12:32:42Z</time>
      </trkpt>
      <trkpt lat="43.94892" lon="5.23275">
        <ele>442</ele>
        <time>2014-05-28T12:32:49Z</time>
      </trkpt>
      <trkpt lat="43.94891" lon="5.23286">
        <ele>442</ele>
        <time>2014-05-28T12:32:56Z</time>
      </trkpt>
      <trkpt lat="43.9489" lon="5.23297">
        <ele>442</ele>
        <time>2014-05-28T12:33:03Z</time>
      </trkpt>
      <trkpt lat="43.94888" lon="5.23309">
        <ele>444</ele>
        <time>2014-05-28T12:33:11Z</time>
      </trkpt>
      <trkpt lat="43.94888" lon="5.23322">
        <ele>443</ele>
        <time>2014-05-28T12:33:20Z</time>
      </trkpt>
      <trkpt lat="43.9489" lon="5.23333">
        <ele>444</ele>
        <time>2014-05-28T12:33:29Z</time>
      </trkpt>
      <trkpt lat="43.94892" lon="5.23345">
        <ele>444</ele>
        <time>2014-05-28T12:33:38Z</time>
      </trkpt>
      <trkpt lat="43.94893" lon="5.23356">
        <ele>444</ele>
        <time>2014-05-28T12:33:46Z</time>
      </trkpt>
      <trkpt lat="43.94896" lon="5.23367">
        <ele>444</ele>
        <time>2014-05-28T12:33:55Z</time>
      </trkpt>
      <trkpt lat="43.94899" lon="5.23378">
        <ele>445</ele>
        <time>2014-05-28T12:34:04Z</time>
      </trkpt>
      <trkpt lat="43.94901" lon="5.23389">
        <ele>446</ele>
        <time>2014-05-28T12:34:13Z</time>
      </trkpt>
      <trkpt lat="43.94904" lon="5.234">
        <ele>447</ele>
        <time>2014-05-28T12:34:22Z</time>
      </trkpt>
      <trkpt lat="43.94908" lon="5.23411">
        <ele>449</ele>
        <time>2014-05-28T12:34:31Z</time>
      </trkpt>
      <trkpt lat="43.94913" lon="5.2342">
        <ele>451</ele>
        <time>2014-05-28T12:34:41Z</time>
      </trkpt>
      <trkpt lat="43.94916" lon="5.23431">
        <ele>451</ele>
        <time>2014-05-28T12:34:51Z</time>
      </trkpt>
      <trkpt lat="43.94917" lon="5.23442">
        <ele>450</ele>
        <time>2014-05-28T12:34:58Z</time>
      </trkpt>
      <trkpt lat="43.9492" lon="5.23453">
        <ele>450</ele>
        <time>2014-05-28T12:35:06Z</time>
      </trkpt>
      <trkpt lat="43.94922" lon="5.23465">
        <ele>453</ele>
        <time>2014-05-28T12:35:16Z</time>
      </trkpt>
      <trkpt lat="43.94924" lon="5.23477">
        <ele>452</ele>
        <time>2014-05-28T12:35:26Z</time>
      </trkpt>
      <trkpt lat="43.94925" lon="5.23487">
        <ele>451</ele>
        <time>2014-05-28T12:35:33Z</time>
      </trkpt>
      <trkpt lat="43.94929" lon="5.23499">
        <ele>453</ele>
        <time>2014-05-28T12:35:42Z</time>
      </trkpt>
      <trkpt lat="43.9493" lon="5.2351">
        <ele>453</ele>
        <time>2014-05-28T12:35:50Z</time>
      </trkpt>
      <trkpt lat="43.94932" lon="5.23521">
        <ele>452</ele>
        <time>2014-05-28T12:35:57Z</time>
      </trkpt>
      <trkpt lat="43.94934" lon="5.23532">
        <ele>453</ele>
        <time>2014-05-28T12:36:05Z</time>
      </trkpt>
      <trkpt lat="43.94938" lon="5.23543">
        <ele>453</ele>
        <time>2014-05-28T12:36:13Z</time>
      </trkpt>
      <trkpt lat="43.94941" lon="5.23554">
        <ele>454</ele>
        <time>2014-05-28T12:36:20Z</time>
      </trkpt>
      <trkpt lat="43.94944" lon="5.23565">
        <ele>454</ele>
        <time>2014-05-28T12:36:28Z</time>
      </trkpt>
      <trkpt lat="43.94946" lon="5.23575">
        <ele>454</ele>
        <time>2014-05-28T12:36:36Z</time>
      </trkpt>
      <trkpt lat="43.94949" lon="5.23587">
        <ele>455</ele>
        <time>2014-05-28T12:36:45Z</time>
      </trkpt>
      <trkpt lat="43.94952" lon="5.23597">
        <ele>455</ele>
        <time>2014-05-28T12:36:53Z</time>
      </trkpt>
      <trkpt lat="43.94955" lon="5.23608">
        <ele>455</ele>
        <time>2014-05-28T12:37:01Z</time>
      </trkpt>
      <trkpt lat="43.94959" lon="5.23619">
        <ele>455</ele>
        <time>2014-05-28T12:37:09Z</time>
      </trkpt>
      <trkpt lat="43.94962" lon="5.2363">
        <ele>455</ele>
        <time>2014-05-28T12:37:17Z</time>
      </trkpt>
      <trkpt lat="43.94966" lon="5.2364">
        <ele>455</ele>
        <time>2014-05-28T12:37:25Z</time>
      </trkpt>
      <trkpt lat="43.94969" lon="5.23651">
        <ele>456</ele>
        <time>2014-05-28T12:37:33Z</time>
      </trkpt>
      <trkpt lat="43.94973" lon="5.23661">
        <ele>457</ele>
        <time>2014-05-28T12:37:41Z</time>
      </trkpt>
      <trkpt lat="43.94978" lon="5.23671">
        <ele>459</ele>
        <time>2014-05-28T12:37:49Z</time>
      </trkpt>
      <trkpt lat="43.94981" lon="5.23681">
        <ele>459</ele>
        <time>2014-05-28T12:37:57Z</time>
      </trkpt>
      <trkpt lat="43.94985" lon="5.23693">
        <ele>459</ele>
        <time>2014-05-28T12:38:05Z</time>
      </trkpt>
      <trkpt lat="43.94987" lon="5.23704">
        <ele>458</ele>
        <time>2014-05-28T12:38:12Z</time>
      </trkpt>
      <trkpt lat="43.9499" lon="5.23714">
        <ele>458</ele>
        <time>2014-05-28T12:38:20Z</time>
      </trkpt>
      <trkpt lat="43.94993" lon="5.23725">
        <ele>458</ele>
        <time>2014-05-28T12:38:27Z</time>
      </trkpt>
      <trkpt lat="43.94997" lon="5.23735">
        <ele>459</ele>
        <time>2014-05-28T12:38:35Z</time>
      </trkpt>
      <trkpt lat="43.95" lon="5.23746">
        <ele>458</ele>
        <time>2014-05-28T12:38:43Z</time>
      </trkpt>
      <trkpt lat="43.95003" lon="5.23757">
        <ele>459</ele>
        <time>2014-05-28T12:38:51Z</time>
      </trkpt>
      <trkpt lat="43.95006" lon="5.23768">
        <ele>460</ele>
        <time>2014-05-28T12:38:59Z</time>
      </trkpt>
      <trkpt lat="43.95009" lon="5.23779">
        <ele>459</ele>
        <time>2014-05-28T12:39:07Z</time>
      </trkpt>
      <trkpt lat="43.95013" lon="5.23789">
        <ele>459</ele>
        <time>2014-05-28T12:39:14Z</time>
      </trkpt>
      <trkpt lat="43.95017" lon="5.23799">
        <ele>460</ele>
        <time>2014-05-28T12:39:22Z</time>
      </trkpt>
      <trkpt lat="43.9502" lon="5.23809">
        <ele>459</ele>
        <time>2014-05-28T12:39:30Z</time>
      </trkpt>
      <trkpt lat="43.95025" lon="5.23819">
        <ele>461</ele>
        <time>2014-05-28T12:39:38Z</time>
      </trkpt>
      <trkpt lat="43.95027" lon="5.23829">
        <ele>460</ele>
        <time>2014-05-28T12:39:45Z</time>
      </trkpt>
      <trkpt lat="43.95029" lon="5.2384">
        <ele>461</ele>
        <time>2014-05-28T12:39:52Z</time>
      </trkpt>
      <trkpt lat="43.95032" lon="5.23851">
        <ele>462</ele>
        <time>2014-05-28T12:40:00Z</time>
      </trkpt>
      <trkpt lat="43.95037" lon="5.23861">
        <ele>462</ele>
        <time>2014-05-28T12:40:09Z</time>
      </trkpt>
      <trkpt lat="43.95041" lon="5.23871">
        <ele>461</ele>
        <time>2014-05-28T12:40:18Z</time>
      </trkpt>
      <trkpt lat="43.95047" lon="5.23879">
        <ele>465</ele>
        <time>2014-05-28T12:40:27Z</time>
      </trkpt>
      <trkpt lat="43.95055" lon="5.23882">
        <ele>468</ele>
        <time>2014-05-28T12:40:36Z</time>
      </trkpt>
      <trkpt lat="43.95063" lon="5.23885">
        <ele>470</ele>
        <time>2014-05-28T12:40:45Z</time>
      </trkpt>
      <trkpt lat="43.95072" lon="5.23888">
        <ele>473</ele>
        <time>2014-05-28T12:40:54Z</time>
      </trkpt>
      <trkpt lat="43.95079" lon="5.23893">
        <ele>473</ele>
        <time>2014-05-28T12:41:02Z</time>
      </trkpt>
      <trkpt lat="43.95088" lon="5.23895">
        <ele>474</ele>
        <time>2014-05-28T12:41:11Z</time>
      </trkpt>
      <trkpt lat="43.95096" lon="5.23899">
        <ele>475</ele>
        <time>2014-05-28T12:41:21Z</time>
      </trkpt>
      <trkpt lat="43.95104" lon="5.23905">
        <ele>474</ele>
        <time>2014-05-28T12:43:11Z</time>
      </trkpt>
      <trkpt lat="43.95108" lon="5.23916">
        <ele>474</ele>
        <time>2014-05-28T12:44:28Z</time>
      </trkpt>
      <trkpt lat="43.95117" lon="5.23919">
        <ele>477</ele>
        <time>2014-05-28T12:44:38Z</time>
      </trkpt>
      <trkpt lat="43.95125" lon="5.23925">
        <ele>480</ele>
        <time>2014-05-28T12:44:49Z</time>
      </trkpt>
      <trkpt lat="43.95132" lon="5.23931">
        <ele>481</ele>
        <time>2014-05-28T12:45:02Z</time>
      </trkpt>
      <trkpt lat="43.9514" lon="5.23938">
        <ele>482</ele>
        <time>2014-05-28T12:45:12Z</time>
      </trkpt>
      <trkpt lat="43.95146" lon="5.23944">
        <ele>484</ele>
        <time>2014-05-28T12:45:21Z</time>
      </trkpt>
      <trkpt lat="43.95153" lon="5.23951">
        <ele>485</ele>
        <time>2014-05-28T12:45:30Z</time>
      </trkpt>
      <trkpt lat="43.9516" lon="5.23958">
        <ele>486</ele>
        <time>2014-05-28T12:45:40Z</time>
      </trkpt>
      <trkpt lat="43.95168" lon="5.23964">
        <ele>488</ele>
        <time>2014-05-28T12:45:50Z</time>
      </trkpt>
      <trkpt lat="43.95174" lon="5.23971">
        <ele>487</ele>
        <time>2014-05-28T12:46:00Z</time>
      </trkpt>
      <trkpt lat="43.95181" lon="5.23978">
        <ele>487</ele>
        <time>2014-05-28T12:46:10Z</time>
      </trkpt>
      <trkpt lat="43.95188" lon="5.23986">
        <ele>487</ele>
        <time>2014-05-28T12:46:20Z</time>
      </trkpt>
      <trkpt lat="43.95194" lon="5.23995">
        <ele>487</ele>
        <time>2014-05-28T12:46:30Z</time>
      </trkpt>
      <trkpt lat="43.95196" lon="5.24007">
        <ele>488</ele>
        <time>2014-05-28T12:46:40Z</time>
      </trkpt>
      <trkpt lat="43.95193" lon="5.24018">
        <ele>489</ele>
        <time>2014-05-28T12:46:51Z</time>
      </trkpt>
      <trkpt lat="43.95184" lon="5.24022">
        <ele>488</ele>
        <time>2014-05-28T12:47:00Z</time>
      </trkpt>
      <trkpt lat="43.95175" lon="5.24021">
        <ele>487</ele>
        <time>2014-05-28T12:47:08Z</time>
      </trkpt>
      <trkpt lat="43.95167" lon="5.2402">
        <ele>487</ele>
        <time>2014-05-28T12:47:16Z</time>
      </trkpt>
      <trkpt lat="43.95159" lon="5.24015">
        <ele>488</ele>
        <time>2014-05-28T12:47:25Z</time>
      </trkpt>
      <trkpt lat="43.95151" lon="5.24016">
        <ele>489</ele>
        <time>2014-05-28T12:47:31Z</time>
      </trkpt>
      <trkpt lat="43.95142" lon="5.24015">
        <ele>489</ele>
        <time>2014-05-28T12:47:38Z</time>
      </trkpt>
      <trkpt lat="43.95134" lon="5.24012">
        <ele>491</ele>
        <time>2014-05-28T12:47:46Z</time>
      </trkpt>
      <trkpt lat="43.95126" lon="5.24013">
        <ele>490</ele>
        <time>2014-05-28T12:47:57Z</time>
      </trkpt>
      <trkpt lat="43.95118" lon="5.24015">
        <ele>490</ele>
        <time>2014-05-28T12:48:05Z</time>
      </trkpt>
      <trkpt lat="43.95114" lon="5.24026">
        <ele>491</ele>
        <time>2014-05-28T12:48:17Z</time>
      </trkpt>
      <trkpt lat="43.95116" lon="5.24038">
        <ele>494</ele>
        <time>2014-05-28T12:48:29Z</time>
      </trkpt>
      <trkpt lat="43.95116" lon="5.2405">
        <ele>494</ele>
        <time>2014-05-28T12:48:38Z</time>
      </trkpt>
      <trkpt lat="43.95119" lon="5.24061">
        <ele>498</ele>
        <time>2014-05-28T12:48:53Z</time>
      </trkpt>
      <trkpt lat="43.95121" lon="5.24073">
        <ele>500</ele>
        <time>2014-05-28T12:49:03Z</time>
      </trkpt>
      <trkpt lat="43.95125" lon="5.24083">
        <ele>499</ele>
        <time>2014-05-28T12:49:12Z</time>
      </trkpt>
      <trkpt lat="43.95126" lon="5.24095">
        <ele>501</ele>
        <time>2014-05-28T12:49:21Z</time>
      </trkpt>
      <trkpt lat="43.95127" lon="5.24106">
        <ele>503</ele>
        <time>2014-05-28T12:49:32Z</time>
      </trkpt>
      <trkpt lat="43.95129" lon="5.24118">
        <ele>503</ele>
        <time>2014-05-28T12:49:41Z</time>
      </trkpt>
      <trkpt lat="43.95131" lon="5.2413">
        <ele>501</ele>
        <time>2014-05-28T12:49:55Z</time>
      </trkpt>
      <trkpt lat="43.9513" lon="5.24141">
        <ele>500</ele>
        <time>2014-05-28T12:50:19Z</time>
      </trkpt>
      <trkpt lat="43.95129" lon="5.24153">
        <ele>500</ele>
        <time>2014-05-28T12:50:26Z</time>
      </trkpt>
      <trkpt lat="43.95129" lon="5.24165">
        <ele>504</ele>
        <time>2014-05-28T12:52:56Z</time>
      </trkpt>
      <trkpt lat="43.95131" lon="5.24177">
        <ele>504</ele>
        <time>2014-05-28T12:53:05Z</time>
      </trkpt>
      <trkpt lat="43.95132" lon="5.24188">
        <ele>502</ele>
        <time>2014-05-28T12:53:12Z</time>
      </trkpt>
      <trkpt lat="43.95129" lon="5.24199">
        <ele>504</ele>
        <time>2014-05-28T12:53:29Z</time>
      </trkpt>
      <trkpt lat="43.95129" lon="5.24211">
        <ele>505</ele>
        <time>2014-05-28T12:54:00Z</time>
      </trkpt>
      <trkpt lat="43.95126" lon="5.24223">
        <ele>502</ele>
        <time>2014-05-28T12:54:10Z</time>
      </trkpt>
      <trkpt lat="43.95126" lon="5.24234">
        <ele>497</ele>
        <time>2014-05-28T12:55:28Z</time>
      </trkpt>
      <trkpt lat="43.95123" lon="5.24245">
        <ele>488</ele>
        <time>2014-05-28T12:55:41Z</time>
      </trkpt>
      <trkpt lat="43.95116" lon="5.24252">
        <ele>483</ele>
        <time>2014-05-28T12:55:53Z</time>
      </trkpt>
      <trkpt lat="43.95115" lon="5.24264">
        <ele>490</ele>
        <time>2014-05-28T12:57:04Z</time>
      </trkpt>
      <trkpt lat="43.95112" lon="5.24275">
        <ele>488</ele>
        <time>2014-05-28T12:57:12Z</time>
      </trkpt>
      <trkpt lat="43.95111" lon="5.24287">
        <ele>488</ele>
        <time>2014-05-28T12:57:20Z</time>
      </trkpt>
      <trkpt lat="43.9511" lon="5.24299">
        <ele>488</ele>
        <time>2014-05-28T12:57:27Z</time>
      </trkpt>
      <trkpt lat="43.95108" lon="5.24311">
        <ele>488</ele>
        <time>2014-05-28T12:57:35Z</time>
      </trkpt>
      <trkpt lat="43.95106" lon="5.24322">
        <ele>487</ele>
        <time>2014-05-28T12:57:43Z</time>
      </trkpt>
      <trkpt lat="43.951" lon="5.24329">
        <ele>485</ele>
        <time>2014-05-28T12:57:49Z</time>
      </trkpt>
      <trkpt lat="43.95093" lon="5.24337">
        <ele>484</ele>
        <time>2014-05-28T12:57:56Z</time>
      </trkpt>
      <trkpt lat="43.95085" lon="5.24339">
        <ele>481</ele>
        <time>2014-05-28T12:58:05Z</time>
      </trkpt>
      <trkpt lat="43.95077" lon="5.24336">
        <ele>482</ele>
        <time>2014-05-28T12:58:14Z</time>
      </trkpt>
      <trkpt lat="43.95071" lon="5.24328">
        <ele>492</ele>
        <time>2014-05-28T12:58:27Z</time>
      </trkpt>
      <trkpt lat="43.95063" lon="5.24323">
        <ele>491</ele>
        <time>2014-05-28T12:58:42Z</time>
      </trkpt>
      <trkpt lat="43.95055" lon="5.24318">
        <ele>493</ele>
        <time>2014-05-28T12:58:52Z</time>
      </trkpt>
      <trkpt lat="43.95047" lon="5.24321">
        <ele>495</ele>
        <time>2014-05-28T12:58:59Z</time>
      </trkpt>
      <trkpt lat="43.95039" lon="5.24319">
        <ele>494</ele>
        <time>2014-05-28T12:59:06Z</time>
      </trkpt>
      <trkpt lat="43.95032" lon="5.24316">
        <ele>495</ele>
        <time>2014-05-28T12:59:13Z</time>
      </trkpt>
      <trkpt lat="43.95024" lon="5.24314">
        <ele>495</ele>
        <time>2014-05-28T12:59:20Z</time>
      </trkpt>
      <trkpt lat="43.95016" lon="5.24308">
        <ele>495</ele>
        <time>2014-05-28T12:59:28Z</time>
      </trkpt>
      <trkpt lat="43.95009" lon="5.24303">
        <ele>494</ele>
        <time>2014-05-28T12:59:35Z</time>
      </trkpt>
      <trkpt lat="43.95002" lon="5.24297">
        <ele>496</ele>
        <time>2014-05-28T12:59:42Z</time>
      </trkpt>
      <trkpt lat="43.94995" lon="5.24292">
        <ele>500</ele>
        <time>2014-05-28T12:59:49Z</time>
      </trkpt>
      <trkpt lat="43.94987" lon="5.24287">
        <ele>499</ele>
        <time>2014-05-28T12:59:56Z</time>
      </trkpt>
      <trkpt lat="43.9498" lon="5.24283">
        <ele>501</ele>
        <time>2014-05-28T13:00:03Z</time>
      </trkpt>
      <trkpt lat="43.94974" lon="5.24276">
        <ele>497</ele>
        <time>2014-05-28T13:00:09Z</time>
      </trkpt>
      <trkpt lat="43.94967" lon="5.24269">
        <ele>497</ele>
        <time>2014-05-28T13:00:16Z</time>
      </trkpt>
      <trkpt lat="43.94962" lon="5.24259">
        <ele>497</ele>
        <time>2014-05-28T13:00:22Z</time>
      </trkpt>
      <trkpt lat="43.94956" lon="5.24251">
        <ele>497</ele>
        <time>2014-05-28T13:00:28Z</time>
      </trkpt>
      <trkpt lat="43.94951" lon="5.24242">
        <ele>498</ele>
        <time>2014-05-28T13:00:34Z</time>
      </trkpt>
      <trkpt lat="43.94945" lon="5.24233">
        <ele>498</ele>
        <time>2014-05-28T13:00:41Z</time>
      </trkpt>
      <trkpt lat="43.9494" lon="5.24243">
        <ele>501</ele>
        <time>2014-05-28T13:01:17Z</time>
      </trkpt>
      <trkpt lat="43.94932" lon="5.24248">
        <ele>500</ele>
        <time>2014-05-28T13:01:41Z</time>
      </trkpt>
      <trkpt lat="43.94923" lon="5.24248">
        <ele>500</ele>
        <time>2014-05-28T13:02:07Z</time>
      </trkpt>
      <trkpt lat="43.94915" lon="5.24253">
        <ele>498</ele>
        <time>2014-05-28T13:02:14Z</time>
      </trkpt>
      <trkpt lat="43.94908" lon="5.24257">
        <ele>495</ele>
        <time>2014-05-28T13:02:21Z</time>
      </trkpt>
      <trkpt lat="43.94901" lon="5.24265">
        <ele>491</ele>
        <time>2014-05-28T13:02:28Z</time>
      </trkpt>
      <trkpt lat="43.94896" lon="5.24275">
        <ele>490</ele>
        <time>2014-05-28T13:02:38Z</time>
      </trkpt>
      <trkpt lat="43.9489" lon="5.24283">
        <ele>492</ele>
        <time>2014-05-28T13:02:46Z</time>
      </trkpt>
      <trkpt lat="43.94882" lon="5.24289">
        <ele>494</ele>
        <time>2014-05-28T13:02:57Z</time>
      </trkpt>
      <trkpt lat="43.94876" lon="5.24296">
        <ele>496</ele>
        <time>2014-05-28T13:03:05Z</time>
      </trkpt>
      <trkpt lat="43.9487" lon="5.24304">
        <ele>497</ele>
        <time>2014-05-28T13:03:14Z</time>
      </trkpt>
      <trkpt lat="43.94864" lon="5.24313">
        <ele>497</ele>
        <time>2014-05-28T13:03:24Z</time>
      </trkpt>
      <trkpt lat="43.94858" lon="5.24322">
        <ele>498</ele>
        <time>2014-05-28T13:03:34Z</time>
      </trkpt>
      <trkpt lat="43.94851" lon="5.24329">
        <ele>498</ele>
        <time>2014-05-28T13:03:42Z</time>
      </trkpt>
      <trkpt lat="43.94844" lon="5.24333">
        <ele>499</ele>
        <time>2014-05-28T13:03:51Z</time>
      </trkpt>
      <trkpt lat="43.94837" lon="5.24341">
        <ele>499</ele>
        <time>2014-05-28T13:04:00Z</time>
      </trkpt>
      <trkpt lat="43.94831" lon="5.2435">
        <ele>499</ele>
        <time>2014-05-28T13:04:23Z</time>
      </trkpt>
      <trkpt lat="43.94824" lon="5.24356">
        <ele>498</ele>
        <time>2014-05-28T13:04:54Z</time>
      </trkpt>
      <trkpt lat="43.94817" lon="5.24363">
        <ele>497</ele>
        <time>2014-05-28T13:05:03Z</time>
      </trkpt>
      <trkpt lat="43.94814" lon="5.24374">
        <ele>496</ele>
        <time>2014-05-28T13:05:14Z</time>
      </trkpt>
      <trkpt lat="43.94815" lon="5.24386">
        <ele>491</ele>
        <time>2014-05-28T13:05:27Z</time>
      </trkpt>
      <trkpt lat="43.94817" lon="5.24397">
        <ele>489</ele>
        <time>2014-05-28T13:05:37Z</time>
      </trkpt>
      <trkpt lat="43.94819" lon="5.24409">
        <ele>485</ele>
        <time>2014-05-28T13:05:49Z</time>
      </trkpt>
      <trkpt lat="43.94817" lon="5.24422">
        <ele>488</ele>
        <time>2014-05-28T13:05:59Z</time>
      </trkpt>
      <trkpt lat="43.9481" lon="5.24427">
        <ele>487</ele>
        <time>2014-05-28T13:06:23Z</time>
      </trkpt>
      <trkpt lat="43.94802" lon="5.24423">
        <ele>487</ele>
        <time>2014-05-28T13:06:34Z</time>
      </trkpt>
      <trkpt lat="43.94794" lon="5.24419">
        <ele>485</ele>
        <time>2014-05-28T13:06:44Z</time>
      </trkpt>
      <trkpt lat="43.94785" lon="5.24416">
        <ele>481</ele>
        <time>2014-05-28T13:07:01Z</time>
      </trkpt>
      <trkpt lat="43.94777" lon="5.24414">
        <ele>481</ele>
        <time>2014-05-28T13:07:10Z</time>
      </trkpt>
      <trkpt lat="43.94769" lon="5.24412">
        <ele>480</ele>
        <time>2014-05-28T13:07:30Z</time>
      </trkpt>
      <trkpt lat="43.94761" lon="5.2441">
        <ele>479</ele>
        <time>2014-05-28T13:07:38Z</time>
      </trkpt>
      <trkpt lat="43.94752" lon="5.24411">
        <ele>477</ele>
        <time>2014-05-28T13:07:49Z</time>
      </trkpt>
      <trkpt lat="43.94743" lon="5.24412">
        <ele>476</ele>
        <time>2014-05-28T13:07:57Z</time>
      </trkpt>
      <trkpt lat="43.94736" lon="5.24418">
        <ele>475</ele>
        <time>2014-05-28T13:08:06Z</time>
      </trkpt>
      <trkpt lat="43.94731" lon="5.24427">
        <ele>473</ele>
        <time>2014-05-28T13:08:17Z</time>
      </trkpt>
      <trkpt lat="43.94724" lon="5.24435">
        <ele>472</ele>
        <time>2014-05-28T13:08:27Z</time>
      </trkpt>
      <trkpt lat="43.94716" lon="5.2444">
        <ele>471</ele>
        <time>2014-05-28T13:08:39Z</time>
      </trkpt>
      <trkpt lat="43.94708" lon="5.24442">
        <ele>470</ele>
        <time>2014-05-28T13:08:47Z</time>
      </trkpt>
      <trkpt lat="43.94699" lon="5.24445">
        <ele>467</ele>
        <time>2014-05-28T13:08:57Z</time>
      </trkpt>
      <trkpt lat="43.94691" lon="5.2445">
        <ele>467</ele>
        <time>2014-05-28T13:09:06Z</time>
      </trkpt>
      <trkpt lat="43.94683" lon="5.24452">
        <ele>466</ele>
        <time>2014-05-28T13:09:15Z</time>
      </trkpt>
      <trkpt lat="43.94675" lon="5.24453">
        <ele>465</ele>
        <time>2014-05-28T13:09:24Z</time>
      </trkpt>
      <trkpt lat="43.94666" lon="5.24453">
        <ele>465</ele>
        <time>2014-05-28T13:09:34Z</time>
      </trkpt>
      <trkpt lat="43.94659" lon="5.24459">
        <ele>460</ele>
        <time>2014-05-28T13:10:31Z</time>
      </trkpt>
      <trkpt lat="43.94652" lon="5.24451">
        <ele>458</ele>
        <time>2014-05-28T13:10:40Z</time>
      </trkpt>
      <trkpt lat="43.94643" lon="5.24448">
        <ele>457</ele>
        <time>2014-05-28T13:10:50Z</time>
      </trkpt>
      <trkpt lat="43.94635" lon="5.2445">
        <ele>457</ele>
        <time>2014-05-28T13:11:00Z</time>
      </trkpt>
      <trkpt lat="43.94627" lon="5.24454">
        <ele>456</ele>
        <time>2014-05-28T13:11:08Z</time>
      </trkpt>
      <trkpt lat="43.94619" lon="5.24458">
        <ele>455</ele>
        <time>2014-05-28T13:11:17Z</time>
      </trkpt>
      <trkpt lat="43.94611" lon="5.24462">
        <ele>456</ele>
        <time>2014-05-28T13:11:27Z</time>
      </trkpt>
      <trkpt lat="43.94603" lon="5.24465">
        <ele>455</ele>
        <time>2014-05-28T13:11:38Z</time>
      </trkpt>
      <trkpt lat="43.94595" lon="5.24467">
        <ele>454</ele>
        <time>2014-05-28T13:11:46Z</time>
      </trkpt>
      <trkpt lat="43.94587" lon="5.2447">
        <ele>454</ele>
        <time>2014-05-28T13:11:56Z</time>
      </trkpt>
      <trkpt lat="43.94579" lon="5.24476">
        <ele>454</ele>
        <time>2014-05-28T13:12:04Z</time>
      </trkpt>
      <trkpt lat="43.94571" lon="5.24477">
        <ele>451</ele>
        <time>2014-05-28T13:12:18Z</time>
      </trkpt>
      <trkpt lat="43.94563" lon="5.24479">
        <ele>450</ele>
        <time>2014-05-28T13:12:27Z</time>
      </trkpt>
      <trkpt lat="43.94556" lon="5.24484">
        <ele>450</ele>
        <time>2014-05-28T13:12:36Z</time>
      </trkpt>
      <trkpt lat="43.94549" lon="5.24492">
        <ele>450</ele>
        <time>2014-05-28T13:12:44Z</time>
      </trkpt>
      <trkpt lat="43.9454" lon="5.24494">
        <ele>446</ele>
        <time>2014-05-28T13:13:57Z</time>
      </trkpt>
      <trkpt lat="43.94535" lon="5.24504">
        <ele>444</ele>
        <time>2014-05-28T13:14:08Z</time>
      </trkpt>
      <trkpt lat="43.94533" lon="5.24516">
        <ele>443</ele>
        <time>2014-05-28T13:14:17Z</time>
      </trkpt>
      <trkpt lat="43.9453" lon="5.24527">
        <ele>442</ele>
        <time>2014-05-28T13:14:27Z</time>
      </trkpt>
      <trkpt lat="43.94525" lon="5.24537">
        <ele>440</ele>
        <time>2014-05-28T13:14:37Z</time>
      </trkpt>
      <trkpt lat="43.94522" lon="5.24547">
        <ele>439</ele>
        <time>2014-05-28T13:14:46Z</time>
      </trkpt>
      <trkpt lat="43.9452" lon="5.24559">
        <ele>436</ele>
        <time>2014-05-28T13:14:56Z</time>
      </trkpt>
      <trkpt lat="43.94516" lon="5.2457">
        <ele>436</ele>
        <time>2014-05-28T13:15:07Z</time>
      </trkpt>
      <trkpt lat="43.94511" lon="5.24579">
        <ele>434</ele>
        <time>2014-05-28T13:15:15Z</time>
      </trkpt>
      <trkpt lat="43.94506" lon="5.24589">
        <ele>433</ele>
        <time>2014-05-28T13:15:25Z</time>
      </trkpt>
      <trkpt lat="43.945" lon="5.24597">
        <ele>433</ele>
        <time>2014-05-28T13:15:34Z</time>
      </trkpt>
      <trkpt lat="43.94494" lon="5.24606">
        <ele>436</ele>
        <time>2014-05-28T13:15:42Z</time>
      </trkpt>
      <trkpt lat="43.94489" lon="5.24615">
        <ele>434</ele>
        <time>2014-05-28T13:15:52Z</time>
      </trkpt>
      <trkpt lat="43.94484" lon="5.24624">
        <ele>433</ele>
        <time>2014-05-28T13:16:02Z</time>
      </trkpt>
      <trkpt lat="43.94479" lon="5.24634">
        <ele>433</ele>
        <time>2014-05-28T13:16:08Z</time>
      </trkpt>
      <trkpt lat="43.94472" lon="5.2464">
        <ele>432</ele>
        <time>2014-05-28T13:16:16Z</time>
      </trkpt>
      <trkpt lat="43.94465" lon="5.24645">
        <ele>432</ele>
        <time>2014-05-28T13:16:22Z</time>
      </trkpt>
      <trkpt lat="43.94458" lon="5.24648">
        <ele>430</ele>
        <time>2014-05-28T13:16:28Z</time>
      </trkpt>
      <trkpt lat="43.9445" lon="5.24655">
        <ele>433</ele>
        <time>2014-05-28T13:16:35Z</time>
      </trkpt>
      <trkpt lat="43.94442" lon="5.24661">
        <ele>432</ele>
        <time>2014-05-28T13:16:43Z</time>
      </trkpt>
      <trkpt lat="43.94434" lon="5.24666">
        <ele>430</ele>
        <time>2014-05-28T13:16:55Z</time>
      </trkpt>
      <trkpt lat="43.94427" lon="5.24672">
        <ele>428</ele>
        <time>2014-05-28T13:17:05Z</time>
      </trkpt>
      <trkpt lat="43.94419" lon="5.24674">
        <ele>427</ele>
        <time>2014-05-28T13:17:14Z</time>
      </trkpt>
      <trkpt lat="43.94411" lon="5.24677">
        <ele>425</ele>
        <time>2014-05-28T13:17:25Z</time>
      </trkpt>
      <trkpt lat="43.94402" lon="5.24678">
        <ele>423</ele>
        <time>2014-05-28T13:17:32Z</time>
      </trkpt>
      <trkpt lat="43.94394" lon="5.24678">
        <ele>419</ele>
        <time>2014-05-28T13:17:56Z</time>
      </trkpt>
      <trkpt lat="43.94386" lon="5.24679">
        <ele>418</ele>
        <time>2014-05-28T13:18:04Z</time>
      </trkpt>
      <trkpt lat="43.94378" lon="5.24686">
        <ele>421</ele>
        <time>2014-05-28T13:18:14Z</time>
      </trkpt>
      <trkpt lat="43.94372" lon="5.24695">
        <ele>422</ele>
        <time>2014-05-28T13:18:26Z</time>
      </trkpt>
      <trkpt lat="43.94365" lon="5.2469">
        <ele>421</ele>
        <time>2014-05-28T13:18:38Z</time>
      </trkpt>
      <trkpt lat="43.94357" lon="5.24688">
        <ele>419</ele>
        <time>2014-05-28T13:20:40Z</time>
      </trkpt>
      <trkpt lat="43.94348" lon="5.24687">
        <ele>419</ele>
        <time>2014-05-28T13:20:49Z</time>
      </trkpt>
      <trkpt lat="43.9434" lon="5.24685">
        <ele>419</ele>
        <time>2014-05-28T13:21:01Z</time>
      </trkpt>
      <trkpt lat="43.94332" lon="5.24682">
        <ele>418</ele>
        <time>2014-05-28T13:21:08Z</time>
      </trkpt>
      <trkpt lat="43.94323" lon="5.2468">
        <ele>417</ele>
        <time>2014-05-28T13:21:24Z</time>
      </trkpt>
      <trkpt lat="43.94315" lon="5.24677">
        <ele>414</ele>
        <time>2014-05-28T13:21:34Z</time>
      </trkpt>
      <trkpt lat="43.94307" lon="5.24673">
        <ele>410</ele>
        <time>2014-05-28T13:21:44Z</time>
      </trkpt>
      <trkpt lat="43.94298" lon="5.24671">
        <ele>406</ele>
        <time>2014-05-28T13:21:57Z</time>
      </trkpt>
      <trkpt lat="43.9429" lon="5.24668">
        <ele>407</ele>
        <time>2014-05-28T13:22:05Z</time>
      </trkpt>
      <trkpt lat="43.94281" lon="5.24666">
        <ele>406</ele>
        <time>2014-05-28T13:22:19Z</time>
      </trkpt>
      <trkpt lat="43.94273" lon="5.24666">
        <ele>406</ele>
        <time>2014-05-28T13:22:35Z</time>
      </trkpt>
      <trkpt lat="43.94264" lon="5.24668">
        <ele>406</ele>
        <time>2014-05-28T13:22:43Z</time>
      </trkpt>
      <trkpt lat="43.94256" lon="5.24669">
        <ele>404</ele>
        <time>2014-05-28T13:22:51Z</time>
      </trkpt>
      <trkpt lat="43.94248" lon="5.24669">
        <ele>405</ele>
        <time>2014-05-28T13:22:58Z</time>
      </trkpt>
      <trkpt lat="43.94239" lon="5.2467">
        <ele>403</ele>
        <time>2014-05-28T13:23:08Z</time>
      </trkpt>
      <trkpt lat="43.94231" lon="5.24669">
        <ele>399</ele>
        <time>2014-05-28T13:23:20Z</time>
      </trkpt>
      <trkpt lat="43.94222" lon="5.2467">
        <ele>398</ele>
        <time>2014-05-28T13:23:33Z</time>
      </trkpt>
      <trkpt lat="43.94214" lon="5.2467">
        <ele>395</ele>
        <time>2014-05-28T13:23:45Z</time>
      </trkpt>
      <trkpt lat="43.94205" lon="5.24667">
        <ele>393</ele>
        <time>2014-05-28T13:23:56Z</time>
      </trkpt>
      <trkpt lat="43.94197" lon="5.24663">
        <ele>392</ele>
        <time>2014-05-28T13:24:08Z</time>
      </trkpt>
      <trkpt lat="43.94188" lon="5.24663">
        <ele>393</ele>
        <time>2014-05-28T13:24:22Z</time>
      </trkpt>
      <trkpt lat="43.9418" lon="5.24661">
        <ele>392</ele>
        <time>2014-05-28T13:24:32Z</time>
      </trkpt>
      <trkpt lat="43.94172" lon="5.24658">
        <ele>391</ele>
        <time>2014-05-28T13:24:43Z</time>
      </trkpt>
      <trkpt lat="43.94164" lon="5.24655">
        <ele>392</ele>
        <time>2014-05-28T13:24:54Z</time>
      </trkpt>
      <trkpt lat="43.94156" lon="5.2465">
        <ele>391</ele>
        <time>2014-05-28T13:25:07Z</time>
      </trkpt>
      <trkpt lat="43.94148" lon="5.24646">
        <ele>391</ele>
        <time>2014-05-28T13:25:16Z</time>
      </trkpt>
      <trkpt lat="43.9414" lon="5.24647">
        <ele>391</ele>
        <time>2014-05-28T13:25:26Z</time>
      </trkpt>
      <trkpt lat="43.94131" lon="5.24648">
        <ele>389</ele>
        <time>2014-05-28T13:25:36Z</time>
      </trkpt>
      <trkpt lat="43.94122" lon="5.24646">
        <ele>387</ele>
        <time>2014-05-28T13:25:46Z</time>
      </trkpt>
      <trkpt lat="43.94114" lon="5.24641">
        <ele>383</ele>
        <time>2014-05-28T13:25:58Z</time>
      </trkpt>
      <trkpt lat="43.94109" lon="5.24632">
        <ele>380</ele>
        <time>2014-05-28T13:26:07Z</time>
      </trkpt>
      <trkpt lat="43.94107" lon="5.24621">
        <ele>378</ele>
        <time>2014-05-28T13:26:18Z</time>
      </trkpt>
      <trkpt lat="43.94098" lon="5.2462">
        <ele>379</ele>
        <time>2014-05-28T13:26:29Z</time>
      </trkpt>
      <trkpt lat="43.9409" lon="5.24625">
        <ele>376</ele>
        <time>2014-05-28T13:26:46Z</time>
      </trkpt>
      <trkpt lat="43.94082" lon="5.24628">
        <ele>373</ele>
        <time>2014-05-28T13:26:57Z</time>
      </trkpt>
      <trkpt lat="43.94074" lon="5.24632">
        <ele>372</ele>
        <time>2014-05-28T13:27:08Z</time>
      </trkpt>
      <trkpt lat="43.94067" lon="5.24638">
        <ele>370</ele>
        <time>2014-05-28T13:27:19Z</time>
      </trkpt>
      <trkpt lat="43.94059" lon="5.24642">
        <ele>367</ele>
        <time>2014-05-28T13:27:33Z</time>
      </trkpt>
      <trkpt lat="43.94051" lon="5.24646">
        <ele>366</ele>
        <time>2014-05-28T13:27:44Z</time>
      </trkpt>
      <trkpt lat="43.94043" lon="5.2465">
        <ele>365</ele>
        <time>2014-05-28T13:27:54Z</time>
      </trkpt>
      <trkpt lat="43.94036" lon="5.24656">
        <ele>364</ele>
        <time>2014-05-28T13:28:06Z</time>
      </trkpt>
      <trkpt lat="43.94028" lon="5.24661">
        <ele>364</ele>
        <time>2014-05-28T13:28:17Z</time>
      </trkpt>
      <trkpt lat="43.9402" lon="5.24661">
        <ele>361</ele>
        <time>2014-05-28T13:28:28Z</time>
      </trkpt>
      <trkpt lat="43.94011" lon="5.2466">
        <ele>360</ele>
        <time>2014-05-28T13:28:38Z</time>
      </trkpt>
      <trkpt lat="43.94002" lon="5.24661">
        <ele>361</ele>
        <time>2014-05-28T13:28:47Z</time>
      </trkpt>
      <trkpt lat="43.93994" lon="5.24658">
        <ele>359</ele>
        <time>2014-05-28T13:28:59Z</time>
      </trkpt>
      <trkpt lat="43.93985" lon="5.24657">
        <ele>359</ele>
        <time>2014-05-28T13:29:11Z</time>
      </trkpt>
      <trkpt lat="43.93977" lon="5.24656">
        <ele>358</ele>
        <time>2014-05-28T13:29:24Z</time>
      </trkpt>
      <trkpt lat="43.93968" lon="5.24657">
        <ele>358</ele>
        <time>2014-05-28T13:29:35Z</time>
      </trkpt>
      <trkpt lat="43.93959" lon="5.24661">
        <ele>356</ele>
        <time>2014-05-28T13:29:51Z</time>
      </trkpt>
      <trkpt lat="43.93951" lon="5.24658">
        <ele>357</ele>
        <time>2014-05-28T13:30:05Z</time>
      </trkpt>
      <trkpt lat="43.93942" lon="5.24658">
        <ele>356</ele>
        <time>2014-05-28T13:30:15Z</time>
      </trkpt>
      <trkpt lat="43.93934" lon="5.24658">
        <ele>355</ele>
        <time>2014-05-28T13:30:31Z</time>
      </trkpt>
      <trkpt lat="43.93926" lon="5.24662">
        <ele>358</ele>
        <time>2014-05-28T13:30:41Z</time>
      </trkpt>
      <trkpt lat="43.93918" lon="5.24668">
        <ele>357</ele>
        <time>2014-05-28T13:30:52Z</time>
      </trkpt>
      <trkpt lat="43.93909" lon="5.2467">
        <ele>357</ele>
        <time>2014-05-28T13:31:03Z</time>
      </trkpt>
      <trkpt lat="43.93901" lon="5.24674">
        <ele>355</ele>
        <time>2014-05-28T13:31:12Z</time>
      </trkpt>
      <trkpt lat="43.93893" lon="5.24677">
        <ele>353</ele>
        <time>2014-05-28T13:31:20Z</time>
      </trkpt>
      <trkpt lat="43.93885" lon="5.2468">
        <ele>353</ele>
        <time>2014-05-28T13:31:30Z</time>
      </trkpt>
      <trkpt lat="43.93877" lon="5.24683">
        <ele>350</ele>
        <time>2014-05-28T13:31:40Z</time>
      </trkpt>
      <trkpt lat="43.93868" lon="5.24681">
        <ele>350</ele>
        <time>2014-05-28T13:31:50Z</time>
      </trkpt>
      <trkpt lat="43.9386" lon="5.24679">
        <ele>347</ele>
        <time>2014-05-28T13:31:59Z</time>
      </trkpt>
      <trkpt lat="43.93851" lon="5.24683">
        <ele>348</ele>
        <time>2014-05-28T13:32:11Z</time>
      </trkpt>
      <trkpt lat="43.93843" lon="5.24688">
        <ele>345</ele>
        <time>2014-05-28T13:32:23Z</time>
      </trkpt>
      <trkpt lat="43.93835" lon="5.24692">
        <ele>344</ele>
        <time>2014-05-28T13:32:33Z</time>
      </trkpt>
      <trkpt lat="43.93828" lon="5.24693">
        <ele>342</ele>
        <time>2014-05-28T13:32:43Z</time>
      </trkpt>
      <trkpt lat="43.93819" lon="5.24695">
        <ele>344</ele>
        <time>2014-05-28T13:32:51Z</time>
      </trkpt>
      <trkpt lat="43.9381" lon="5.24695">
        <ele>342</ele>
        <time>2014-05-28T13:33:00Z</time>
      </trkpt>
      <trkpt lat="43.93802" lon="5.24698">
        <ele>341</ele>
        <time>2014-05-28T13:33:10Z</time>
      </trkpt>
      <trkpt lat="43.93794" lon="5.24702">
        <ele>339</ele>
        <time>2014-05-28T13:33:19Z</time>
      </trkpt>
      <trkpt lat="43.93786" lon="5.24707">
        <ele>335</ele>
        <time>2014-05-28T13:33:29Z</time>
      </trkpt>
      <trkpt lat="43.93778" lon="5.24713">
        <ele>334</ele>
        <time>2014-05-28T13:33:39Z</time>
      </trkpt>
      <trkpt lat="43.93772" lon="5.24721">
        <ele>333</ele>
        <time>2014-05-28T13:33:51Z</time>
      </trkpt>
      <trkpt lat="43.93767" lon="5.24731">
        <ele>330</ele>
        <time>2014-05-28T13:34:05Z</time>
      </trkpt>
      <trkpt lat="43.9376" lon="5.24738">
        <ele>328</ele>
        <time>2014-05-28T13:34:13Z</time>
      </trkpt>
      <trkpt lat="43.93752" lon="5.24743">
        <ele>328</ele>
        <time>2014-05-28T13:34:22Z</time>
      </trkpt>
      <trkpt lat="43.93746" lon="5.24752">
        <ele>328</ele>
        <time>2014-05-28T13:34:37Z</time>
      </trkpt>
      <trkpt lat="43.93739" lon="5.24758">
        <ele>327</ele>
        <time>2014-05-28T13:34:45Z</time>
      </trkpt>
      <trkpt lat="43.93732" lon="5.24764">
        <ele>327</ele>
        <time>2014-05-28T13:34:53Z</time>
      </trkpt>
      <trkpt lat="43.93725" lon="5.24772">
        <ele>328</ele>
        <time>2014-05-28T13:35:02Z</time>
      </trkpt>
      <trkpt lat="43.93717" lon="5.24778">
        <ele>327</ele>
        <time>2014-05-28T13:35:10Z</time>
      </trkpt>
      <trkpt lat="43.9371" lon="5.24784">
        <ele>326</ele>
        <time>2014-05-28T13:35:19Z</time>
      </trkpt>
      <trkpt lat="43.93703" lon="5.24788">
        <ele>325</ele>
        <time>2014-05-28T13:35:31Z</time>
      </trkpt>
      <trkpt lat="43.93695" lon="5.24793">
        <ele>324</ele>
        <time>2014-05-28T13:35:38Z</time>
      </trkpt>
      <trkpt lat="43.93687" lon="5.24796">
        <ele>323</ele>
        <time>2014-05-28T13:35:45Z</time>
      </trkpt>
      <trkpt lat="43.9368" lon="5.24803">
        <ele>320</ele>
        <time>2014-05-28T13:35:54Z</time>
      </trkpt>
      <trkpt lat="43.93672" lon="5.24809">
        <ele>320</ele>
        <time>2014-05-28T13:36:03Z</time>
      </trkpt>
      <trkpt lat="43.93664" lon="5.24812">
        <ele>319</ele>
        <time>2014-05-28T13:36:13Z</time>
      </trkpt>
      <trkpt lat="43.93657" lon="5.2482">
        <ele>320</ele>
        <time>2014-05-28T13:36:22Z</time>
      </trkpt>
      <trkpt lat="43.93649" lon="5.24823">
        <ele>318</ele>
        <time>2014-05-28T13:36:32Z</time>
      </trkpt>
      <trkpt lat="43.9364" lon="5.24824">
        <ele>318</ele>
        <time>2014-05-28T13:36:40Z</time>
      </trkpt>
      <trkpt lat="43.93632" lon="5.24828">
        <ele>315</ele>
        <time>2014-05-28T13:36:48Z</time>
      </trkpt>
      <trkpt lat="43.93624" lon="5.24833">
        <ele>313</ele>
        <time>2014-05-28T13:36:57Z</time>
      </trkpt>
      <trkpt lat="43.93616" lon="5.24836">
        <ele>315</ele>
        <time>2014-05-28T13:37:06Z</time>
      </trkpt>
      <trkpt lat="43.93608" lon="5.24839">
        <ele>315</ele>
        <time>2014-05-28T13:37:15Z</time>
      </trkpt>
      <trkpt lat="43.936" lon="5.24837">
        <ele>312</ele>
        <time>2014-05-28T13:37:24Z</time>
      </trkpt>
      <trkpt lat="43.93592" lon="5.24842">
        <ele>312</ele>
        <time>2014-05-28T13:37:33Z</time>
      </trkpt>
      <trkpt lat="43.93586" lon="5.24851">
        <ele>310</ele>
        <time>2014-05-28T13:37:40Z</time>
      </trkpt>
      <trkpt lat="43.93579" lon="5.24858">
        <ele>309</ele>
        <time>2014-05-28T13:37:49Z</time>
      </trkpt>
      <trkpt lat="43.93571" lon="5.24864">
        <ele>304</ele>
        <time>2014-05-28T13:37:59Z</time>
      </trkpt>
      <trkpt lat="43.93564" lon="5.24869">
        <ele>304</ele>
        <time>2014-05-28T13:41:18Z</time>
      </trkpt>
      <trkpt lat="43.93556" lon="5.24868">
        <ele>306</ele>
        <time>2014-05-28T13:41:24Z</time>
      </trkpt>
      <trkpt lat="43.93548" lon="5.24871">
        <ele>311</ele>
        <time>2014-05-28T13:41:32Z</time>
      </trkpt>
      <trkpt lat="43.93539" lon="5.24871">
        <ele>311</ele>
        <time>2014-05-28T13:41:39Z</time>
      </trkpt>
      <trkpt lat="43.93531" lon="5.24874">
        <ele>310</ele>
        <time>2014-05-28T13:41:48Z</time>
      </trkpt>
      <trkpt lat="43.93523" lon="5.24874">
        <ele>310</ele>
        <time>2014-05-28T13:41:57Z</time>
      </trkpt>
      <trkpt lat="43.93516" lon="5.24881">
        <ele>312</ele>
        <time>2014-05-28T13:42:06Z</time>
      </trkpt>
      <trkpt lat="43.93508" lon="5.24887">
        <ele>313</ele>
        <time>2014-05-28T13:42:15Z</time>
      </trkpt>
      <trkpt lat="43.935" lon="5.24891">
        <ele>316</ele>
        <time>2014-05-28T13:42:23Z</time>
      </trkpt>
      <trkpt lat="43.93492" lon="5.24896">
        <ele>316</ele>
        <time>2014-05-28T13:42:39Z</time>
      </trkpt>
      <trkpt lat="43.93484" lon="5.24902">
        <ele>317</ele>
        <time>2014-05-28T13:42:54Z</time>
      </trkpt>
      <trkpt lat="43.93476" lon="5.24905">
        <ele>317</ele>
        <time>2014-05-28T13:43:04Z</time>
      </trkpt>
      <trkpt lat="43.93467" lon="5.24908">
        <ele>318</ele>
        <time>2014-05-28T13:43:22Z</time>
      </trkpt>
      <trkpt lat="43.93459" lon="5.24911">
        <ele>320</ele>
        <time>2014-05-28T13:43:31Z</time>
      </trkpt>
      <trkpt lat="43.93451" lon="5.24914">
        <ele>320</ele>
        <time>2014-05-28T13:43:39Z</time>
      </trkpt>
      <trkpt lat="43.93443" lon="5.24918">
        <ele>323</ele>
        <time>2014-05-28T13:43:46Z</time>
      </trkpt>
      <trkpt lat="43.93435" lon="5.2492">
        <ele>326</ele>
        <time>2014-05-28T13:43:52Z</time>
      </trkpt>
      <trkpt lat="43.93427" lon="5.24924">
        <ele>327</ele>
        <time>2014-05-28T13:43:58Z</time>
      </trkpt>
      <trkpt lat="43.93418" lon="5.24925">
        <ele>325</ele>
        <time>2014-05-28T13:44:05Z</time>
      </trkpt>
      <trkpt lat="43.9341" lon="5.24926">
        <ele>325</ele>
        <time>2014-05-28T13:44:14Z</time>
      </trkpt>
      <trkpt lat="43.93401" lon="5.24925">
        <ele>326</ele>
        <time>2014-05-28T13:44:25Z</time>
      </trkpt>
      <trkpt lat="43.93393" lon="5.24923">
        <ele>325</ele>
        <time>2014-05-28T13:44:37Z</time>
      </trkpt>
      <trkpt lat="43.93384" lon="5.24923">
        <ele>325</ele>
        <time>2014-05-28T13:44:48Z</time>
      </trkpt>
      <trkpt lat="43.93376" lon="5.24923">
        <ele>327</ele>
        <time>2014-05-28T13:44:58Z</time>
      </trkpt>
      <trkpt lat="43.93368" lon="5.24919">
        <ele>324</ele>
        <time>2014-05-28T13:45:12Z</time>
      </trkpt>
      <trkpt lat="43.9336" lon="5.24917">
        <ele>322</ele>
        <time>2014-05-28T13:45:29Z</time>
      </trkpt>
      <trkpt lat="43.93351" lon="5.24919">
        <ele>321</ele>
        <time>2014-05-28T13:45:41Z</time>
      </trkpt>
      <trkpt lat="43.93343" lon="5.24919">
        <ele>322</ele>
        <time>2014-05-28T13:45:50Z</time>
      </trkpt>
      <trkpt lat="43.93334" lon="5.24919">
        <ele>319</ele>
        <time>2014-05-28T13:46:01Z</time>
      </trkpt>
      <trkpt lat="43.93326" lon="5.24917">
        <ele>317</ele>
        <time>2014-05-28T13:46:10Z</time>
      </trkpt>
      <trkpt lat="43.93318" lon="5.24916">
        <ele>315</ele>
        <time>2014-05-28T13:46:19Z</time>
      </trkpt>
      <trkpt lat="43.93309" lon="5.24917">
        <ele>311</ele>
        <time>2014-05-28T13:46:43Z</time>
      </trkpt>
      <trkpt lat="43.93301" lon="5.24921">
        <ele>307</ele>
        <time>2014-05-28T13:47:01Z</time>
      </trkpt>
      <trkpt lat="43.93294" lon="5.24928">
        <ele>303</ele>
        <time>2014-05-28T13:47:12Z</time>
      </trkpt>
      <trkpt lat="43.93286" lon="5.24933">
        <ele>301</ele>
        <time>2014-05-28T13:47:21Z</time>
      </trkpt>
      <trkpt lat="43.93279" lon="5.24939">
        <ele>301</ele>
        <time>2014-05-28T13:47:30Z</time>
      </trkpt>
      <trkpt lat="43.93271" lon="5.24944">
        <ele>299</ele>
        <time>2014-05-28T13:47:40Z</time>
      </trkpt>
      <trkpt lat="43.93264" lon="5.24949">
        <ele>300</ele>
        <time>2014-05-28T13:47:50Z</time>
      </trkpt>
      <trkpt lat="43.93255" lon="5.24953">
        <ele>300</ele>
        <time>2014-05-28T13:48:00Z</time>
      </trkpt>
      <trkpt lat="43.93247" lon="5.24955">
        <ele>298</ele>
        <time>2014-05-28T13:48:10Z</time>
      </trkpt>
      <trkpt lat="43.93238" lon="5.24954">
        <ele>298</ele>
        <time>2014-05-28T13:48:20Z</time>
      </trkpt>
      <trkpt lat="43.9323" lon="5.24954">
        <ele>297</ele>
        <time>2014-05-28T13:48:29Z</time>
      </trkpt>
      <trkpt lat="43.93222" lon="5.24952">
        <ele>295</ele>
        <time>2014-05-28T13:48:37Z</time>
      </trkpt>
      <trkpt lat="43.93213" lon="5.24951">
        <ele>295</ele>
        <time>2014-05-28T13:48:46Z</time>
      </trkpt>
      <trkpt lat="43.93205" lon="5.24951">
        <ele>295</ele>
        <time>2014-05-28T13:48:54Z</time>
      </trkpt>
      <trkpt lat="43.93196" lon="5.24954">
        <ele>292</ele>
        <time>2014-05-28T13:49:07Z</time>
      </trkpt>
      <trkpt lat="43.93187" lon="5.24955">
        <ele>292</ele>
        <time>2014-05-28T13:49:18Z</time>
      </trkpt>
      <trkpt lat="43.93179" lon="5.24954">
        <ele>291</ele>
        <time>2014-05-28T13:49:26Z</time>
      </trkpt>
      <trkpt lat="43.93171" lon="5.24953">
        <ele>291</ele>
        <time>2014-05-28T13:49:34Z</time>
      </trkpt>
      <trkpt lat="43.93162" lon="5.24949">
        <ele>289</ele>
        <time>2014-05-28T13:49:41Z</time>
      </trkpt>
      <trkpt lat="43.93156" lon="5.24943">
        <ele>288</ele>
        <time>2014-05-28T13:49:48Z</time>
      </trkpt>
      <trkpt lat="43.93148" lon="5.24937">
        <ele>288</ele>
        <time>2014-05-28T13:49:57Z</time>
      </trkpt>
      <trkpt lat="43.93142" lon="5.2493">
        <ele>290</ele>
        <time>2014-05-28T13:50:10Z</time>
      </trkpt>
      <trkpt lat="43.93135" lon="5.24924">
        <ele>289</ele>
        <time>2014-05-28T13:50:17Z</time>
      </trkpt>
      <trkpt lat="43.93127" lon="5.24919">
        <ele>286</ele>
        <time>2014-05-28T13:50:24Z</time>
      </trkpt>
      <trkpt lat="43.93119" lon="5.24917">
        <ele>288</ele>
        <time>2014-05-28T13:53:21Z</time>
      </trkpt>
      <trkpt lat="43.93112" lon="5.24912">
        <ele>287</ele>
        <time>2014-05-28T13:53:29Z</time>
      </trkpt>
      <trkpt lat="43.93104" lon="5.24909">
        <ele>288</ele>
        <time>2014-05-28T13:53:37Z</time>
      </trkpt>
      <trkpt lat="43.93096" lon="5.24907">
        <ele>286</ele>
        <time>2014-05-28T13:53:47Z</time>
      </trkpt>
      <trkpt lat="43.93087" lon="5.24907">
        <ele>287</ele>
        <time>2014-05-28T13:53:55Z</time>
      </trkpt>
      <trkpt lat="43.93078" lon="5.24909">
        <ele>289</ele>
        <time>2014-05-28T13:54:27Z</time>
      </trkpt>
      <trkpt lat="43.9307" lon="5.24912">
        <ele>290</ele>
        <time>2014-05-28T13:54:43Z</time>
      </trkpt>
      <trkpt lat="43.93061" lon="5.24914">
        <ele>291</ele>
        <time>2014-05-28T13:54:52Z</time>
      </trkpt>
      <trkpt lat="43.93053" lon="5.24915">
        <ele>291</ele>
        <time>2014-05-28T13:54:59Z</time>
      </trkpt>
      <trkpt lat="43.93044" lon="5.24916">
        <ele>289</ele>
        <time>2014-05-28T13:55:11Z</time>
      </trkpt>
      <trkpt lat="43.93036" lon="5.2492">
        <ele>290</ele>
        <time>2014-05-28T13:55:19Z</time>
      </trkpt>
      <trkpt lat="43.93028" lon="5.24923">
        <ele>292</ele>
        <time>2014-05-28T13:55:26Z</time>
      </trkpt>
      <trkpt lat="43.93019" lon="5.24925">
        <ele>291</ele>
        <time>2014-05-28T13:55:33Z</time>
      </trkpt>
      <trkpt lat="43.93012" lon="5.2493">
        <ele>289</ele>
        <time>2014-05-28T13:55:40Z</time>
      </trkpt>
      <trkpt lat="43.93004" lon="5.2493">
        <ele>288</ele>
        <time>2014-05-28T13:55:49Z</time>
      </trkpt>
      <trkpt lat="43.92996" lon="5.24933">
        <ele>288</ele>
        <time>2014-05-28T13:56:00Z</time>
      </trkpt>
      <trkpt lat="43.92987" lon="5.24935">
        <ele>287</ele>
        <time>2014-05-28T13:56:10Z</time>
      </trkpt>
      <trkpt lat="43.92979" lon="5.24937">
        <ele>286</ele>
        <time>2014-05-28T13:56:19Z</time>
      </trkpt>
      <trkpt lat="43.92971" lon="5.24941">
        <ele>287</ele>
        <time>2014-05-28T13:56:28Z</time>
      </trkpt>
      <trkpt lat="43.92963" lon="5.24944">
        <ele>288</ele>
        <time>2014-05-28T13:56:36Z</time>
      </trkpt>
      <trkpt lat="43.92955" lon="5.24947">
        <ele>287</ele>
        <time>2014-05-28T13:56:43Z</time>
      </trkpt>
      <trkpt lat="43.92947" lon="5.2495">
        <ele>292</ele>
        <time>2014-05-28T13:56:50Z</time>
      </trkpt>
      <trkpt lat="43.92938" lon="5.24951">
        <ele>289</ele>
        <time>2014-05-28T13:56:58Z</time>
      </trkpt>
      <trkpt lat="43.9293" lon="5.24953">
        <ele>289</ele>
        <time>2014-05-28T13:57:07Z</time>
      </trkpt>
      <trkpt lat="43.92922" lon="5.24956">
        <ele>288</ele>
        <time>2014-05-28T13:57:16Z</time>
      </trkpt>
      <trkpt lat="43.92915" lon="5.24949">
        <ele>288</ele>
        <time>2014-05-28T13:57:24Z</time>
      </trkpt>
      <trkpt lat="43.9291" lon="5.2494">
        <ele>289</ele>
        <time>2014-05-28T13:57:33Z</time>
      </trkpt>
      <trkpt lat="43.92902" lon="5.24934">
        <ele>288</ele>
        <time>2014-05-28T13:57:42Z</time>
      </trkpt>
      <trkpt lat="43.92894" lon="5.24934">
        <ele>289</ele>
        <time>2014-05-28T13:57:52Z</time>
      </trkpt>
      <trkpt lat="43.92886" lon="5.24934">
        <ele>290</ele>
        <time>2014-05-28T13:58:01Z</time>
      </trkpt>
      <trkpt lat="43.92877" lon="5.24933">
        <ele>287</ele>
        <time>2014-05-28T13:58:10Z</time>
      </trkpt>
      <trkpt lat="43.92868" lon="5.24933">
        <ele>285</ele>
        <time>2014-05-28T13:58:24Z</time>
      </trkpt>
      <trkpt lat="43.9286" lon="5.24938">
        <ele>283</ele>
        <time>2014-05-28T13:58:36Z</time>
      </trkpt>
      <trkpt lat="43.92855" lon="5.24949">
        <ele>282</ele>
        <time>2014-05-28T13:58:47Z</time>
      </trkpt>
      <trkpt lat="43.92847" lon="5.24954">
        <ele>281</ele>
        <time>2014-05-28T13:58:56Z</time>
      </trkpt>
      <trkpt lat="43.92839" lon="5.24958">
        <ele>282</ele>
        <time>2014-05-28T13:59:07Z</time>
      </trkpt>
      <trkpt lat="43.92831" lon="5.24959">
        <ele>282</ele>
        <time>2014-05-28T13:59:16Z</time>
      </trkpt>
      <trkpt lat="43.92822" lon="5.24958">
        <ele>281</ele>
        <time>2014-05-28T13:59:24Z</time>
      </trkpt>
      <trkpt lat="43.92813" lon="5.24955">
        <ele>282</ele>
        <time>2014-05-28T13:59:35Z</time>
      </trkpt>
      <trkpt lat="43.92804" lon="5.24959">
        <ele>279</ele>
        <time>2014-05-28T13:59:46Z</time>
      </trkpt>
      <trkpt lat="43.92797" lon="5.24965">
        <ele>280</ele>
        <time>2014-05-28T13:59:56Z</time>
      </trkpt>
      <trkpt lat="43.9279" lon="5.24973">
        <ele>279</ele>
        <time>2014-05-28T14:00:04Z</time>
      </trkpt>
      <trkpt lat="43.92783" lon="5.2498">
        <ele>277</ele>
        <time>2014-05-28T14:00:16Z</time>
      </trkpt>
      <trkpt lat="43.92778" lon="5.24989">
        <ele>278</ele>
        <time>2014-05-28T14:00:25Z</time>
      </trkpt>
      <trkpt lat="43.92771" lon="5.24996">
        <ele>278</ele>
        <time>2014-05-28T14:00:34Z</time>
      </trkpt>
      <trkpt lat="43.92765" lon="5.25003">
        <ele>278</ele>
        <time>2014-05-28T14:00:43Z</time>
      </trkpt>
      <trkpt lat="43.92758" lon="5.2501">
        <ele>277</ele>
        <time>2014-05-28T14:00:53Z</time>
      </trkpt>
      <trkpt lat="43.9275" lon="5.25015">
        <ele>275</ele>
        <time>2014-05-28T14:01:02Z</time>
      </trkpt>
      <trkpt lat="43.92743" lon="5.25022">
        <ele>275</ele>
        <time>2014-05-28T14:01:12Z</time>
      </trkpt>
      <trkpt lat="43.92736" lon="5.25029">
        <ele>276</ele>
        <time>2014-05-28T14:01:24Z</time>
      </trkpt>
      <trkpt lat="43.92729" lon="5.25036">
        <ele>278</ele>
        <time>2014-05-28T14:01:35Z</time>
      </trkpt>
      <trkpt lat="43.92722" lon="5.25043">
        <ele>275</ele>
        <time>2014-05-28T14:01:48Z</time>
      </trkpt>
      <trkpt lat="43.92715" lon="5.2505">
        <ele>274</ele>
        <time>2014-05-28T14:01:58Z</time>
      </trkpt>
      <trkpt lat="43.92708" lon="5.25056">
        <ele>273</ele>
        <time>2014-05-28T14:02:06Z</time>
      </trkpt>
      <trkpt lat="43.927" lon="5.25062">
        <ele>271</ele>
        <time>2014-05-28T14:02:16Z</time>
      </trkpt>
      <trkpt lat="43.92692" lon="5.25067">
        <ele>270</ele>
        <time>2014-05-28T14:02:29Z</time>
      </trkpt>
      <trkpt lat="43.92685" lon="5.25074">
        <ele>271</ele>
        <time>2014-05-28T14:02:47Z</time>
      </trkpt>
      <trkpt lat="43.92682" lon="5.25085">
        <ele>270</ele>
        <time>2014-05-28T14:02:57Z</time>
      </trkpt>
      <trkpt lat="43.92687" lon="5.25094">
        <ele>266</ele>
        <time>2014-05-28T14:03:17Z</time>
      </trkpt>
      <trkpt lat="43.92693" lon="5.25103">
        <ele>267</ele>
        <time>2014-05-28T14:03:36Z</time>
      </trkpt>
      <trkpt lat="43.92697" lon="5.25113">
        <ele>267</ele>
        <time>2014-05-28T14:03:50Z</time>
      </trkpt>
      <trkpt lat="43.92696" lon="5.25125">
        <ele>263</ele>
        <time>2014-05-28T14:04:03Z</time>
      </trkpt>
      <trkpt lat="43.927" lon="5.25135">
        <ele>263</ele>
        <time>2014-05-28T14:04:15Z</time>
      </trkpt>
      <trkpt lat="43.92705" lon="5.25145">
        <ele>263</ele>
        <time>2014-05-28T14:04:26Z</time>
      </trkpt>
      <trkpt lat="43.92713" lon="5.25151">
        <ele>263</ele>
        <time>2014-05-28T14:04:34Z</time>
      </trkpt>
      <trkpt lat="43.92714" lon="5.25162">
        <ele>262</ele>
        <time>2014-05-28T14:05:34Z</time>
      </trkpt>
      <trkpt lat="43.92711" lon="5.25173">
        <ele>260</ele>
        <time>2014-05-28T14:05:46Z</time>
      </trkpt>
      <trkpt lat="43.92709" lon="5.25184">
        <ele>260</ele>
        <time>2014-05-28T14:05:55Z</time>
      </trkpt>
      <trkpt lat="43.92704" lon="5.25194">
        <ele>259</ele>
        <time>2014-05-28T14:06:06Z</time>
      </trkpt>
      <trkpt lat="43.92697" lon="5.252">
        <ele>259</ele>
        <time>2014-05-28T14:06:16Z</time>
      </trkpt>
      <trkpt lat="43.92692" lon="5.2521">
        <ele>259</ele>
        <time>2014-05-28T14:06:27Z</time>
      </trkpt>
      <trkpt lat="43.92688" lon="5.2522">
        <ele>259</ele>
        <time>2014-05-28T14:06:38Z</time>
      </trkpt>
      <trkpt lat="43.92683" lon="5.2523">
        <ele>259</ele>
        <time>2014-05-28T14:06:55Z</time>
      </trkpt>
      <trkpt lat="43.92677" lon="5.25239">
        <ele>258</ele>
        <time>2014-05-28T14:07:06Z</time>
      </trkpt>
      <trkpt lat="43.9267" lon="5.25247">
        <ele>256</ele>
        <time>2014-05-28T14:07:15Z</time>
      </trkpt>
      <trkpt lat="43.92662" lon="5.2525">
        <ele>256</ele>
        <time>2014-05-28T14:07:24Z</time>
      </trkpt>
      <trkpt lat="43.92653" lon="5.25248">
        <ele>257</ele>
        <time>2014-05-28T14:07:33Z</time>
      </trkpt>
      <trkpt lat="43.92645" lon="5.25244">
        <ele>258</ele>
        <time>2014-05-28T14:07:41Z</time>
      </trkpt>
      <trkpt lat="43.92638" lon="5.25238">
        <ele>257</ele>
        <time>2014-05-28T14:07:49Z</time>
      </trkpt>
      <trkpt lat="43.9263" lon="5.25238">
        <ele>257</ele>
        <time>2014-05-28T14:07:59Z</time>
      </trkpt>
      <trkpt lat="43.92623" lon="5.25245">
        <ele>256</ele>
        <time>2014-05-28T14:08:12Z</time>
      </trkpt>
      <trkpt lat="43.92615" lon="5.2525">
        <ele>256</ele>
        <time>2014-05-28T14:08:25Z</time>
      </trkpt>
      <trkpt lat="43.92608" lon="5.25248">
        <ele>257</ele>
        <time>2014-05-28T14:08:34Z</time>
      </trkpt>
      <trkpt lat="43.92593" lon="5.25243">
        <ele>287</ele>
        <time>2014-05-28T14:08:53Z</time>
      </trkpt>
      <trkpt lat="43.92586" lon="5.25247">
        <ele>257</ele>
        <time>2014-05-28T14:11:05Z</time>
      </trkpt>
      <trkpt lat="43.92577" lon="5.25248">
        <ele>256</ele>
        <time>2014-05-28T14:11:16Z</time>
      </trkpt>
      <trkpt lat="43.92577" lon="5.25261">
        <ele>257</ele>
        <time>2014-05-28T14:11:31Z</time>
      </trkpt>
      <trkpt lat="43.92577" lon="5.25273">
        <ele>252</ele>
        <time>2014-05-28T14:11:42Z</time>
      </trkpt>
      <trkpt lat="43.92576" lon="5.25285">
        <ele>242</ele>
        <time>2014-05-28T14:11:54Z</time>
      </trkpt>
      <trkpt lat="43.92578" lon="5.25296">
        <ele>237</ele>
        <time>2014-05-28T14:12:05Z</time>
      </trkpt>
      <trkpt lat="43.92574" lon="5.25307">
        <ele>236</ele>
        <time>2014-05-28T14:13:11Z</time>
      </trkpt>
      <trkpt lat="43.92577" lon="5.25318">
        <ele>239</ele>
        <time>2014-05-28T14:48:02Z</time>
      </trkpt>
      <trkpt lat="43.9258" lon="5.25329">
        <ele>241</ele>
        <time>2014-05-28T14:48:16Z</time>
      </trkpt>
      <trkpt lat="43.92583" lon="5.2534">
        <ele>240</ele>
        <time>2014-05-28T14:48:31Z</time>
      </trkpt>
      <trkpt lat="43.92587" lon="5.25351">
        <ele>240</ele>
        <time>2014-05-28T14:48:43Z</time>
      </trkpt>
      <trkpt lat="43.92588" lon="5.25363">
        <ele>235</ele>
        <time>2014-05-28T14:48:57Z</time>
      </trkpt>
      <trkpt lat="43.92591" lon="5.25374">
        <ele>231</ele>
        <time>2014-05-28T14:49:16Z</time>
      </trkpt>
      <trkpt lat="43.92589" lon="5.25385">
        <ele>228</ele>
        <time>2014-05-28T14:49:28Z</time>
      </trkpt>
      <trkpt lat="43.92583" lon="5.25394">
        <ele>226</ele>
        <time>2014-05-28T14:49:38Z</time>
      </trkpt>
      <trkpt lat="43.92577" lon="5.25403">
        <ele>224</ele>
        <time>2014-05-28T14:49:48Z</time>
      </trkpt>
      <trkpt lat="43.92572" lon="5.25412">
        <ele>223</ele>
        <time>2014-05-28T14:50:00Z</time>
      </trkpt>
      <trkpt lat="43.92566" lon="5.25421">
        <ele>222</ele>
        <time>2014-05-28T14:50:11Z</time>
      </trkpt>
      <trkpt lat="43.92558" lon="5.25422">
        <ele>218</ele>
        <time>2014-05-28T14:50:32Z</time>
      </trkpt>
      <trkpt lat="43.92549" lon="5.25419">
        <ele>217</ele>
        <time>2014-05-28T14:50:43Z</time>
      </trkpt>
      <trkpt lat="43.92542" lon="5.25413">
        <ele>218</ele>
        <time>2014-05-28T14:50:52Z</time>
      </trkpt>
      <trkpt lat="43.92534" lon="5.25408">
        <ele>219</ele>
        <time>2014-05-28T14:51:03Z</time>
      </trkpt>
      <trkpt lat="43.92527" lon="5.25401">
        <ele>220</ele>
        <time>2014-05-28T14:51:16Z</time>
      </trkpt>
      <trkpt lat="43.92535" lon="5.25396">
        <ele>210</ele>
        <time>2014-05-28T14:53:12Z</time>
      </trkpt>
      <trkpt lat="43.92543" lon="5.254">
        <ele>216</ele>
        <time>2014-05-28T14:53:21Z</time>
      </trkpt>
      <trkpt lat="43.92536" lon="5.25407">
        <ele>220</ele>
        <time>2014-05-28T14:54:13Z</time>
      </trkpt>
      <trkpt lat="43.92527" lon="5.25406">
        <ele>219</ele>
        <time>2014-05-28T14:54:29Z</time>
      </trkpt>
      <trkpt lat="43.92519" lon="5.25401">
        <ele>217</ele>
        <time>2014-05-28T14:55:24Z</time>
      </trkpt>
      <trkpt lat="43.92519" lon="5.25401">
        <ele>216</ele>
        <time>2014-05-28T14:56:28Z</time>
      </trkpt>
      <trkpt lat="43.92519" lon="5.25401">
        <ele>216</ele>
        <time>2014-05-28T14:56:28Z</time>
      </trkpt>
    </trkseg>
  </trk>
</gpx>